Graceful Lady — 00 — position and weather

sailwx.info

Track history (hours):
 
Tides and Currents Weather Stations Pressure Air Temp Water Temp Dewpoint Dewpoint Depression Visibility Wind Speed Wind Dir Waves Ship Positions

Graceful Lady

Last reported at 2016-Dec-08 07:33 UTC. Time now 2016-Dec-08 07:56 UTC.
Position N 37°38' E 121°25'.

Length 6 m.

Type: Pollution control. MMSI: 316014038.

Date/timePositionNaut miles runAvg speedWind from/ knotsBaromVisibWave heightAir tempDewpointWater temp
2016-Dec-08 07:33N 37°38' E 121°25'51414.5
2016-Dec-08 07:33N 37°33' E 121°23'1558.4
2016-Dec-08 07:33N 37°33' E 121°25'458329580.5
2016-Dec-08 07:33N 29°58' E 122°15'1220846.6
2016-Dec-08 07:33N 29°54' E 122°02'59039302.0
2016-Dec-08 07:32N 39°01' E 117°36'875262486.3
2016-Dec-08 07:32N 24°26' E 117°51'7162678519.4
2016-Dec-08 07:31N 05°18' W 004°04'7163132231.2
2016-Dec-08 07:28N 39°56' E 119°42'52219767.3
2016-Dec-08 07:26N 31°22' E 121°28'372421.5
2016-Dec-08 06:34N 37°33' E 121°23'72692907775.3
2016-Dec-08 06:33N 05°18' W 004°04'727026172883.3
2016-Dec-08 06:33N 37°38' E 121°25'413423.4
2016-Dec-08 06:33N 37°34' E 121°25'46044736.5
2016-Dec-08 06:33N 29°57' E 122°16'591193434.1
2016-Dec-08 06:33N 39°01' E 117°36'875165780.8
2016-Dec-08 06:32N 24°26' E 117°51'47448800.6
2016-Dec-08 06:32N 32°01' E 120°23'47471104.9
2016-Dec-08 06:31N 24°26' E 117°53'39618273.0
2016-Dec-08 06:30N 29°54' E 122°02'61319039.1
2016-Dec-08 06:28N 39°56' E 119°42'4747893.2
2016-Dec-08 06:24N 32°04' E 120°30'64635.5
2016-Dec-08 06:18N 31°21' E 121°26'66917323.1
2016-Dec-08 06:16N 22°28' E 113°51'635896.0
2016-Dec-08 05:34N 29°51' E 122°18'464185689.5
2016-Dec-08 05:33N 37°33' E 121°23'3801.9
2016-Dec-08 05:33N 37°36' E 121°25'4631667046.2
2016-Dec-08 05:33N 29°54' E 122°02'629251540.0
2016-Dec-08 05:33N 22°24' E 113°53'252151062.1
2016-Dec-08 05:33N 24°26' E 117°53'45671299.1
2016-Dec-08 05:33N 31°21' E 121°26'37812026.8
2016-Dec-08 05:31N 37°38' E 121°25'1603686.9
2016-Dec-08 05:28N 39°56' E 119°42'11111443.8
2016-Dec-08 05:27N 39°01' E 117°36'705750410.0
2016-Dec-08 05:19N 05°18' W 004°04'72699582.6
2016-Dec-08 04:34N 37°33' E 121°23'31374.7
2016-Dec-08 04:33N 37°36' E 121°25'810324171.9
2016-Dec-08 04:33N 24°26' E 117°53'39695019.7
2016-Dec-08 04:33N 29°54' E 122°02'46610745.8
2016-Dec-08 04:30N 37°38' E 121°25'46928143.1
2016-Dec-08 04:29N 29°51' E 122°18'73771562090.2
2016-Dec-08 04:29N 05°18' W 004°04'7057725903.7
2016-Dec-08 04:29N 39°01' E 117°36'11112137.4
2016-Dec-08 04:28N 39°56' E 119°42'5222105.7
2016-Dec-08 04:13N 31°21' E 121°26'64641.3
2016-Dec-08 04:07N 32°04' E 120°30'158281.8
2016-Dec-08 03:34N 29°56' E 122°17'464167086.2
2016-Dec-08 03:33N 37°38' E 121°25'19778971.6
2016-Dec-08 03:33N 39°01' E 117°36'199102100.4
2016-Dec-08 03:33N 37°36' E 121°25'8102917546.7
2016-Dec-08 03:33N 24°26' E 117°53'7164158225.7
2016-Dec-08 03:30N 05°18' W 004°04'7086418188.4
2016-Dec-08 03:29N 38°06' E 118°02'1355837.8
2016-Dec-08 03:28N 39°56' E 119°42'52248214.6
2016-Dec-08 03:27N 31°21' E 121°26'373415.6
2016-Dec-08 02:34N 37°33' E 121°23'34811.3
2016-Dec-08 02:33N 37°36' E 121°25'810194503.1
2016-Dec-08 02:33N 24°26' E 117°53'406145981.6
2016-Dec-08 02:33N 29°58' E 122°15'125977.0
2016-Dec-08 02:33N 29°54' E 122°02'590117903.6
2016-Dec-08 02:33N 39°01' E 117°36'49777764.5
2016-Dec-08 02:32N 31°21' E 121°26'7317642431.7
2016-Dec-08 02:32N 05°18' W 004°04'7162422684.1
2016-Dec-08 02:31N 24°26' E 117°51'813731910.4
2016-Dec-08 02:31N 37°38' E 121°25'33731117.8
2016-Dec-08 02:30N 32°04' E 120°30'47415498.3
2016-Dec-08 02:28N 39°56' E 119°42'164179.9
2016-Dec-08 01:34N 37°33' E 121°23'458274584.7
2016-Dec-08 01:33N 29°58' E 122°15'406162203.7
2016-Dec-08 01:33N 24°26' E 117°53'39671262.9
2016-Dec-08 01:33N 29°54' E 122°02'73625300280.8
2016-Dec-08 01:33N 05°18' W 004°04'7162444547.0
2016-Dec-08 01:32N 24°26' E 117°51'81432912.3
2016-Dec-08 01:30N 37°39' E 121°25'378340222.3
2016-Dec-08 01:30N 31°21' E 121°26'644298.7
2016-Dec-08 01:29N 32°04' E 120°30'47425445.3
2016-Dec-08 01:28N 39°56' E 119°42'88913619.7
2016-Dec-08 01:24N 25°07' E 119°09'8378078.7
2016-Dec-08 01:18N 39°01' E 117°36'527844.7
2016-Dec-08 01:18N 38°15' E 118°09'159215.2
2016-Dec-08 00:34N 37°33' E 121°23'458329844.3
2016-Dec-08 00:33N 29°57' E 122°15'467560442.4
2016-Dec-08 00:33N 37°42' E 121°19'83516.4
2016-Dec-08 00:33N 37°36' E 121°25'7270654344.6
2016-Dec-08 00:33N 05°18' W 004°04'73171197259.3
2016-Dec-08 00:32N 31°21' E 121°26'49724841.4
2016-Dec-08 00:31N 39°01' E 117°36'87524998.7
2016-Dec-08 00:29N 24°26' E 117°51'93562324.3
2016-Dec-08 00:28N 39°56' E 119°42'8896401.3
2016-Dec-08 00:20N 25°07' E 119°09'7913364.2
2016-Dec-08 00:06N 38°17' E 118°13'156292.2
2016-Dec-07 23:34N 37°33' E 121°23'463833564.5
2016-Dec-07 23:33N 29°52' E 122°17'475213568.0
2016-Dec-07 23:33N 37°44' E 121°12'816419688.1
2016-Dec-07 23:33N 24°26' E 117°53'810291754.7
2016-Dec-07 23:33N 37°36' E 121°25'81131724.0
2016-Dec-07 23:32N 24°26' E 117°51'39614998.9
2016-Dec-07 23:30N 29°54' E 121°59'58818905.5
2016-Dec-07 23:28N 39°01' E 117°36'11180108.8
2016-Dec-07 23:28N 39°56' E 119°42'12128966.1
2016-Dec-07 23:28N 38°17' E 118°13'709540413.0
2016-Dec-07 23:17N 05°18' W 004°04'731799395.1
2016-Dec-07 23:13N 31°21' E 121°26'373568.8
2016-Dec-07 22:34N 37°33' E 121°23'464208902.4
2016-Dec-07 22:33N 29°51' E 122°18'403145090.8
2016-Dec-07 22:33N 24°26' E 117°51'811224508.3
2016-Dec-07 22:33N 37°36' E 121°25'810583509.3
2016-Dec-07 22:33N 24°26' E 117°53'875225021.0
2016-Dec-07 22:33N 39°01' E 117°36'1111415.3
2016-Dec-07 22:28N 39°56' E 119°42'5228001.6
2016-Dec-07 22:24N 31°21' E 121°26'373442.5
2016-Dec-07 21:34N 37°33' E 121°23'464238748.7
2016-Dec-07 21:33N 29°51' E 122°18'403131899.2
2016-Dec-07 21:33N 24°26' E 117°51'2372.0
2016-Dec-07 21:33N 24°26' E 117°53'810486254.3
2016-Dec-07 21:33N 37°36' E 121°25'72702617379.2
2016-Dec-07 21:33N 05°18' W 004°04'70952128414.5
2016-Dec-07 21:32N 38°17' E 118°13'4458130.0
2016-Dec-07 21:29N 31°21' E 121°26'52226862.4
2016-Dec-07 21:28N 39°56' E 119°42'1112743.4
2016-Dec-07 21:26N 39°01' E 117°36'1839391.9
2016-Dec-07 21:24N 37°43' E 121°07'1619.1
2016-Dec-07 20:34N 37°33' E 121°23'31374.7
2016-Dec-07 20:33N 37°36' E 121°25'810265229.6
2016-Dec-07 20:33N 24°26' E 117°53'40285136.7
2016-Dec-07 20:33N 29°51' E 122°18'403725445.5
2016-Dec-07 20:33N 24°26' E 117°51'831106831.6
2016-Dec-07 20:32N 38°17' E 118°13'1414490.4
2016-Dec-07 20:31N 37°43' E 121°07'1493479.5
2016-Dec-07 20:28N 39°56' E 119°42'716329468.7
2016-Dec-07 20:13N 05°18' W 004°04'7317120824.3
2016-Dec-07 20:10N 31°21' E 121°26'49727946.9
2016-Dec-07 20:09N 39°01' E 117°36'199338.4
2016-Dec-07 19:34N 37°33' E 121°23'3874.8
2016-Dec-07 19:33N 37°36' E 121°25'810729381.4
2016-Dec-07 19:33N 24°26' E 117°53'456234265.8
2016-Dec-07 19:33N 31°21' E 121°26'445801015.0
2016-Dec-07 19:33N 38°18' E 118°16'70976387181.0
2016-Dec-07 19:33N 05°18' W 004°04'7377577294.5
2016-Dec-07 19:32N 29°51' E 122°18'40360453.8
2016-Dec-07 19:32N 24°26' E 117°51'87569996.3
2016-Dec-07 19:31N 39°01' E 117°36'18320544.8
2016-Dec-07 19:31N 37°43' E 121°07'99337223.4
2016-Dec-07 19:29N 22°24' E 113°53'62518588.7
2016-Dec-07 19:27N 29°28' E 122°23'6427753.2
2016-Dec-07 19:22N 39°56' E 119°42'164202.4
2016-Dec-07 18:34N 37°33' E 121°23'464208905.1
2016-Dec-07 18:33N 29°51' E 122°18'467112079.5
2016-Dec-07 18:33N 37°36' E 121°26'72711189873.5
2016-Dec-07 18:33N 05°18' W 004°04'71641983906.0
2016-Dec-07 18:33N 24°26' E 117°53'45652898.1
2016-Dec-07 18:32N 31°21' E 121°26'38315835.1
2016-Dec-07 18:31N 37°43' E 121°07'1319258.1
2016-Dec-07 18:30N 38°21' E 118°28'1113791.3
2016-Dec-07 18:28N 39°56' E 119°42'10888533.2
2016-Dec-07 18:20N 22°30' E 113°51'6317307.3
2016-Dec-07 18:15N 29°38' E 122°28'1181568.9
2016-Dec-07 18:11N 31°25' E 121°32'368594.7
2016-Dec-07 17:34N 37°33' E 121°23'199357399.5
2016-Dec-07 17:33N 39°01' E 117°36'183109572.4
2016-Dec-07 17:33N 37°43' E 121°07'47299956.2
2016-Dec-07 17:33N 29°55' E 122°20'406121812.6
2016-Dec-07 17:33N 24°26' E 117°53'816146874.6
2016-Dec-07 17:33N 37°43' E 121°18'48382737.2
2016-Dec-07 17:32N 29°44' E 122°30'1112081.6
2016-Dec-07 17:29N 31°22' E 121°30'52229813.2
2016-Dec-07 17:28N 39°56' E 119°42'5221880370.3
2016-Dec-07 17:28N 31°21' E 121°26'4468442.3
2016-Dec-07 17:25N 38°25' E 118°40'53737171.0
2016-Dec-07 17:24N 29°54' E 121°59'460547.7
2016-Dec-07 16:34N 37°33' E 121°23'461110566.8
2016-Dec-07 16:33N 29°55' E 122°20'406730884.3
2016-Dec-07 16:33N 24°26' E 117°53'41174028.1
2016-Dec-07 16:33N 29°53' E 122°32'47558966.3
2016-Dec-07 16:32N 37°43' E 121°07'149858.7
2016-Dec-07 16:22N 39°56' E 119°42'1111395.6
2016-Dec-07 16:17N 39°01' E 117°36'59251975.3
2016-Dec-07 16:17N 29°56' E 122°17'1272837.7
2016-Dec-07 16:14N 31°45' E 121°02'32227.7
2016-Dec-07 16:05N 31°21' E 121°26'98184.0
2016-Dec-07 15:34N 29°55' E 122°20'406730884.3
2016-Dec-07 15:34N 24°26' E 117°53'4701691412.6
2016-Dec-07 15:34N 31°44' E 121°06'126151132.2
2016-Dec-07 15:34N 30°03' E 122°34'468336833.0
2016-Dec-07 15:33N 37°45' E 121°09'1835979.4
2016-Dec-07 15:32N 39°01' E 117°36'596357778.9
2016-Dec-07 15:31N 29°53' E 122°21'1001041.7
2016-Dec-07 15:26N 31°21' E 121°26'5228357.2
2016-Dec-07 15:22N 39°56' E 119°42'6133980.3
2016-Dec-07 15:13N 29°54' E 121°59'460703.6
2016-Dec-07 14:34N 37°33' E 121°23'35352944.6
2016-Dec-07 14:33N 31°40' E 121°12'120216871.8
2016-Dec-07 14:33N 29°55' E 122°20'476171436.3
2016-Dec-07 14:33N 37°47' E 121°07'18159231.5
2016-Dec-07 14:33N 39°01' E 117°36'605136024.0
2016-Dec-07 14:32N 29°45' E 122°25'40142443.3
2016-Dec-07 14:32N 24°26' E 117°53'1013462.4
2016-Dec-07 14:30N 23°07' E 116°43'102028466.8
2016-Dec-07 14:28N 39°56' E 119°42'522125359.4
2016-Dec-07 14:28N 31°21' E 121°26'91560.1
2016-Dec-07 14:18N 29°54' E 121°59'486656.1
2016-Dec-07 13:34N 23°14' E 116°52'8913207091.2
2016-Dec-07 13:34N 37°33' E 121°23'461110686.7
2016-Dec-07 13:33N 29°54' E 122°18'9811707.8
2016-Dec-07 13:33N 31°21' E 121°26'16774.7
2016-Dec-07 13:31N 31°36' E 121°18'37237170.5
2016-Dec-07 13:31N 37°47' E 121°07'475285107.5
2016-Dec-07 13:31N 29°54' E 121°59'395118463.3
2016-Dec-07 13:31N 24°26' E 117°53'9356509.2
2016-Dec-07 13:22N 39°56' E 119°42'164202.4
2016-Dec-07 12:34N 37°33' E 121°23'36231815.3
2016-Dec-07 12:33N 31°31' E 121°24'37711895.1
2016-Dec-07 12:31N 37°47' E 121°07'81915429.3
2016-Dec-07 12:28N 24°26' E 117°53'808893.7
2016-Dec-07 11:34N 37°33' E 121°23'19202.1
2016-Dec-07 11:28N 37°47' E 121°07'8195678.2
2016-Dec-07 11:19N 24°26' E 117°53'71641611924.1
2016-Dec-07 11:19N 05°18' W 004°04'732461602.1
2016-Dec-07 11:12N 31°24' E 121°34'9810992.4
2016-Dec-07 11:11N 29°53' E 122°17'31317589.2
2016-Dec-07 11:10N 25°22' E 119°22'875185216.0
2016-Dec-07 11:10N 39°56' E 119°42'164269.1
2016-Dec-07 10:34N 37°33' E 121°23'458329501.7
2016-Dec-07 10:33N 29°58' E 122°15'936218.8
2016-Dec-07 10:33N 31°21' E 121°26'132943.5
2016-Dec-07 10:32N 31°20' E 121°41'73313770153.4
2016-Dec-07 10:32N 05°18' W 004°04'7164179102.7
2016-Dec-07 10:30N 24°26' E 117°53'943850.0
2016-Dec-07 10:28N 25°22' E 119°16'874196667.2
2016-Dec-07 10:28N 39°56' E 119°42'52214686.3
2016-Dec-07 10:26N 31°22' E 121°35'6746908.7
2016-Dec-07 10:20N 22°31' E 113°51'9871273.9
2016-Dec-07 09:34N 37°35' E 121°27'811162168.6
2016-Dec-07 09:33N 24°26' E 117°51'406133025.4
2016-Dec-07 09:33N 29°58' E 122°15'9311147.5
2016-Dec-07 09:33N 31°24' E 121°34'46142582.1
2016-Dec-07 09:32N 24°26' E 117°53'7164277320.2
2016-Dec-07 09:30N 05°18' W 004°04'73262930231.2
2016-Dec-07 09:30N 31°22' E 121°35'5223805.4
2016-Dec-07 09:22N 39°56' E 119°42'5222332.3
2016-Dec-07 09:09N 31°21' E 121°26'382653.9
2016-Dec-07 08:34N 37°43' E 121°30'37690228.0
2016-Dec-07 08:33N 31°27' E 121°28'507140524.2
2016-Dec-07 08:33N 23°42' E 117°38'45163481.5
2016-Dec-07 08:33N 24°26' E 117°51'406243774.7
2016-Dec-07 08:33N 29°58' E 122°15'40623226.4
2016-Dec-07 08:32N 24°26' E 117°51'46183054.4
2016-Dec-07 08:32N 31°22' E 121°35'498112102.3
2016-Dec-07 08:31N 39°01' E 117°36'7057373624.4
2016-Dec-07 08:30N 05°18' W 004°04'7336480154.1
2016-Dec-07 08:29N 31°16' E 121°45'53026508.8
2016-Dec-07 08:28N 39°56' E 119°42'522208866.8
2016-Dec-07 08:28N 31°21' E 121°26'389429.7
2016-Dec-07 07:34N 37°50' E 121°32'827496137.5
2016-Dec-07 07:33N 24°24' E 117°57'405485735.1
2016-Dec-07 07:33N 29°57' E 122°16'4531629459.5
2016-Dec-07 07:33N 23°41' E 117°33'71511029710.3
2016-Dec-07 07:33N 05°18' W 004°04'716212891868.2
2016-Dec-07 07:33N 24°26' E 117°51'4639260.1
2016-Dec-07 07:30N 31°24' E 121°37'5910.5
2016-Dec-07 07:30N 31°20' E 121°41'502139132.8
2016-Dec-07 07:29N 39°01' E 117°36'1114886.7
2016-Dec-07 07:28N 39°56' E 119°42'52226854.3
2016-Dec-07 07:27N 31°21' E 121°26'3874718.9
2016-Dec-07 07:22N 37°47' E 121°07'180223.1
2016-Dec-07 06:33N 39°01' E 117°38'8771052817.9
2016-Dec-07 06:33N 24°24' E 117°57'4479071.5
2016-Dec-07 06:33N 23°45' E 117°35'863517807.1
2016-Dec-07 06:33N 37°49' E 121°06'48186545.3
2016-Dec-07 06:33N 29°52' E 122°17'73751896526.8
2016-Dec-07 06:33N 05°18' W 004°04'7329538423.8
2016-Dec-07 06:32N 31°22' E 121°39'119743.6
2016-Dec-07 06:32N 31°21' E 121°26'934016.8
2016-Dec-07 06:32N 31°24' E 121°37'47824597.5
2016-Dec-07 06:31N 24°03' E 118°05'261663.3
2016-Dec-07 06:30N 24°26' E 117°51'3964626.4
2016-Dec-07 06:25N 29°54' E 121°59'61314412.4
2016-Dec-07 06:22N 39°56' E 119°42'96424276.7
2016-Dec-07 06:20N 23°56' E 117°52'2836.6
2016-Dec-07 05:33N 24°24' E 117°57'4439550.1
2016-Dec-07 05:33N 23°45' E 117°35'915411677.4
2016-Dec-07 05:33N 38°60' E 117°40'495148398.7
2016-Dec-07 05:33N 31°24' E 121°34'482157867.3
2016-Dec-07 05:33N 24°01' E 117°57'265451.0
2016-Dec-07 05:33N 24°26' E 117°51'45731611.4
2016-Dec-07 05:32N 31°21' E 121°26'111391.8
2016-Dec-07 05:31N 31°22' E 121°39'7329479686.8
2016-Dec-07 05:30N 05°18' W 004°04'73771770370.5
2016-Dec-07 05:30N 29°51' E 122°18'993237.7
2016-Dec-07 05:28N 31°24' E 121°37'921639.6
2016-Dec-07 05:25N 29°54' E 121°59'61312672.9
2016-Dec-07 05:22N 39°56' E 119°42'9361156.5
2016-Dec-07 04:33N 24°24' E 117°58'1865542.0
2016-Dec-07 04:33N 24°07' E 118°04'4151493170.3
2016-Dec-07 04:33N 29°55' E 122°17'106380079.4
2016-Dec-07 04:33N 31°30' E 121°23'135970.0
2016-Dec-07 04:33N 31°24' E 121°37'73273296981.4
2016-Dec-07 04:33N 05°18' W 004°04'715125744989.1
2016-Dec-07 04:33N 23°45' E 117°35'50656920.9
2016-Dec-07 04:33N 31°22' E 121°39'67778609.7
2016-Dec-07 04:32N 22°29' E 113°51'1009363368.7
2016-Dec-07 04:32N 38°59' E 117°40'1101694.3
2016-Dec-07 04:28N 39°56' E 119°42'5221438.3
2016-Dec-07 04:06N 31°21' E 121°26'2037.3
2016-Dec-07 03:34N 31°38' E 121°14'465209200.6
2016-Dec-07 03:33N 24°25' E 118°04'135003.2
2016-Dec-07 03:33N 24°26' E 117°51'463138897.0
2016-Dec-07 03:33N 31°24' E 121°37'467841010.5
2016-Dec-07 03:33N 24°14' E 118°09'885167750.7
2016-Dec-07 03:33N 38°59' E 117°40'49748312.0
2016-Dec-07 03:32N 31°22' E 121°39'506910822.5
2016-Dec-07 03:32N 23°45' E 117°35'861387522.2
2016-Dec-07 03:32N 37°46' E 121°09'47256618.3
2016-Dec-07 03:31N 29°58' E 122°15'10742640.4
2016-Dec-07 03:31N 31°33' E 121°19'13387.3
2016-Dec-07 03:29N 31°21' E 121°26'52226476.4
2016-Dec-07 03:28N 39°56' E 119°42'7163548618.6
2016-Dec-07 03:27N 05°18' W 004°04'71517987.9
2016-Dec-07 02:34N 23°45' E 117°35'48172111.3
2016-Dec-07 02:33N 24°22' E 118°08'467560025.5
2016-Dec-07 02:33N 31°38' E 121°17'467840731.2
2016-Dec-07 02:33N 24°21' E 118°09'40153486.8
2016-Dec-07 02:33N 29°58' E 122°15'9282815.1
2016-Dec-07 02:33N 31°24' E 121°37'365930.7
2016-Dec-07 02:33N 31°46' E 121°03'464167001.2
2016-Dec-07 02:32N 38°59' E 117°40'70611694608.0
2016-Dec-07 02:32N 05°18' W 004°04'7317487807.4
2016-Dec-07 02:31N 31°21' E 121°26'38268830.1
2016-Dec-07 02:31N 37°43' E 121°04'1483043.3
2016-Dec-07 02:28N 39°56' E 119°42'93578267.7
2016-Dec-07 02:27N 24°26' E 117°51'4348.4
2016-Dec-07 01:33N 23°45' E 117°35'449807531.0
2016-Dec-07 01:33N 29°58' E 122°15'4011444990.4
2016-Dec-07 01:33N 24°25' E 118°02'128649.4
2016-Dec-07 01:33N 24°15' E 118°09'46639944.7
2016-Dec-07 01:33N 31°23' E 121°39'2234.8
2016-Dec-07 01:32N 31°24' E 121°37'495104803.8
2016-Dec-07 01:32N 38°59' E 117°40'49417966.8
2016-Dec-07 01:30N 31°21' E 121°26'52214460.2
2016-Dec-07 01:28N 39°56' E 119°42'935140229.6
2016-Dec-07 01:28N 24°26' E 117°51'1111.7
2016-Dec-07 00:33N 24°25' E 118°02'459110221.1
2016-Dec-07 00:33N 31°23' E 121°39'9222015.4
2016-Dec-07 00:33N 29°57' E 122°16'414186395.4
2016-Dec-07 00:33N 24°10' E 118°02'46739136.1
2016-Dec-07 00:32N 31°21' E 121°26'50078250.0
2016-Dec-07 00:32N 23°45' E 117°35'51618199.4
2016-Dec-07 00:30N 31°47' E 121°03'41662474.2
2016-Dec-07 00:30N 38°42' E 121°47'728326217021.4
2016-Dec-07 00:30N 05°18' W 004°04'7163260455.3
2016-Dec-07 00:28N 39°56' E 119°42'9355481.3
2016-Dec-07 00:18N 24°26' E 117°51'1114.4
2016-Dec-06 23:34N 24°25' E 118°02'46999219.7
2016-Dec-06 23:33N 31°44' E 121°07'3562400.8
2016-Dec-06 23:33N 31°23' E 121°39'9726832.3
2016-Dec-06 23:33N 29°51' E 122°17'73761397475.4
2016-Dec-06 23:33N 05°18' W 004°04'71724303104.5
2016-Dec-06 23:33N 24°03' E 117°58'896100793.5
2016-Dec-06 23:32N 38°59' E 117°40'91476527.8
2016-Dec-06 23:31N 23°45' E 117°35'500112484.4
2016-Dec-06 23:31N 31°21' E 121°26'457205474.3
2016-Dec-06 23:31N 24°26' E 117°51'93519014.2
2016-Dec-06 23:28N 39°56' E 119°42'120942.8
2016-Dec-06 23:20N 38°50' E 121°51'4141507.8
2016-Dec-06 23:04N 32°01' E 120°33'475938.6
2016-Dec-06 22:33N 24°25' E 118°02'874149876.5
2016-Dec-06 22:33N 38°59' E 117°40'9141645347.9
2016-Dec-06 22:33N 23°45' E 117°35'2112718.3
2016-Dec-06 22:33N 23°58' E 117°53'425139017.6
2016-Dec-06 22:33N 29°51' E 122°18'9721911.0
2016-Dec-06 22:33N 31°23' E 121°39'10223.5
2016-Dec-06 22:30N 31°21' E 121°27'235230.9
2016-Dec-06 22:30N 31°41' E 121°12'50118034.5
2016-Dec-06 22:28N 39°56' E 119°42'93516258.5
2016-Dec-06 22:25N 24°26' E 117°51'47514024.5
2016-Dec-06 22:23N 32°01' E 120°25'34345729.5
2016-Dec-06 22:22N 37°43' E 121°04'725140786.4
2016-Dec-06 22:11N 05°18' W 004°04'717311356.1
2016-Dec-06 21:34N 24°25' E 118°02'4728327.8
2016-Dec-06 21:33N 23°45' E 117°35'511204539.5
2016-Dec-06 21:33N 31°37' E 121°16'4681684681.5
2016-Dec-06 21:33N 24°26' E 117°51'716212891870.1
2016-Dec-06 21:33N 05°18' W 004°04'72474348388.8
2016-Dec-06 21:33N 31°56' E 120°15'7920204.8
2016-Dec-06 21:33N 31°23' E 121°39'493147944.2
2016-Dec-06 21:33N 23°54' E 117°47'90595835.0
2016-Dec-06 21:32N 38°59' E 117°40'1101611.5
2016-Dec-06 21:28N 39°56' E 119°42'1481504.7
2016-Dec-06 21:22N 37°43' E 121°04'8131003.1
2016-Dec-06 20:34N 24°25' E 118°02'4733975.1
2016-Dec-06 20:33N 23°45' E 117°35'505363285.6
2016-Dec-06 20:33N 31°24' E 121°31'101121537.7
2016-Dec-06 20:33N 29°51' E 122°18'4371574742.2
2016-Dec-06 20:33N 23°50' E 117°41'9091635822.4
2016-Dec-06 20:33N 38°59' E 117°40'8731571749.4
2016-Dec-06 20:33N 24°26' E 117°51'46341652.3
2016-Dec-06 20:33N 31°23' E 121°39'1922742.6
2016-Dec-06 20:32N 31°33' E 121°20'73101754450.8
2016-Dec-06 20:32N 05°18' W 004°04'7163101117.9
2016-Dec-06 20:28N 39°56' E 119°42'1481521.9
2016-Dec-06 20:22N 37°43' E 121°04'813448.9
2016-Dec-06 18:34N 24°25' E 118°02'402241150.3
2016-Dec-06 18:33N 29°55' E 122°20'737813280255.2
2016-Dec-06 18:33N 05°18' W 004°04'71515149001.0
2016-Dec-06 18:33N 23°45' E 117°35'4351979.6
2016-Dec-06 18:33N 24°26' E 117°51'463833026.2
2016-Dec-06 18:33N 31°23' E 121°39'50658736.9
2016-Dec-06 18:33N 23°45' E 117°35'49542415.6
2016-Dec-06 18:32N 31°14' E 121°29'11840.8
2016-Dec-06 18:31N 31°25' E 121°30'285.1
2016-Dec-06 18:30N 31°27' E 121°29'48920003.8
2016-Dec-06 18:28N 38°59' E 117°40'11039469.7
2016-Dec-06 18:28N 39°56' E 119°42'148740.9
2016-Dec-06 18:16N 37°43' E 121°04'8131147.1
2016-Dec-06 17:34N 24°25' E 118°02'402111293.3
2016-Dec-06 17:33N 29°55' E 122°20'9513610.1
2016-Dec-06 17:33N 31°23' E 121°39'623042.8
2016-Dec-06 17:33N 31°25' E 121°32'49210420.1
2016-Dec-06 17:30N 38°59' E 117°40'1775496.8
2016-Dec-06 17:28N 37°43' E 121°04'148106535.9
2016-Dec-06 17:28N 39°56' E 119°42'5243585.6
2016-Dec-06 17:19N 31°21' E 121°39'6310.3
2016-Dec-06 17:18N 31°16' E 121°34'4444827.3
2016-Dec-06 17:12N 38°18' E 118°47'98919040.2
2016-Dec-06 17:09N 22°23' E 113°52'260435.1
2016-Dec-06 16:34N 24°25' E 118°02'455819404.0
2016-Dec-06 16:33N 31°21' E 121°31'502602140.3
2016-Dec-06 16:33N 23°45' E 117°35'857514088.9
2016-Dec-06 16:33N 37°43' E 121°04'177317771.8
2016-Dec-06 16:33N 38°59' E 117°41'59154526.2
2016-Dec-06 16:33N 29°55' E 122°20'64059040.8
2016-Dec-06 16:32N 22°26' E 113°53'67769634.1
2016-Dec-06 16:31N 31°34' E 121°18'215741.3
2016-Dec-06 16:31N 31°22' E 121°39'50625290.9
2016-Dec-06 16:30N 23°45' E 117°35'5014453.1
2016-Dec-06 16:23N 31°19' E 121°33'45871673.1
2016-Dec-06 16:23N 24°26' E 117°51'9358168.7
2016-Dec-06 16:16N 39°56' E 119°42'9351319.4
2016-Dec-06 15:33N 24°25' E 118°02'455148961.4
2016-Dec-06 15:33N 31°21' E 121°31'383275451.6
2016-Dec-06 15:33N 37°43' E 121°04'38234336.0
2016-Dec-06 15:33N 31°22' E 121°39'9422679.4
2016-Dec-06 15:32N 29°55' E 122°20'590354130.3
2016-Dec-06 15:32N 38°59' E 117°43'1009117157.1
2016-Dec-06 15:32N 22°30' E 113°51'976292914.7
2016-Dec-06 15:31N 38°18' E 118°24'43471089.5
2016-Dec-06 15:31N 31°30' E 121°24'142114.6
2016-Dec-06 15:31N 31°40' E 121°12'50212129.1
2016-Dec-06 15:28N 39°56' E 119°42'9777207.2
2016-Dec-06 15:20N 23°45' E 117°35'4961851.3
2016-Dec-06 15:04N 31°15' E 121°31'450883.0
2016-Dec-06 14:33N 24°25' E 118°02'817735696.6
2016-Dec-06 14:33N 37°47' E 121°09'8611033748.5
2016-Dec-06 14:33N 23°45' E 117°35'506227708.0
2016-Dec-06 14:33N 31°22' E 121°39'73938.7
2016-Dec-06 14:33N 31°24' E 121°31'163957.3
2016-Dec-06 14:33N 31°35' E 121°17'1148364.9
2016-Dec-06 14:32N 29°55' E 122°20'59040083.3
2016-Dec-06 14:31N 38°59' E 117°43'91434272.5
2016-Dec-06 14:30N 23°45' E 117°35'97737013.9
2016-Dec-06 14:28N 39°56' E 119°42'49610317.0
2016-Dec-06 14:25N 31°45' E 121°05'7294332398.0
2016-Dec-06 14:24N 05°18' W 004°04'709022849.9
2016-Dec-06 14:05N 38°14' E 118°08'8291569.6
2016-Dec-06 13:33N 24°25' E 118°02'4718785.7
2016-Dec-06 13:33N 23°45' E 117°35'506121400.8
2016-Dec-06 13:33N 31°27' E 121°28'10261220.8
2016-Dec-06 13:33N 29°55' E 122°20'73782043116.1
2016-Dec-06 13:33N 05°18' W 004°04'70705090536.6
2016-Dec-06 13:33N 38°58' E 117°51'495635.1
2016-Dec-06 13:32N 38°11' E 118°05'42211966.7
2016-Dec-06 13:30N 31°38' E 121°14'263266.4
2016-Dec-06 13:30N 31°22' E 121°39'5224160.3
2016-Dec-06 13:22N 39°56' E 119°42'9351155.3
2016-Dec-06 12:33N 24°25' E 118°02'4721239.0
2016-Dec-06 12:33N 23°45' E 117°35'449538837.3
2016-Dec-06 12:33N 29°55' E 122°20'9524373.8
2016-Dec-06 12:33N 31°22' E 121°37'259111.1
2016-Dec-06 12:33N 31°38' E 121°14'121838.3
2016-Dec-06 12:32N 31°29' E 121°24'73142393692.3
2016-Dec-06 12:32N 05°18' W 004°04'715125744733.1
2016-Dec-06 12:32N 23°45' E 117°35'506364203.6
2016-Dec-06 12:32N 31°23' E 121°39'5227491.8
2016-Dec-06 12:28N 39°56' E 119°42'1011373.0
2016-Dec-06 12:24N 38°56' E 117°57'8711042.1
2016-Dec-06 11:33N 24°25' E 118°02'4718789.7
2016-Dec-06 11:33N 23°45' E 117°35'4491615514.4
2016-Dec-06 11:33N 29°55' E 122°20'1105636.2
2016-Dec-06 11:32N 31°32' E 121°21'183807.0
2016-Dec-06 11:32N 31°23' E 121°39'266763.3
2016-Dec-06 11:32N 31°38' E 121°14'5048239.5
2016-Dec-06 11:28N 39°56' E 119°42'716324008.4
2016-Dec-06 11:10N 05°18' W 004°04'717311770.1
2016-Dec-06 10:34N 24°25' E 118°02'397286065.0
2016-Dec-06 10:33N 29°54' E 122°13'110132357.8
2016-Dec-06 10:33N 31°34' E 121°18'509916232.3
2016-Dec-06 10:33N 23°45' E 117°35'43782865.6
2016-Dec-06 10:33N 29°54' E 121°58'9011612.0
2016-Dec-06 10:33N 31°23' E 121°39'262424.1
2016-Dec-06 10:32N 31°38' E 121°14'51120003.5
2016-Dec-06 10:30N 23°45' E 117°35'97724762.9
2016-Dec-06 10:28N 39°56' E 119°42'7163103554.6
2016-Dec-06 10:24N 05°18' W 004°04'71728546.9
2016-Dec-06 09:34N 24°27' E 118°01'102065.2
2016-Dec-06 09:33N 24°26' E 117°51'400720709.8
2016-Dec-06 09:33N 29°53' E 122°10'62435.6
2016-Dec-06 09:33N 29°53' E 122°03'73621766887.4
2016-Dec-06 09:33N 05°18' W 004°04'7304973821.3
2016-Dec-06 09:32N 31°38' E 121°14'2694538.3
2016-Dec-06 09:32N 31°23' E 121°39'50633119.7
2016-Dec-06 09:31N 23°45' E 117°35'97717240.7
2016-Dec-06 09:28N 39°56' E 119°42'50611685.8
2016-Dec-06 09:25N 31°36' E 121°17'51067989.9
2016-Dec-06 09:25N 23°45' E 117°35'9353239.3
2016-Dec-06 09:08N 38°53' E 121°55'436766.4
2016-Dec-06 08:33N 31°38' E 121°14'511460223.6
2016-Dec-06 08:33N 23°45' E 117°35'443318724.8
2016-Dec-06 08:33N 29°53' E 122°10'3951420363.6
2016-Dec-06 08:33N 24°27' E 118°01'101462.8
2016-Dec-06 08:33N 24°26' E 117°51'71623222967.3
2016-Dec-06 08:33N 05°18' W 004°04'7328851050.2
2016-Dec-06 08:32N 31°23' E 121°39'249476.3
2016-Dec-06 08:32N 31°36' E 121°16'1113085.8
2016-Dec-06 08:30N 29°53' E 122°03'61418883.6
2016-Dec-06 08:28N 39°56' E 119°42'101434.5
2016-Dec-06 08:14N 38°56' E 117°57'707610461.9
2016-Dec-06 07:34N 05°18' W 004°04'717612917421.5
2016-Dec-06 07:33N 24°24' E 118°05'4824767.7
2016-Dec-06 07:33N 23°45' E 117°35'4319487.2
2016-Dec-06 07:33N 24°26' E 117°51'39789319.5
2016-Dec-06 07:33N 29°53' E 122°03'439790269.7
2016-Dec-06 07:33N 23°45' E 117°35'44279644.8
2016-Dec-06 07:33N 29°53' E 122°10'11519768.2
2016-Dec-06 07:32N 31°38' E 121°14'157.7
2016-Dec-06 07:31N 31°37' E 121°15'42595566.4
2016-Dec-06 07:31N 38°41' E 121°52'43915187.5
2016-Dec-06 07:29N 31°23' E 121°39'52232988.5
2016-Dec-06 07:28N 39°56' E 119°42'51128282.0
2016-Dec-06 07:27N 31°32' E 121°20'73108213.1
2016-Dec-06 06:33N 05°18' W 004°04'731013157419.8
2016-Dec-06 06:33N 31°32' E 121°20'507456559.6
2016-Dec-06 06:33N 23°45' E 117°35'4842883.4
2016-Dec-06 06:33N 24°22' E 118°07'394473184.5
2016-Dec-06 06:33N 29°52' E 122°10'61588.3
2016-Dec-06 06:33N 29°53' E 122°03'439263410.9
2016-Dec-06 06:33N 23°45' E 117°35'506910331.7
2016-Dec-06 06:33N 31°23' E 121°39'271658.4
2016-Dec-06 06:32N 31°39' E 121°13'468843169.6
2016-Dec-06 06:32N 24°26' E 117°51'47060400.7
2016-Dec-06 06:31N 31°41' E 121°13'5018797.4
2016-Dec-06 06:28N 39°56' E 119°42'129578.5
2016-Dec-06 06:15N 38°32' E 121°47'10458196.1
2016-Dec-06 06:07N 22°31' E 113°51'260465.2
2016-Dec-06 05:33N 24°22' E 118°07'8721569174.3
2016-Dec-06 05:33N 38°54' E 117°58'9091091147.4
2016-Dec-06 05:33N 23°45' E 117°35'0907.4
2016-Dec-06 05:33N 23°45' E 117°35'71518581506.1
2016-Dec-06 05:33N 05°18' W 004°04'73104385846.8
2016-Dec-06 05:33N 31°32' E 121°20'10547230.3
2016-Dec-06 05:33N 29°53' E 122°03'118105862.6
2016-Dec-06 05:33N 31°42' E 121°09'3214269.6
2016-Dec-06 05:33N 31°23' E 121°39'9233088.9
2016-Dec-06 05:33N 29°56' E 122°16'63899810.7
2016-Dec-06 05:32N 22°27' E 113°53'678116308.0
2016-Dec-06 05:32N 31°41' E 121°13'5017514.5
2016-Dec-06 05:28N 39°56' E 119°42'101293.0
2016-Dec-06 05:07N 38°56' E 117°57'8731547.2
2016-Dec-06 04:34N 24°22' E 118°07'401288773.1
2016-Dec-06 04:33N 29°58' E 122°15'448146757.6
2016-Dec-06 04:33N 23°45' E 117°35'5071825627.7
2016-Dec-06 04:33N 31°32' E 121°20'189309.9
2016-Dec-06 04:33N 31°45' E 121°05'827535.2
2016-Dec-06 04:33N 31°41' E 121°13'45671450.7
2016-Dec-06 04:33N 38°51' E 118°05'48157723.4
2016-Dec-06 04:32N 31°22' E 121°39'46383299.7
2016-Dec-06 04:32N 24°26' E 117°51'71621171987.5
2016-Dec-06 04:32N 05°18' W 004°04'7151198038.6
2016-Dec-06 04:29N 23°45' E 117°35'97743963.6
2016-Dec-06 04:28N 39°56' E 119°42'6142876.2
2016-Dec-06 04:15N 29°54' E 122°03'392563.8
2016-Dec-06 03:34N 24°22' E 118°07'462332361.6
2016-Dec-06 03:33N 31°32' E 121°20'105379199.4
2016-Dec-06 03:33N 29°58' E 122°15'44957677.6
2016-Dec-06 03:33N 23°45' E 117°35'71511838932.0
2016-Dec-06 03:33N 05°18' W 004°04'7162920847.9
2016-Dec-06 03:32N 24°26' E 117°51'470422800.2
2016-Dec-06 03:32N 31°41' E 121°13'29994.3
2016-Dec-06 03:30N 31°22' E 121°39'47331536.2
2016-Dec-06 03:30N 38°45' E 118°13'99783.0
2016-Dec-06 03:22N 39°56' E 119°42'97722114.9
2016-Dec-06 03:19N 23°45' E 117°35'4862.2
2016-Dec-06 02:33N 24°22' E 118°07'4842904.7
2016-Dec-06 02:33N 23°45' E 117°35'449230694.1
2016-Dec-06 02:33N 29°57' E 122°15'449538307.7
2016-Dec-06 02:33N 23°43' E 117°39'5081829297.5
2016-Dec-06 02:33N 31°32' E 121°20'111053.1
2016-Dec-06 02:33N 31°41' E 121°13'294309.4
2016-Dec-06 02:32N 31°22' E 121°39'903121.3
2016-Dec-06 02:30N 29°54' E 121°59'55422178.9
2016-Dec-06 02:29N 38°38' E 118°19'70986387832.9
2016-Dec-06 02:29N 05°18' W 004°04'7163468819.6
2016-Dec-06 02:28N 39°56' E 119°42'93526710.4
2016-Dec-06 02:26N 24°26' E 117°51'1617.8
2016-Dec-06 01:33N 24°22' E 118°07'462332404.1
2016-Dec-06 01:33N 31°32' E 121°20'1119491.1
2016-Dec-06 01:33N 31°41' E 121°13'121437181.8
2016-Dec-06 01:33N 29°52' E 122°17'9612782.3
2016-Dec-06 01:33N 31°22' E 121°39'502120521.8
2016-Dec-06 01:33N 23°46' E 117°44'81682.7
2016-Dec-06 01:32N 23°45' E 117°35'43810877.9
2016-Dec-06 01:30N 29°54' E 121°59'396474965.0
2016-Dec-06 01:30N 24°26' E 117°51'7162257837.4
2016-Dec-06 01:28N 05°18' W 004°04'716368944.1
2016-Dec-06 01:22N 39°56' E 119°42'4742970.5
2016-Dec-06 01:12N 32°04' E 120°30'478737.3
2016-Dec-06 00:33N 24°22' E 118°07'462332342.2
2016-Dec-06 00:33N 31°31' E 121°20'112403568.8
2016-Dec-06 00:33N 29°51' E 122°18'445228624.5
2016-Dec-06 00:33N 23°43' E 117°38'8711044912.6
2016-Dec-06 00:33N 37°51' E 121°31'37170213.1
2016-Dec-06 00:33N 31°41' E 121°13'2590958.3
2016-Dec-06 00:33N 31°23' E 121°34'4621662282.2
2016-Dec-06 00:33N 24°26' E 117°51'7162334853.7
2016-Dec-06 00:32N 05°18' W 004°04'706918139.1
2016-Dec-06 00:08N 38°55' E 117°49'8731509.6
2016-Dec-05 23:33N 24°22' E 118°09'8192949967.8
2016-Dec-05 23:33N 37°43' E 121°29'374449077.6
2016-Dec-05 23:33N 31°29' E 121°26'104376052.7
2016-Dec-05 23:33N 29°54' E 122°17'451203071.0
2016-Dec-05 23:33N 23°40' E 117°33'4887202.7
2016-Dec-05 23:33N 24°26' E 117°51'396142489.5
2016-Dec-05 23:33N 29°54' E 121°59'438262886.6
2016-Dec-05 23:33N 23°45' E 117°35'71511838932.1
2016-Dec-05 23:33N 05°18' W 004°04'7302536480.0
2016-Dec-05 23:32N 31°41' E 121°13'1111.2
2016-Dec-05 22:33N 31°31' E 121°20'5071826058.1
2016-Dec-05 22:33N 23°45' E 117°35'4491615043.8
2016-Dec-05 22:33N 29°58' E 122°15'108388409.3
2016-Dec-05 22:33N 31°34' E 121°18'3611299686.3
2016-Dec-05 22:33N 37°35' E 121°26'8161469157.6
2016-Dec-05 22:33N 24°16' E 118°10'473189083.0
2016-Dec-05 22:33N 31°41' E 121°13'7302328594.0
2016-Dec-05 22:32N 05°18' W 004°04'70695089838.3
2016-Dec-05 22:32N 38°55' E 117°49'910935.9
2016-Dec-05 21:33N 23°45' E 117°35'511920488.0
2016-Dec-05 21:33N 31°38' E 121°14'113408108.2
2016-Dec-05 21:33N 29°58' E 122°15'460827791.7
2016-Dec-05 21:33N 37°36' E 121°25'35585235.1
2016-Dec-05 21:33N 31°41' E 121°13'478286890.4
2016-Dec-05 21:33N 24°11' E 118°08'222779.3
2016-Dec-05 21:33N 24°26' E 117°51'7162468795.3
2016-Dec-05 21:32N 05°18' W 004°04'7359267591.1
2016-Dec-05 21:30N 29°54' E 121°59'5794651.9
2016-Dec-05 21:23N 38°55' E 117°49'8891088.0
2016-Dec-05 20:34N 24°06' E 118°07'481288631.6
2016-Dec-05 20:33N 31°38' E 121°14'3581287097.1
2016-Dec-05 20:33N 37°36' E 121°25'370166305.5
2016-Dec-05 20:33N 31°26' E 121°30'73201254816.4
2016-Dec-05 20:33N 05°18' W 004°04'73732412904.9
2016-Dec-05 20:33N 29°58' E 122°15'406162596.3
2016-Dec-05 20:33N 24°26' E 117°51'47019216.9
2016-Dec-05 20:31N 31°41' E 121°12'46534160.9
2016-Dec-05 20:30N 38°55' E 117°49'57910633.0
2016-Dec-05 20:27N 29°54' E 121°59'43815616.7
2016-Dec-05 20:25N 23°45' E 117°35'3641.9
2016-Dec-05 19:34N 24°06' E 118°07'474284270.6
2016-Dec-05 19:33N 31°21' E 121°39'375449592.5
2016-Dec-05 19:33N 37°36' E 121°25'358321774.3
2016-Dec-05 19:33N 31°38' E 121°14'39638.8
2016-Dec-05 19:33N 31°41' E 121°13'470845570.6
2016-Dec-05 19:33N 24°26' E 117°51'86944058.9
2016-Dec-05 19:32N 38°55' E 117°49'706912724589.5
2016-Dec-05 19:32N 05°18' W 004°04'71511170227.8
2016-Dec-05 19:32N 23°45' E 117°35'21943797.2
2016-Dec-05 19:31N 22°26' E 113°53'62626199.4
2016-Dec-05 19:30N 29°54' E 121°59'5297682.2
2016-Dec-05 19:26N 38°05' E 118°02'546.9
2016-Dec-05 19:19N 38°10' E 118°05'162212.1
2016-Dec-05 18:33N 37°36' E 121°25'72701090566.1
2016-Dec-05 18:33N 05°18' W 004°04'73042022550.8
2016-Dec-05 18:33N 31°38' E 121°14'46852684.6
2016-Dec-05 18:32N 24°25' E 117°52'47041273.7
2016-Dec-05 18:32N 31°41' E 121°13'48317046.4
2016-Dec-05 18:30N 24°06' E 118°06'2021.0
2016-Dec-05 17:33N 24°24' E 117°56'812973849.8
2016-Dec-05 17:33N 37°36' E 121°25'35511117.6
2016-Dec-05 17:31N 31°41' E 121°13'470485.6
2016-Dec-05 16:33N 24°24' E 117°56'812973863.4
2016-Dec-05 16:33N 37°36' E 121°25'355142058.5
2016-Dec-05 16:33N 31°41' E 121°13'355357.1
2016-Dec-05 15:34N 37°36' E 121°25'8291491387.7
2016-Dec-05 15:34N 24°06' E 118°01'418250983.5
2016-Dec-05 15:33N 29°58' E 122°15'449322997.5
2016-Dec-05 15:33N 23°45' E 117°35'511368193.5
2016-Dec-05 15:33N 31°38' E 121°14'46870147.5
2016-Dec-05 15:33N 38°55' E 117°49'465128763.7
2016-Dec-05 15:33N 31°41' E 121°13'730267403.9
2016-Dec-05 15:26N 05°18' W 004°04'70861109112.1
2016-Dec-05 15:26N 38°05' E 118°02'3812887.4
2016-Dec-05 15:18N 32°04' E 120°30'479647.7
2016-Dec-05 14:33N 24°24' E 117°57'8122921404.6
2016-Dec-05 14:33N 37°36' E 121°25'460206947.9
2016-Dec-05 14:33N 29°58' E 122°15'113408165.5
2016-Dec-05 14:33N 31°38' E 121°14'31379.7
2016-Dec-05 14:33N 31°41' E 121°13'46520666.0
2016-Dec-05 14:32N 38°55' E 117°49'8898744.1
2016-Dec-05 14:26N 24°06' E 118°01'32439.0
2016-Dec-05 14:21N 23°45' E 117°35'4381709.0
2016-Dec-05 14:06N 29°54' E 121°59'462855.4
2016-Dec-05 13:34N 37°36' E 121°25'812365175.6
2016-Dec-05 13:33N 24°24' E 117°57'468168430.2
2016-Dec-05 13:33N 31°38' E 121°14'511167365.0
2016-Dec-05 13:33N 23°45' E 117°35'3228482.3
2016-Dec-05 13:33N 24°06' E 118°01'485102684.5
2016-Dec-05 13:33N 31°40' E 121°13'73021314446.3
2016-Dec-05 13:32N 05°18' W 004°04'73731396944.8
2016-Dec-05 13:32N 29°58' E 122°15'58052227.3
2016-Dec-05 13:31N 38°55' E 117°49'57924232.8
2016-Dec-05 13:30N 29°54' E 121°59'158589.8
2016-Dec-05 13:14N 31°58' E 120°04'344511.7
2016-Dec-05 12:33N 37°36' E 121°25'358429032.4
2016-Dec-05 12:33N 31°38' E 121°14'468842160.8
2016-Dec-05 12:33N 24°24' E 117°57'40572915.6
2016-Dec-05 12:33N 29°58' E 122°15'58056461.9
2016-Dec-05 12:32N 38°55' E 117°49'7069403955.2
2016-Dec-05 12:31N 05°18' W 004°04'72381042208.6
2016-Dec-05 12:31N 31°58' E 120°05'51087462.7
2016-Dec-05 12:31N 23°45' E 117°35'51143757.6
2016-Dec-05 12:30N 31°57' E 120°10'154621.9
2016-Dec-05 12:15N 29°54' E 121°59'111160.3
2016-Dec-05 11:33N 31°38' E 121°14'113408165.5
2016-Dec-05 11:33N 29°58' E 122°15'4051458311.2
2016-Dec-05 11:33N 24°24' E 117°57'8122921425.7
2016-Dec-05 11:33N 37°36' E 121°25'18724943.8
2016-Dec-05 11:33N 38°55' E 117°49'43531296.0
2016-Dec-05 11:32N 31°56' E 120°13'4232.1
2016-Dec-05 11:31N 31°58' E 120°18'724960833.3
2016-Dec-05 11:24N 05°18' W 004°04'7176161461.8
2016-Dec-05 11:21N 23°59' E 118°02'8351047.4
2016-Dec-05 10:33N 37°36' E 121°25'8613100989.9
2016-Dec-05 10:33N 23°37' E 117°38'518266449.9
2016-Dec-05 10:33N 31°38' E 121°14'5044802.3
2016-Dec-05 10:33N 31°60' E 120°21'15640204.1
2016-Dec-05 10:33N 29°58' E 122°15'73731020845.4
2016-Dec-05 10:33N 05°18' W 004°04'706948108.1
2016-Dec-05 10:24N 38°55' E 117°49'4656584.9
2016-Dec-05 10:19N 31°40' E 121°11'3 4.5
2016-Dec-05 09:33N 31°38' E 121°14'358643548.5
2016-Dec-05 09:33N 37°36' E 121°25'8122922060.1
2016-Dec-05 09:33N 24°24' E 117°53'7165403038.5
2016-Dec-05 09:32N 05°18' W 004°04'73731105915.6
2016-Dec-05 09:32N 29°58' E 122°15'58083566.0
2016-Dec-05 09:31N 38°55' E 117°49'4627558.1
2016-Dec-05 09:28N 31°42' E 121°08'7 7.5
2016-Dec-05 08:33N 31°38' E 121°14'358643548.5
2016-Dec-05 08:33N 37°36' E 121°25'811100638.0
2016-Dec-05 08:33N 24°26' E 117°51'7162920847.0
2016-Dec-05 08:32N 05°18' W 004°04'7373323682.3
2016-Dec-05 08:31N 29°58' E 122°15'58023212.6
2016-Dec-05 08:30N 38°55' E 117°49'468499.6
2016-Dec-05 07:33N 31°38' E 121°14'35861290.3
2016-Dec-05 07:33N 37°36' E 121°25'811364812.8
2016-Dec-05 07:33N 24°26' E 117°51'406146326.2
2016-Dec-05 07:33N 29°58' E 122°15'73738847321.8
2016-Dec-05 07:33N 05°18' W 004°04'7069210323.8
2016-Dec-05 07:31N 38°55' E 117°49'4921419.1
2016-Dec-05 07:10N 31°21' E 121°41'375619.0
2016-Dec-05 06:34N 37°36' E 121°25'358160887.1
2016-Dec-05 06:33N 31°38' E 121°14'468140401.1
2016-Dec-05 06:33N 24°26' E 117°51'25332468.0
2016-Dec-05 06:33N 22°58' E 113°32'66030466.0
2016-Dec-05 06:31N 32°04' E 120°30'4318574.2
2016-Dec-05 06:28N 38°55' E 117°49'70691590574.8
2016-Dec-05 06:28N 05°18' W 004°04'73738084.7
2016-Dec-05 05:33N 29°58' E 122°15'6261127133.5
2016-Dec-05 05:33N 23°03' E 113°31'6602374419.9
2016-Dec-05 05:33N 31°38' E 121°14'35861290.3
2016-Dec-05 05:33N 37°36' E 121°25'18784185.3
2016-Dec-05 05:33N 38°55' E 117°49'7069318114.9
2016-Dec-05 05:32N 05°18' W 004°04'7162415866.7
2016-Dec-05 05:31N 24°26' E 117°51'4751892.9
2016-Dec-05 05:15N 32°00' E 120°27'158226.2
2016-Dec-05 04:33N 29°53' E 122°17'465239067.5
2016-Dec-05 04:33N 37°36' E 121°25'3571284120.0
2016-Dec-05 04:33N 31°39' E 121°13'660169680.8
2016-Dec-05 04:33N 23°03' E 113°31'25264794.9
2016-Dec-05 04:33N 24°26' E 117°51'47936697.3
2016-Dec-05 04:32N 32°04' E 120°30'7260580767.0
2016-Dec-05 04:31N 05°18' W 004°04'723232063.7
2016-Dec-05 04:18N 25°07' E 119°09'82111.5
2016-Dec-05 03:34N 24°26' E 117°51'252226782.3
2016-Dec-05 03:33N 23°03' E 113°31'964578449.8
2016-Dec-05 03:33N 37°36' E 121°25'354182211.0
2016-Dec-05 03:33N 31°41' E 121°11'424476.3
2016-Dec-05 03:33N 31°58' E 120°25'7256280884.9
2016-Dec-05 03:31N 05°18' W 004°04'7377414930.6
2016-Dec-05 03:30N 29°51' E 122°18'63435688.8
2016-Dec-05 03:29N 22°29' E 113°51'6762461.4
2016-Dec-05 03:13N 32°04' E 120°30'40714088.4
2016-Dec-05 03:11N 25°23' E 119°14'343551.0
2016-Dec-05 02:33N 23°03' E 113°31'660475508.1
2016-Dec-05 02:33N 31°41' E 121°11'354637738.4
2016-Dec-05 02:33N 37°36' E 121°25'811324278.0
2016-Dec-05 02:33N 24°26' E 117°51'40326867.4
2016-Dec-05 02:32N 29°51' E 122°18'31348928.6
2016-Dec-05 02:32N 25°22' E 119°19'7240258075.4
2016-Dec-05 02:30N 05°18' W 004°04'72486523159.1
2016-Dec-05 02:30N 31°56' E 120°16'66521574.5
2016-Dec-05 02:28N 22°25' E 113°53'678203364.1
2016-Dec-05 02:28N 32°04' E 120°30'4293828.6
2016-Dec-05 02:21N 38°54' E 117°57'181226.8
2016-Dec-05 01:34N 37°36' E 121°25'354182211.0
2016-Dec-05 01:33N 31°41' E 121°11'12122878.5
2016-Dec-05 01:33N 29°55' E 122°17'73758849831.4
2016-Dec-05 01:33N 05°18' W 004°04'72483727694.8
2016-Dec-05 01:33N 25°19' E 119°27'35355220.9
2016-Dec-05 01:33N 23°03' E 113°31'25247738.5
2016-Dec-05 01:32N 24°26' E 117°51'4666169.4
2016-Dec-05 01:28N 31°55' E 120°11'43350257.8
2016-Dec-05 01:27N 38°54' E 117°57'181201.9
2016-Dec-05 00:33N 37°36' E 121°25'354159434.6
2016-Dec-05 00:33N 31°41' E 121°11'11830218.9
2016-Dec-05 00:33N 29°58' E 122°15'73732412905.7
2016-Dec-05 00:33N 05°18' W 004°04'6922712018.9
2016-Dec-05 00:32N 23°03' E 113°31'64013092.3
2016-Dec-05 00:29N 31°55' E 120°11'466419521.3
2016-Dec-05 00:29N 24°26' E 117°51'4679238.8
2016-Dec-05 00:26N 31°58' E 120°04'344391.4
2016-Dec-04 23:33N 37°36' E 121°25'35485028.9
2016-Dec-04 23:33N 31°41' E 121°11'66059439.9
2016-Dec-04 23:33N 23°03' E 113°31'656787642.6
2016-Dec-04 23:32N 32°04' E 120°29'156112112.4
2016-Dec-04 23:32N 29°58' E 122°15'7373915240.4
2016-Dec-04 23:32N 05°18' W 004°04'7243441921.5
2016-Dec-04 23:31N 31°57' E 120°10'4676951.9
2016-Dec-04 23:27N 24°26' E 117°51'466279675.9
2016-Dec-04 23:27N 31°55' E 120°11'153616.6
2016-Dec-04 23:12N 29°54' E 121°59'462722.8
2016-Dec-04 22:34N 37°36' E 121°25'354212565.1
2016-Dec-04 22:33N 31°41' E 121°11'73002021670.3
2016-Dec-04 22:33N 05°18' W 004°04'73731658872.9
2016-Dec-04 22:33N 29°58' E 122°15'15624458.1
2016-Dec-04 22:33N 32°02' E 120°24'131502.3
2016-Dec-04 22:32N 31°56' E 120°10'46757947.8
2016-Dec-04 22:32N 24°26' E 117°51'25213336.3
2016-Dec-04 22:30N 23°03' E 113°31'64519348.1
2016-Dec-04 22:28N 31°58' E 120°17'91221.2
2016-Dec-04 22:04N 31°16' E 121°52'380751.0
2016-Dec-04 21:33N 37°36' E 121°25'4601655669.6
2016-Dec-04 21:33N 29°58' E 122°15'11842314.0
2016-Dec-04 21:33N 31°42' E 121°11'5464770.6
2016-Dec-04 21:33N 31°56' E 120°10'9154583.6
2016-Dec-04 21:33N 31°18' E 121°47'73365282255.7
2016-Dec-04 21:33N 05°18' W 004°04'6922265111.3
2016-Dec-04 21:31N 23°03' E 113°31'64646517.3
2016-Dec-04 21:31N 31°58' E 120°19'342360.0
2016-Dec-04 20:34N 37°36' E 121°25'964433854.8
2016-Dec-04 20:33N 23°03' E 113°31'6602377663.2
2016-Dec-04 20:33N 31°42' E 121°11'305700.4
2016-Dec-04 20:33N 31°22' E 121°38'90324256.3
2016-Dec-04 20:33N 29°58' E 122°15'15827137.0
2016-Dec-04 20:33N 31°56' E 120°12'48469685.6
2016-Dec-04 20:32N 24°06' E 117°60'71731986442.9
2016-Dec-04 20:32N 05°18' W 004°04'724286046.5
2016-Dec-04 20:27N 31°56' E 120°10'51152.9
2016-Dec-04 20:07N 31°44' E 121°08'352629.4
2016-Dec-04 19:34N 37°36' E 121°25'370190410.7
2016-Dec-04 19:33N 31°25' E 121°30'73205270528.2
2016-Dec-04 19:33N 05°18' W 004°04'737326541965.9
2016-Dec-04 19:33N 29°58' E 122°15'11828210.6
2016-Dec-04 19:33N 31°42' E 121°11'661183088.2
2016-Dec-04 19:33N 23°02' E 113°31'63969721.9
2016-Dec-04 19:32N 31°57' E 120°04'49110212.5
2016-Dec-04 19:29N 23°59' E 118°02'49139287.8
2016-Dec-04 19:29N 31°56' E 120°10'154554.3
2016-Dec-04 19:12N 29°54' E 121°59'614958.9
2016-Dec-04 18:34N 23°02' E 113°31'965694732.1
2016-Dec-04 18:33N 37°36' E 121°25'365657526.0
2016-Dec-04 18:33N 31°30' E 121°24'73141385865.2
2016-Dec-04 18:33N 05°18' W 004°04'7359138698.9
2016-Dec-04 18:30N 29°54' E 121°59'15461708.0
2016-Dec-04 18:30N 31°56' E 120°10'12726.5
2016-Dec-04 18:29N 32°02' E 119°57'4691112.8
2016-Dec-04 18:03N 24°26' E 117°51'8111623.2
2016-Dec-04 17:33N 37°36' E 121°25'360648468.7
2016-Dec-04 17:33N 31°35' E 121°18'814931.0
2016-Dec-04 17:33N 31°41' E 121°11'12410926.3
2016-Dec-04 17:33N 29°51' E 122°18'625173049.1
2016-Dec-04 17:33N 23°02' E 113°31'64123558.8
2016-Dec-04 17:31N 31°56' E 120°10'724271823.9
2016-Dec-04 17:25N 05°18' W 004°04'72708478.7
2016-Dec-04 16:33N 37°36' E 121°25'354182024.8
2016-Dec-04 16:33N 31°42' E 121°09'2633.7
2016-Dec-04 16:33N 31°41' E 121°11'661170008.1
2016-Dec-04 16:33N 23°02' E 113°31'6256900.7
2016-Dec-04 16:27N 29°51' E 122°18'7377336146.3
2016-Dec-04 16:26N 05°18' W 004°04'7242532083.4
2016-Dec-04 16:25N 31°56' E 120°10'4671643.3
2016-Dec-04 16:08N 24°26' E 117°51'463800.0
2016-Dec-04 15:34N 31°26' E 121°30'2211559.8
2016-Dec-04 15:33N 31°41' E 121°11'661264457.0
2016-Dec-04 15:33N 23°02' E 113°31'625204512.6
2016-Dec-04 15:33N 29°51' E 122°18'636458246.7
2016-Dec-04 15:33N 22°25' E 113°53'25034557.2
2016-Dec-04 15:33N 24°26' E 117°51'8569391.4
2016-Dec-04 15:27N 38°42' E 117°43'4241674.5
2016-Dec-04 15:12N 31°56' E 120°15'724753679.2
2016-Dec-04 15:04N 05°18' W 004°04'727014404.8
2016-Dec-04 14:34N 37°36' E 121°25'354159434.6
2016-Dec-04 14:33N 31°41' E 121°11'661264451.6
2016-Dec-04 14:33N 23°02' E 113°31'62532602.2
2016-Dec-04 14:32N 29°51' E 122°18'40345339.2
2016-Dec-04 14:32N 24°26' E 117°51'47062708.5
2016-Dec-04 14:31N 31°58' E 120°19'42416756.5
2016-Dec-04 14:30N 38°42' E 117°43'17228.2
2016-Dec-04 14:25N 38°54' E 117°57'7076160221.9
2016-Dec-04 14:22N 05°18' W 004°04'72708917.8
2016-Dec-04 13:34N 37°36' E 121°25'18761161.2
2016-Dec-04 13:33N 38°42' E 117°43'964578616.8
2016-Dec-04 13:33N 23°02' E 113°31'62520450.6
2016-Dec-04 13:31N 29°51' E 122°18'1243222.7
2016-Dec-04 13:29N 31°41' E 121°11'730021212.0
2016-Dec-04 13:08N 05°18' W 004°04'727012463.6
2016-Dec-04 12:33N 37°36' E 121°25'354425159.0
2016-Dec-04 12:33N 31°41' E 121°11'661132226.8
2016-Dec-04 12:33N 23°02' E 113°31'62544991.6
2016-Dec-04 12:32N 29°51' E 122°18'7377856630.7
2016-Dec-04 12:32N 05°18' W 004°04'7256450371.0
2016-Dec-04 12:31N 31°58' E 120°25'650680.7
2016-Dec-04 11:33N 23°02' E 113°31'661793400.1
2016-Dec-04 11:33N 31°41' E 121°11'354425159.0
2016-Dec-04 11:33N 37°36' E 121°25'34164622.8
2016-Dec-04 11:33N 31°58' E 120°25'156561543.9
2016-Dec-04 11:33N 29°55' E 122°17'737526549932.8
2016-Dec-04 11:33N 05°18' W 004°04'7374884916.4
2016-Dec-04 11:33N 29°56' E 122°16'1571614.3
2016-Dec-04 11:27N 32°00' E 120°23'339382.0
2016-Dec-04 10:33N 37°36' E 121°25'460331138.2
2016-Dec-04 10:33N 29°58' E 122°15'11832544.9
2016-Dec-04 10:33N 31°41' E 121°11'66013663.7
2016-Dec-04 10:30N 23°03' E 113°31'6922129118.2
2016-Dec-04 10:27N 05°18' W 004°04'7247156222.1
2016-Dec-04 10:24N 31°56' E 120°15'7386.2
2016-Dec-04 09:34N 31°25' E 121°32'2816861.0
2016-Dec-04 09:33N 31°43' E 121°07'120144458.8
2016-Dec-04 09:33N 29°58' E 122°15'460183963.3
2016-Dec-04 09:33N 37°36' E 121°25'96455088.2
2016-Dec-04 09:32N 23°03' E 113°31'69221661320.0
2016-Dec-04 09:32N 05°18' W 004°04'725676828.0
2016-Dec-04 09:26N 31°58' E 120°25'161028.9
2016-Dec-04 09:25N 31°57' E 120°06'4661898.6
2016-Dec-04 09:11N 24°26' E 117°51'8111313.5
2016-Dec-04 08:34N 37°36' E 121°25'350179979.0
2016-Dec-04 08:33N 31°46' E 121°02'126454318.4
2016-Dec-04 08:33N 29°57' E 122°16'73742041911.7
2016-Dec-04 08:33N 05°18' W 004°04'69221384432.6
2016-Dec-04 08:33N 23°03' E 113°31'2523796.0
2016-Dec-04 08:29N 24°26' E 117°51'811878.3
2016-Dec-04 07:34N 37°36' E 121°25'465239283.3
2016-Dec-04 07:33N 29°52' E 122°16'7375983327.1
2016-Dec-04 07:33N 05°18' W 004°04'7162158182.5
2016-Dec-04 07:30N 24°26' E 117°51'470496.7
2016-Dec-04 06:33N 31°42' E 121°10'72998759266.2
2016-Dec-04 06:33N 05°18' W 004°04'727026173618.0
2016-Dec-04 06:33N 37°36' E 121°25'462415519.1
2016-Dec-04 06:33N 29°56' E 122°17'12319177.3
2016-Dec-04 06:33N 31°43' E 121°08'12710904.7
2016-Dec-04 06:32N 29°51' E 122°18'403725427.8
2016-Dec-04 06:32N 24°26' E 117°51'82315.2
2016-Dec-04 06:17N 25°07' E 119°09'331459.5
2016-Dec-04 05:33N 29°53' E 122°17'465167231.0
2016-Dec-04 05:33N 37°36' E 121°25'358107417.9
2016-Dec-04 05:33N 31°38' E 121°16'14838.5
2016-Dec-04 05:32N 31°46' E 121°03'72922625275.8
2016-Dec-04 05:32N 05°18' W 004°04'71621611483.8
2016-Dec-04 05:32N 24°26' E 117°51'4675816.0
2016-Dec-04 05:27N 31°35' E 121°19'4043859.6
2016-Dec-04 05:20N 25°07' E 119°09'757964.4
2016-Dec-04 04:33N 37°36' E 121°25'35190345.3
2016-Dec-04 04:33N 31°45' E 121°06'72966566397.6
2016-Dec-04 04:33N 05°18' W 004°04'7162515674.8
2016-Dec-04 04:32N 24°26' E 117°51'406133023.8
2016-Dec-04 04:32N 29°58' E 122°15'149773.6
2016-Dec-04 04:21N 31°60' E 120°36'338431.7
2016-Dec-04 03:34N 37°36' E 121°25'460236527.3
2016-Dec-04 03:33N 29°58' E 122°15'99357662.0
2016-Dec-04 03:33N 31°28' E 121°28'464166952.5
2016-Dec-04 03:33N 24°26' E 117°51'470846185.9
2016-Dec-04 03:33N 31°42' E 121°09'401923.0
2016-Dec-04 03:32N 32°02' E 120°28'72581866362.2
2016-Dec-04 03:32N 05°18' W 004°04'0 0.0
2016-Dec-04 02:33N 05°18' W 004°04'737326541980.3
2016-Dec-04 02:33N 29°58' E 122°15'46097392.3
2016-Dec-04 02:33N 37°36' E 121°25'342308059.1
2016-Dec-04 02:33N 31°58' E 120°19'483458.8
2016-Dec-04 02:32N 31°41' E 121°12'47016905.0
2016-Dec-04 02:31N 24°26' E 117°51'4601333.0
2016-Dec-04 02:10N 31°17' E 121°44'463764.6
2016-Dec-04 01:33N 24°15' E 118°08'818490873.2
2016-Dec-04 01:33N 37°36' E 121°25'465418369.3
2016-Dec-04 01:33N 29°53' E 122°16'73753792802.7
2016-Dec-04 01:33N 05°18' W 004°04'71621357038.4
2016-Dec-04 01:33N 24°26' E 117°51'469562882.8
2016-Dec-04 01:33N 31°40' E 121°11'305961.8
2016-Dec-04 01:33N 31°21' E 121°38'8411625.4
2016-Dec-04 01:32N 31°56' E 120°09'5811569.6
2016-Dec-04 01:32N 31°39' E 121°14'355365.7
2016-Dec-04 00:34N 37°34' E 121°25'3681323534.3
2016-Dec-04 00:34N 31°27' E 121°29'10411749.7
2016-Dec-04 00:33N 29°51' E 122°18'40317069.3
2016-Dec-04 00:32N 24°26' E 117°51'46767306.3
2016-Dec-04 00:31N 31°59' E 119°59'72321132006.5
2016-Dec-04 00:31N 05°18' W 004°04'71792584498.3
2016-Dec-04 00:31N 24°22' E 118°08'4691127.2
2016-Dec-04 00:06N 31°46' E 120°60'130243.1
2016-Dec-03 23:33N 29°54' E 122°17'4621664103.1
2016-Dec-03 23:33N 37°34' E 121°25'809100489.2
2016-Dec-03 23:33N 24°26' E 117°51'868148875.6
2016-Dec-03 23:33N 38°54' E 117°57'7077771983.5
2016-Dec-03 23:32N 05°18' W 004°04'72717459.5
2016-Dec-03 22:34N 37°34' E 121°25'459126981.2
2016-Dec-03 22:33N 29°58' E 122°15'73738847321.0
2016-Dec-03 22:33N 05°18' W 004°04'71621227797.0
2016-Dec-03 22:33N 24°26' E 117°51'396890.0
2016-Dec-03 22:06N 29°54' E 121°59'461845.1
2016-Dec-03 21:33N 37°34' E 121°25'459183413.1
2016-Dec-03 21:33N 29°58' E 122°15'40654197.5
2016-Dec-03 21:33N 24°26' E 117°51'7162781325.2
2016-Dec-03 21:32N 05°18' W 004°04'73737506.2
2016-Dec-03 20:33N 29°58' E 122°15'460828231.5
2016-Dec-03 20:33N 37°36' E 121°27'811584267.7
2016-Dec-03 20:33N 24°26' E 117°51'7162358107.5
2016-Dec-03 20:32N 05°18' W 004°04'72747432.7
2016-Dec-03 19:33N 37°43' E 121°30'72748728505.9
2016-Dec-03 19:33N 05°18' W 004°04'737313270979.0
2016-Dec-03 19:33N 29°58' E 122°15'40614070.5
2016-Dec-03 19:32N 24°26' E 117°51'86824812.9
2016-Dec-03 19:29N 38°54' E 117°57'5762001.8
2016-Dec-03 19:12N 29°54' E 121°59'396609.2
2016-Dec-03 18:33N 24°26' E 117°51'462415687.2
2016-Dec-03 18:33N 31°21' E 121°40'4881756739.1
2016-Dec-03 18:33N 38°54' E 117°58'179107513.7
2016-Dec-03 18:33N 37°50' E 121°32'7275727498.1
2016-Dec-03 18:32N 05°18' W 004°04'7373141935.6
2016-Dec-03 18:29N 29°58' E 122°15'0 0.0
2016-Dec-03 17:33N 29°58' E 122°15'7373442366.0
2016-Dec-03 17:32N 05°18' W 004°04'71622578373.3
2016-Dec-03 17:32N 24°26' E 117°51'8629794.8
2016-Dec-03 17:27N 38°48' E 118°08'56811225.6
2016-Dec-03 17:24N 29°54' E 121°59'62414593.6
2016-Dec-03 17:21N 22°29' E 113°52'69468691.3
2016-Dec-03 16:33N 05°18' W 004°04'73732654196.1
2016-Dec-03 16:33N 29°58' E 122°15'144159.7
2016-Dec-03 16:33N 29°54' E 121°59'62818368.1
2016-Dec-03 16:31N 22°24' E 113°53'2502468.6
2016-Dec-03 16:25N 24°26' E 117°51'46310551.2
2016-Dec-03 16:22N 31°27' E 121°29'98119.8
2016-Dec-03 15:33N 29°58' E 122°15'40621841.0
2016-Dec-03 15:32N 24°26' E 117°51'406414.7
2016-Dec-03 14:33N 29°58' E 122°15'40629267.0
2016-Dec-03 14:33N 24°26' E 117°51'3969075.8
2016-Dec-03 14:30N 29°54' E 121°59'1414.7
2016-Dec-03 13:33N 29°58' E 122°15'15835471.2
2016-Dec-03 13:33N 31°57' E 120°14'5011939.1
2016-Dec-03 13:18N 23°48' E 118°08'7 8.9
2016-Dec-03 12:33N 23°55' E 118°09'424109048.0
2016-Dec-03 12:33N 29°58' E 122°15'922147.0
2016-Dec-03 12:31N 31°21' E 121°31'732164757.0
2016-Dec-03 12:24N 05°18' W 004°04'7250122533.5
2016-Dec-03 12:20N 31°57' E 120°18'7191.6
2016-Dec-03 11:34N 31°21' E 121°31'47251541.5
2016-Dec-03 11:33N 24°04' E 118°09'1449522.9
2016-Dec-03 11:33N 23°50' E 118°07'42925733.3
2016-Dec-03 11:32N 29°58' E 122°15'17512337.9
2016-Dec-03 11:31N 32°05' E 119°55'21488.2
2016-Dec-03 11:29N 31°57' E 120°18'7250213931.6
2016-Dec-03 11:26N 05°18' W 004°04'728523147.9
2016-Dec-03 11:08N 38°40' E 121°50'4409666.1
2016-Dec-03 11:05N 31°20' E 121°41'5 9.5
2016-Dec-03 10:34N 31°23' E 121°36'480575516.2
2016-Dec-03 10:33N 23°60' E 118°08'9053256718.4
2016-Dec-03 10:33N 38°44' E 121°51'52779010.1
2016-Dec-03 10:33N 29°58' E 122°15'925166.6
2016-Dec-03 10:32N 31°21' E 121°31'8817589.4
2016-Dec-03 10:32N 32°01' E 119°58'17670.6
2016-Dec-03 10:30N 31°57' E 120°18'725032543.2
2016-Dec-03 10:17N 05°18' W 004°04'71821436492.7
2016-Dec-03 10:16N 23°55' E 118°08'4895775.8
2016-Dec-03 10:11N 31°35' E 121°17'610875558.6
2016-Dec-03 10:07N 33°37' W 117°55'652911865.4
2016-Dec-03 09:34N 24°23' E 118°07'401144263.1
2016-Dec-03 09:33N 29°58' E 122°15'411295695.7
2016-Dec-03 09:33N 24°10' E 118°10'7430.6
2016-Dec-03 09:32N 24°03' E 118°09'48828327.7
2016-Dec-03 09:31N 31°57' E 120°18'17223.5
2016-Dec-03 09:27N 32°01' E 119°58'7231464855.5
2016-Dec-03 09:26N 05°18' W 004°04'72484349022.6
2016-Dec-03 09:26N 31°57' E 120°17'4694213.2
2016-Dec-03 09:19N 24°26' E 117°51'654231739.7
2016-Dec-03 09:07N 33°37' W 117°55'653711880.2
2016-Dec-03 08:34N 24°24' E 117°57'1222490.4
2016-Dec-03 08:33N 24°20' E 118°10'402289292.5
2016-Dec-03 08:33N 29°58' E 122°15'33463227.8
2016-Dec-03 08:33N 25°07' E 119°09'8226937.7
2016-Dec-03 08:33N 24°26' E 117°51'2213411.4
2016-Dec-03 08:33N 24°12' E 118°10'47866127.4
2016-Dec-03 08:32N 32°00' E 119°59'6158201549.4
2016-Dec-03 08:31N 33°37' W 117°55'66611410638.5
2016-Dec-03 08:30N 05°18' W 004°04'7250215699.7
2016-Dec-03 08:28N 31°57' E 120°18'470515.2
2016-Dec-03 07:34N 24°24' E 117°57'4051457080.1
2016-Dec-03 07:34N 29°58' E 122°15'4011443644.4
2016-Dec-03 07:33N 24°22' E 118°08'78530.5
2016-Dec-03 07:33N 24°25' E 118°01'258154886.3
2016-Dec-03 07:33N 22°24' E 113°53'66228052.3
2016-Dec-03 07:32N 31°57' E 120°05'72371002106.6
2016-Dec-03 07:31N 05°18' W 004°04'7162460424.0
2016-Dec-03 07:31N 24°26' E 117°51'4692438.3
2016-Dec-03 07:19N 31°57' E 120°18'470620.0
2016-Dec-03 06:34N 24°25' E 117°53'4061459932.3
2016-Dec-03 06:34N 29°55' E 122°17'4031451687.7
2016-Dec-03 06:33N 24°24' E 117°58'31019.7
2016-Dec-03 06:33N 24°24' E 117°55'45064.1
2016-Dec-03 06:33N 24°26' E 117°51'467129255.1
2016-Dec-03 06:33N 31°56' E 120°11'6151.3
2016-Dec-03 06:30N 31°57' E 120°18'725086137.5
2016-Dec-03 06:25N 05°18' W 004°04'7306597773.8
2016-Dec-03 06:25N 31°36' E 121°16'6755783.9
2016-Dec-03 06:18N 22°30' E 113°51'249337.5
2016-Dec-03 05:33N 24°26' E 117°52'0499.2
2016-Dec-03 05:33N 24°26' E 117°52'46939256.5
2016-Dec-03 05:33N 31°57' E 120°17'72494349130.0
2016-Dec-03 05:32N 05°18' W 004°04'7162560516.2
2016-Dec-03 05:32N 24°26' E 117°51'46941213.7
2016-Dec-03 05:31N 31°57' E 120°18'50674.3
2016-Dec-03 05:27N 31°39' E 121°13'1211733.0
2016-Dec-03 05:22N 29°51' E 122°18'125153.5
2016-Dec-03 04:33N 31°42' E 121°09'469421868.2
2016-Dec-03 04:33N 24°26' E 117°53'47344787.7
2016-Dec-03 04:33N 32°00' E 120°22'47327913.3
2016-Dec-03 04:32N 24°26' E 117°52'71645158031.8
2016-Dec-03 04:32N 05°18' W 004°04'7250966653.7
2016-Dec-03 04:31N 31°57' E 120°18'6485557.4
2016-Dec-03 04:24N 22°58' E 113°32'2534711.3
2016-Dec-03 04:21N 24°26' E 117°51'2 2.8
2016-Dec-03 03:33N 24°26' E 117°53'255917176.6
2016-Dec-03 03:33N 23°04' E 113°30'627205052.8
2016-Dec-03 03:33N 29°57' E 122°16'406365759.1
2016-Dec-03 03:33N 24°26' E 117°51'2381.7
2016-Dec-03 03:33N 24°26' E 117°52'45851544.8
2016-Dec-03 03:32N 31°22' E 121°30'683906.0
2016-Dec-03 03:31N 32°04' E 120°26'7257117147.2
2016-Dec-03 03:28N 05°18' W 004°04'7086277278.3
2016-Dec-03 03:26N 38°05' E 118°02'3852457.2
2016-Dec-03 03:17N 31°57' E 120°18'156215.8
2016-Dec-03 02:33N 29°58' E 122°15'627118749.6
2016-Dec-03 02:33N 23°06' E 113°27'64447350.9
2016-Dec-03 02:32N 31°57' E 120°18'469153499.0
2016-Dec-03 02:32N 24°26' E 117°52'2113.1
2016-Dec-03 02:31N 24°26' E 117°51'93530876.1
2016-Dec-03 02:29N 39°56' E 119°42'7163889141.2
2016-Dec-03 02:29N 05°18' W 004°04'69187483.7
2016-Dec-03 01:33N 23°06' E 113°27'25630707.7
2016-Dec-03 01:33N 24°26' E 117°52'40613037.1
2016-Dec-03 01:31N 29°58' E 122°15'737396515.5
2016-Dec-03 01:27N 05°18' W 004°04'7162176600.9
2016-Dec-03 01:24N 24°26' E 117°51'9354445.8
2016-Dec-03 01:11N 39°56' E 119°42'612966.0
2016-Dec-03 00:33N 29°57' E 122°16'406208578.4
2016-Dec-03 00:33N 24°26' E 117°52'21018.4
2016-Dec-03 00:33N 24°26' E 117°51'254152588.1
2016-Dec-03 00:33N 23°06' E 113°27'69182264161.9
2016-Dec-03 00:33N 05°18' W 004°04'716345396.3
2016-Dec-03 00:23N 39°56' E 119°42'618741.0
2016-Dec-02 23:33N 29°51' E 122°17'403207103.7
2016-Dec-02 23:33N 24°26' E 117°51'2103.6
2016-Dec-02 23:32N 24°26' E 117°52'7164243303.6
2016-Dec-02 23:31N 05°18' W 004°04'7163396693.8
2016-Dec-02 23:29N 39°56' E 119°42'4803982.6
2016-Dec-02 23:22N 31°57' E 120°18'29111.8
2016-Dec-02 23:07N 31°57' E 120°52'479853.5
2016-Dec-02 22:33N 24°26' E 117°51'403145089.1
2016-Dec-02 22:33N 29°51' E 122°18'40253619.1
2016-Dec-02 22:33N 24°26' E 117°52'46913505.8
2016-Dec-02 22:31N 31°57' E 120°18'72502007621.9
2016-Dec-02 22:30N 05°18' W 004°04'73003754224.3
2016-Dec-02 22:30N 31°41' E 121°10'192219.1
2016-Dec-02 22:30N 31°54' E 120°53'486109359.7
2016-Dec-02 22:29N 39°56' E 119°42'935990.7
2016-Dec-02 21:33N 24°26' E 117°52'47062729.0
2016-Dec-02 21:32N 31°48' E 120°56'1367775.9
2016-Dec-02 21:31N 29°51' E 122°18'61819875.9
2016-Dec-02 21:29N 39°56' E 119°42'716325785093.6
2016-Dec-02 21:29N 05°18' W 004°04'691854858.6
2016-Dec-02 21:22N 23°06' E 113°27'6183740.5
2016-Dec-02 21:12N 29°52' E 122°08'8734876.6
2016-Dec-02 21:12N 31°17' E 121°48'4773.4
2016-Dec-02 20:33N 31°46' E 121°04'47160598.8
2016-Dec-02 20:33N 24°26' E 117°52'21527.2
2016-Dec-02 20:33N 24°26' E 117°51'25439806.6
2016-Dec-02 20:33N 23°06' E 113°27'66256708.7
2016-Dec-02 20:32N 31°20' E 121°42'7332399906.8
2016-Dec-02 20:31N 05°18' W 004°04'73775311113.8
2016-Dec-02 20:31N 29°51' E 122°18'61830918.1
2016-Dec-02 20:29N 39°56' E 119°42'61914857.3
2016-Dec-02 20:27N 29°48' E 122°03'5441658.7
2016-Dec-02 20:07N 38°52' E 121°54'10421852.3
2016-Dec-02 19:34N 23°05' E 113°26'627451699.0
2016-Dec-02 19:33N 29°54' E 122°18'121434067.0
2016-Dec-02 19:33N 31°40' E 121°12'12219040.4
2016-Dec-02 19:33N 29°46' E 122°00'38932543.6
2016-Dec-02 19:32N 24°26' E 117°52'71641357377.2
2016-Dec-02 19:32N 05°18' W 004°04'716279334.6
2016-Dec-02 19:27N 24°26' E 117°51'9356163.9
2016-Dec-02 19:17N 39°56' E 119°42'124685.3
2016-Dec-02 19:07N 38°44' E 121°52'10341876.5
2016-Dec-02 18:34N 23°05' E 113°26'257462087.4
2016-Dec-02 18:33N 24°26' E 117°52'465418940.1
2016-Dec-02 18:33N 31°34' E 121°19'11219255.8
2016-Dec-02 18:33N 29°55' E 122°20'61510157.0
2016-Dec-02 18:29N 39°56' E 119°42'4942883.5
2016-Dec-02 18:19N 31°46' E 121°03'1301925.2
2016-Dec-02 18:15N 29°46' E 122°00'390107880.0
2016-Dec-02 18:15N 24°26' E 117°51'464671.4
2016-Dec-02 17:33N 31°29' E 121°27'10475149.9
2016-Dec-02 17:33N 29°55' E 122°20'6291132774.3
2016-Dec-02 17:33N 23°05' E 113°26'660297129.5
2016-Dec-02 17:33N 31°42' E 121°09'12434344.1
2016-Dec-02 17:33N 29°46' E 122°00'38923323.2
2016-Dec-02 17:32N 24°26' E 117°52'93522140.1
2016-Dec-02 17:29N 39°56' E 119°42'716320464.4
2016-Dec-02 17:08N 05°18' W 004°04'730612507.0
2016-Dec-02 16:33N 31°37' E 121°16'6752430120.5
2016-Dec-02 16:33N 22°30' E 113°51'637382158.5
2016-Dec-02 16:33N 29°55' E 122°20'194665.8
2016-Dec-02 16:33N 29°46' E 122°00'6101098418.3
2016-Dec-02 16:33N 23°05' E 113°26'661396717.5
2016-Dec-02 16:33N 31°23' E 121°36'3831380450.6
2016-Dec-02 16:33N 37°46' E 121°14'819226751.9
2016-Dec-02 16:33N 24°26' E 117°52'45246537.9
2016-Dec-02 16:32N 31°15' E 121°31'45310801.3
2016-Dec-02 16:30N 24°26' E 117°51'935420683.5
2016-Dec-02 16:29N 39°56' E 119°42'716320677.7
2016-Dec-02 16:09N 05°18' W 004°04'726812371.5
2016-Dec-02 15:33N 37°39' E 121°23'467239997.1
2016-Dec-02 15:33N 29°55' E 122°20'8814434.9
2016-Dec-02 15:33N 31°18' E 121°44'460118232.4
2016-Dec-02 15:33N 24°26' E 117°52'257462084.2
2016-Dec-02 15:33N 23°05' E 113°26'660395983.4
2016-Dec-02 15:33N 31°32' E 121°23'67922014.4
2016-Dec-02 15:31N 22°24' E 113°53'109454683.7
2016-Dec-02 15:29N 39°56' E 119°42'93562323.5
2016-Dec-02 15:29N 24°26' E 117°51'3962227.8
2016-Dec-02 15:18N 29°50' E 122°06'466629.9
2016-Dec-02 14:33N 37°35' E 121°23'81083287.1
2016-Dec-02 14:33N 24°26' E 117°51'40747256.1
2016-Dec-02 14:32N 29°55' E 122°20'629755062.9
2016-Dec-02 14:32N 23°05' E 113°26'25777013.5
2016-Dec-02 14:32N 24°26' E 117°52'39910977.8
2016-Dec-02 14:30N 29°55' E 122°08'9232940.6
2016-Dec-02 14:30N 31°21' E 121°32'7311.6
2016-Dec-02 14:28N 31°27' E 121°28'5166296.9
2016-Dec-02 14:23N 39°56' E 119°42'162192.8
2016-Dec-02 13:33N 37°35' E 121°23'463185027.4
2016-Dec-02 13:33N 29°55' E 122°20'40615888.7
2016-Dec-02 13:31N 24°26' E 117°52'0 0.0
2016-Dec-02 12:33N 24°26' E 117°52'810161901.6
2016-Dec-02 12:33N 37°35' E 121°23'9623464702.9
2016-Dec-02 12:33N 23°04' E 113°30'6281130430.5
2016-Dec-02 12:33N 29°55' E 122°20'480287975.0
2016-Dec-02 12:33N 37°53' E 121°34'387107149.5
2016-Dec-02 12:33N 31°26' E 121°29'7132.3
2016-Dec-02 12:29N 31°22' E 121°35'5225280.3
2016-Dec-02 12:23N 39°56' E 119°42'6136661.9
2016-Dec-02 12:18N 29°54' E 121°59'613170972.1
2016-Dec-02 12:13N 33°37' W 117°55'58939012.3
2016-Dec-02 11:33N 37°34' E 121°25'8091455712.0
2016-Dec-02 11:33N 24°26' E 117°52'403725501.0
2016-Dec-02 11:33N 29°54' E 122°16'473568116.1
2016-Dec-02 11:33N 37°46' E 121°31'38312545.9
2016-Dec-02 11:32N 31°22' E 121°35'14456.1
2016-Dec-02 11:30N 31°31' E 121°22'512153550.6
2016-Dec-02 11:29N 39°56' E 119°42'1063765441.6
2016-Dec-02 11:29N 23°01' E 113°32'682188007.0
2016-Dec-02 11:25N 33°37' W 117°55'61237163.9
2016-Dec-02 10:33N 29°51' E 122°11'620558000.6
2016-Dec-02 10:33N 23°01' E 113°32'9641156532.8
2016-Dec-02 10:33N 37°34' E 121°25'8092911382.4
2016-Dec-02 10:33N 24°26' E 117°52'46114809.6
2016-Dec-02 10:31N 31°22' E 121°36'52215534.8
2016-Dec-02 10:29N 39°56' E 119°42'6262561.7
2016-Dec-02 10:15N 29°41' E 122°01'141118.3
2016-Dec-02 10:14N 29°54' E 121°59'39623747.9
2016-Dec-02 10:13N 24°26' E 117°51'2 2.6
2016-Dec-02 09:34N 24°26' E 117°52'807415145.0
2016-Dec-02 09:33N 37°31' E 121°32'461332131.7
2016-Dec-02 09:33N 29°51' E 122°10'465167291.1
2016-Dec-02 09:33N 37°34' E 121°25'964133445.4
2016-Dec-02 09:33N 23°01' E 113°32'106319427.5
2016-Dec-02 09:29N 39°56' E 119°42'50123442.9
2016-Dec-02 09:28N 31°40' E 121°12'271451.8
2016-Dec-02 09:27N 31°22' E 121°35'461516.0
2016-Dec-02 08:33N 24°26' E 117°52'804578615.9
2016-Dec-02 08:33N 37°27' E 121°35'112077.2
2016-Dec-02 08:33N 37°34' E 121°25'809291227.7
2016-Dec-02 08:33N 24°26' E 117°51'399205086.3
2016-Dec-02 08:33N 29°51' E 122°11'12415996.3
2016-Dec-02 08:32N 31°43' E 121°07'1209391.5
2016-Dec-02 08:32N 29°55' E 122°08'9217431.6
2016-Dec-02 08:31N 31°22' E 121°35'52217568.1
2016-Dec-02 08:29N 39°56' E 119°42'10633229.7
2016-Dec-02 08:10N 23°01' E 113°32'9611592.2
2016-Dec-02 07:33N 37°27' E 121°35'4571644340.3
2016-Dec-02 07:33N 29°51' E 122°11'39868212.3
2016-Dec-02 07:33N 24°26' E 117°52'810224436.3
2016-Dec-02 07:33N 37°36' E 121°25'343123386.6
2016-Dec-02 07:33N 31°57' E 120°17'470211307.8
2016-Dec-02 07:33N 24°26' E 117°51'410184575.0
2016-Dec-02 07:32N 29°50' E 122°34'139618.1
2016-Dec-02 07:19N 31°45' E 121°04'66042448.7
2016-Dec-02 07:18N 23°01' E 113°32'10639689.1
2016-Dec-02 07:11N 39°56' E 119°42'162256.0
2016-Dec-02 06:33N 37°36' E 121°25'127199.0
2016-Dec-02 06:33N 37°27' E 121°35'961164753.3
2016-Dec-02 06:33N 23°01' E 113°32'252100716.8
2016-Dec-02 06:33N 24°26' E 117°51'2179.6
2016-Dec-02 06:32N 24°26' E 117°52'46112283.8
2016-Dec-02 06:30N 31°22' E 121°35'9347975.2
2016-Dec-02 06:30N 29°55' E 122°15'61471274.1
2016-Dec-02 06:29N 39°56' E 119°42'10914269.6
2016-Dec-02 06:14N 22°27' E 113°53'9851456.9
2016-Dec-02 05:34N 37°27' E 121°35'961691834.3
2016-Dec-02 05:33N 23°01' E 113°32'9651158326.3
2016-Dec-02 05:33N 37°36' E 121°25'810583521.6
2016-Dec-02 05:33N 24°26' E 117°52'21017.7
2016-Dec-02 05:33N 24°26' E 117°51'40616079.8
2016-Dec-02 05:32N 29°58' E 122°15'141348.3
2016-Dec-02 05:31N 29°54' E 121°59'61322273.6
2016-Dec-02 05:29N 39°56' E 119°42'522156562.5
2016-Dec-02 05:29N 31°22' E 121°35'67414030.0
2016-Dec-02 05:26N 22°30' E 113°51'9821112.3
2016-Dec-02 04:33N 37°27' E 121°35'804361756.0
2016-Dec-02 04:33N 24°26' E 117°51'461237230.6
2016-Dec-02 04:33N 31°22' E 121°35'46134550.2
2016-Dec-02 04:32N 24°26' E 117°52'93519565.5
2016-Dec-02 04:29N 39°56' E 119°42'61223175.8
2016-Dec-02 04:28N 29°58' E 122°15'8337.6
2016-Dec-02 04:26N 29°52' E 122°22'738053244.3
2016-Dec-02 04:18N 05°18' W 004°04'729883939.7
2016-Dec-02 04:13N 31°43' E 121°09'354539.0
2016-Dec-02 03:33N 37°37' E 121°26'128823.8
2016-Dec-02 03:33N 37°27' E 121°35'450324144.6
2016-Dec-02 03:33N 29°58' E 122°15'4051459672.3
2016-Dec-02 03:33N 24°26' E 117°53'2148.7
2016-Dec-02 03:33N 24°26' E 117°51'2524316.8
2016-Dec-02 03:29N 23°01' E 113°32'66119492.6
2016-Dec-02 03:27N 31°22' E 121°35'5222012.4
2016-Dec-02 03:11N 39°56' E 119°42'174273.7
2016-Dec-02 02:33N 37°27' E 121°35'2119296.1
2016-Dec-02 02:33N 37°43' E 121°18'47099584.4
2016-Dec-02 02:33N 29°54' E 121°59'395129209.5
2016-Dec-02 02:33N 24°26' E 117°53'831997328.9
2016-Dec-02 02:33N 38°17' E 118°13'538276701.4
2016-Dec-02 02:33N 29°58' E 122°15'7373442366.2
2016-Dec-02 02:32N 05°18' W 004°04'716352408.7
2016-Dec-02 02:23N 39°56' E 119°42'522187960.1
2016-Dec-02 02:23N 31°22' E 121°35'6612227.9
2016-Dec-02 02:05N 23°01' E 113°31'9611795.7
2016-Dec-02 01:33N 37°27' E 121°35'45041555.9
2016-Dec-02 01:33N 29°58' E 122°15'40556137.1
2016-Dec-02 01:32N 24°26' E 117°53'46147368.2
2016-Dec-02 01:32N 31°22' E 121°35'73261648241.0
2016-Dec-02 01:31N 05°18' W 004°04'7359367937.6
2016-Dec-02 01:30N 29°54' E 121°59'61345002.3
2016-Dec-02 01:29N 39°56' E 119°42'93512652.2
2016-Dec-02 01:25N 24°26' E 117°51'82010173.9
2016-Dec-02 01:20N 38°05' E 118°02'8201049.6
2016-Dec-02 00:33N 24°26' E 117°53'405104165.3
2016-Dec-02 00:33N 29°56' E 122°17'932364.5
2016-Dec-02 00:31N 31°22' E 121°35'52224410.7
2016-Dec-02 00:29N 39°56' E 119°42'93546743.2
2016-Dec-02 00:28N 24°26' E 117°51'3962313.1
2016-Dec-02 00:18N 29°54' E 121°59'73599903.4
2016-Dec-01 23:33N 05°18' W 004°04'7162526198.5
2016-Dec-01 23:33N 24°26' E 117°51'2477.6
2016-Dec-01 23:32N 24°26' E 117°53'93519228.1
2016-Dec-01 23:29N 39°56' E 119°42'61818397.7
2016-Dec-01 23:27N 29°51' E 122°18'4613877.7
2016-Dec-01 23:20N 37°31' E 121°33'170842.3
2016-Dec-01 23:08N 38°05' E 118°02'52914217.4
2016-Dec-01 23:06N 29°54' E 121°59'460847.8
2016-Dec-01 22:33N 37°33' E 121°28'46442828.2
2016-Dec-01 22:33N 29°51' E 122°18'9814762.2
2016-Dec-01 22:32N 31°23' E 121°38'44014136.2
2016-Dec-01 22:30N 38°22' E 118°52'1026012.2
2016-Dec-01 22:29N 39°56' E 119°42'135868.0
2016-Dec-01 22:20N 38°05' E 118°02'165212.1
2016-Dec-01 21:33N 37°33' E 121°28'46498252.9
2016-Dec-01 21:33N 29°51' E 122°18'6183851.4
2016-Dec-01 21:23N 39°56' E 119°42'9353409.3
2016-Dec-01 21:07N 24°26' E 117°53'8091444.0
2016-Dec-01 20:33N 37°33' E 121°28'46441757.5
2016-Dec-01 20:33N 29°51' E 122°18'6183989.5
2016-Dec-01 20:23N 39°56' E 119°42'935560822.5
2016-Dec-01 20:23N 24°26' E 117°53'3954400.3
2016-Dec-01 20:18N 29°54' E 121°59'395530.5
2016-Dec-01 19:33N 24°26' E 117°53'809111962.5
2016-Dec-01 19:33N 37°33' E 121°28'46425307.6
2016-Dec-01 19:32N 29°51' E 122°18'61815788.1
2016-Dec-01 19:29N 39°56' E 119°42'5214171.5
2016-Dec-01 19:22N 31°23' E 121°38'91547.7
2016-Dec-01 19:12N 29°54' E 121°59'460715.9
2016-Dec-01 18:33N 37°33' E 121°28'809582209.0
2016-Dec-01 18:33N 24°26' E 117°53'21671.6
2016-Dec-01 18:33N 24°26' E 117°51'40313817.8
2016-Dec-01 18:31N 29°51' E 122°18'9844292.4
2016-Dec-01 18:31N 31°23' E 121°38'1126.7
2016-Dec-01 18:31N 31°22' E 121°37'52325424.1
2016-Dec-01 18:29N 39°56' E 119°42'6133200.5
2016-Dec-01 18:18N 29°54' E 121°59'460621.1
2016-Dec-01 17:34N 37°33' E 121°28'464556773.4
2016-Dec-01 17:33N 29°51' E 122°18'10218305.3
2016-Dec-01 17:33N 31°25' E 121°31'46115231.4
2016-Dec-01 17:31N 24°26' E 117°53'21671.7
2016-Dec-01 17:31N 24°26' E 117°51'46328739.5
2016-Dec-01 17:30N 31°23' E 121°38'912624.9
2016-Dec-01 17:28N 29°54' E 121°59'6133424.1
2016-Dec-01 17:17N 39°56' E 119°42'165225.4
2016-Dec-01 16:34N 37°33' E 121°28'36994944.0
2016-Dec-01 16:33N 31°24' E 121°31'51361.0
2016-Dec-01 16:33N 31°28' E 121°27'46236186.6
2016-Dec-01 16:32N 24°26' E 117°53'4031069.8
2016-Dec-01 16:10N 29°54' E 122°16'4045085.5
2016-Dec-01 16:05N 24°26' E 117°51'8091533.6
2016-Dec-01 15:33N 37°33' E 121°28'362100286.4
2016-Dec-01 15:33N 31°31' E 121°21'46337071.7
2016-Dec-01 15:32N 24°26' E 117°53'46179065.7
2016-Dec-01 15:32N 31°22' E 121°39'217.7
2016-Dec-01 15:25N 31°23' E 121°38'911697.1
2016-Dec-01 15:22N 29°58' E 122°15'53116332.9
2016-Dec-01 15:20N 38°05' E 118°02'82026580.4
2016-Dec-01 15:18N 24°26' E 117°51'93568683.0
2016-Dec-01 15:17N 39°56' E 119°42'6133219.1
2016-Dec-01 15:06N 29°54' E 121°59'460845.5
2016-Dec-01 14:33N 37°33' E 121°28'3701331237.8
2016-Dec-01 14:33N 31°23' E 121°31'461207250.3
2016-Dec-01 14:33N 24°26' E 117°51'40633256.2
2016-Dec-01 14:32N 29°58' E 122°15'40566343.6
2016-Dec-01 14:32N 24°26' E 117°53'467560479.2
2016-Dec-01 14:32N 31°37' E 121°15'24989.4
2016-Dec-01 14:31N 31°23' E 121°38'91817.9
2016-Dec-01 14:24N 29°54' E 121°59'735926976.7
2016-Dec-01 14:08N 05°18' W 004°04'1 2.2
2016-Dec-01 13:33N 05°18' W 004°02'729513130489.3
2016-Dec-01 13:33N 31°44' E 121°06'350630026.1
2016-Dec-01 13:33N 37°33' E 121°28'46082778.7
2016-Dec-01 13:33N 29°54' E 121°59'14371.2
2016-Dec-01 13:31N 29°58' E 122°15'56952525.7
2016-Dec-01 13:30N 38°39' E 117°39'85342662.3
2016-Dec-01 13:29N 24°26' E 117°53'4621157.3
2016-Dec-01 13:05N 31°23' E 121°38'370702.2
2016-Dec-01 12:33N 37°33' E 121°28'72712379676.8
2016-Dec-01 12:33N 05°17' W 004°01'73731154003.8
2016-Dec-01 12:33N 29°55' E 122°17'40513368.1
2016-Dec-01 12:31N 24°26' E 117°53'46215849.6
2016-Dec-01 12:29N 31°23' E 121°38'370397.3
2016-Dec-01 11:33N 37°33' E 121°28'7271409004.1
2016-Dec-01 11:32N 05°17' W 004°01'7373166929.2
2016-Dec-01 11:30N 29°53' E 122°17'4021038.9
2016-Dec-01 11:06N 24°26' E 117°53'8091448.0
2016-Dec-01 10:33N 37°34' E 121°27'7271513242.1
2016-Dec-01 10:32N 05°17' W 004°01'7374165917.9
2016-Dec-01 10:29N 29°51' E 122°18'4031180.0
2016-Dec-01 10:09N 24°26' E 117°51'8171386.2
2016-Dec-01 09:34N 37°41' E 121°29'816734713.7
2016-Dec-01 09:33N 24°26' E 117°53'71622578216.9
2016-Dec-01 09:33N 05°17' W 004°01'7371245695.9
2016-Dec-01 09:32N 29°57' E 122°15'40633255.3
2016-Dec-01 09:31N 24°26' E 117°51'824862.9
2016-Dec-01 08:33N 37°48' E 121°30'824185420.8
2016-Dec-01 08:33N 24°26' E 117°51'2196.7
2016-Dec-01 08:33N 24°26' E 117°53'46224473.1
2016-Dec-01 08:32N 31°23' E 121°38'91497.5
2016-Dec-01 08:20N 29°58' E 122°15'1552019.7
2016-Dec-01 08:16N 32°04' E 120°30'479674.0
2016-Dec-01 07:33N 24°26' E 117°51'7160402737.1
2016-Dec-01 07:32N 05°17' W 004°01'7162805693.4
2016-Dec-01 07:32N 24°26' E 117°53'4056884.7
2016-Dec-01 07:28N 29°58' E 122°15'9123527.0
2016-Dec-01 07:28N 31°23' E 121°38'916309.1
2016-Dec-01 07:27N 29°54' E 121°59'395441.3
2016-Dec-01 06:33N 24°26' E 117°53'21114.4
2016-Dec-01 06:33N 24°26' E 117°51'4068348.4
2016-Dec-01 06:30N 29°56' E 122°17'7373104905.5
2016-Dec-01 06:26N 05°17' W 004°01'735725989.7
2016-Dec-01 06:09N 29°54' E 121°59'396655.7
2016-Dec-01 05:33N 24°26' E 117°51'403724696.7
2016-Dec-01 05:33N 29°51' E 122°17'164661.1
2016-Dec-01 05:33N 29°54' E 121°59'39525841.9
2016-Dec-01 05:32N 24°26' E 117°53'716265603.6
2016-Dec-01 05:25N 05°17' W 004°01'7259237562.7
2016-Dec-01 05:23N 32°04' E 120°31'70854.6
2016-Dec-01 05:18N 31°23' E 121°38'0 0.0
2016-Dec-01 04:33N 31°23' E 121°38'46379374.8
2016-Dec-01 04:33N 24°26' E 117°51'716012887592.3
2016-Dec-01 04:33N 05°17' W 004°01'716225782198.2
2016-Dec-01 04:33N 24°26' E 117°53'40232157.2
2016-Dec-01 04:32N 29°51' E 122°18'6182585.5
2016-Dec-01 04:17N 39°56' E 119°42'52262669.7
2016-Dec-01 04:17N 31°21' E 121°30'911307.8
2016-Dec-01 04:13N 29°54' E 121°59'1522.7
2016-Dec-01 03:33N 29°55' E 122°17'7373856167.1
2016-Dec-01 03:32N 05°17' W 004°01'7160758094.7
2016-Dec-01 03:32N 24°26' E 117°51'2477.6
2016-Dec-01 03:32N 24°26' E 117°53'45827466.5
2016-Dec-01 03:31N 31°21' E 121°30'737.6
2016-Dec-01 03:20N 31°23' E 121°38'52111731.8
2016-Dec-01 03:17N 39°56' E 119°42'10919943.4
2016-Dec-01 03:11N 22°27' E 113°52'249396.7
2016-Dec-01 02:33N 24°26' E 117°51'2668.7
2016-Dec-01 02:33N 24°26' E 117°53'40548651.4
2016-Dec-01 02:33N 29°58' E 122°15'61211710.3
2016-Dec-01 02:29N 39°56' E 119°42'5224362.2
2016-Dec-01 02:22N 31°21' E 121°30'67533727.7
2016-Dec-01 02:21N 22°24' E 113°53'6944117925.1
2016-Dec-01 02:17N 05°17' W 004°01'732549850.4
2016-Dec-01 02:09N 31°23' E 121°38'478791.9
2016-Dec-01 01:32N 38°39' E 117°39'70606354041.6
2016-Dec-01 01:32N 05°17' W 004°01'73701105569.0
2016-Dec-01 01:32N 29°58' E 122°15'9337174.6
2016-Dec-01 01:32N 31°22' E 121°30'7743.2
2016-Dec-01 01:31N 31°23' E 121°38'52116466.4
2016-Dec-01 01:29N 39°56' E 119°42'93510258.9
2016-Dec-01 01:24N 24°26' E 117°53'87760708.7
2016-Dec-01 01:23N 38°41' E 121°42'190228.9
2016-Dec-01 00:33N 38°39' E 117°39'478343828.4
2016-Dec-01 00:33N 31°23' E 121°38'9223685.4
2016-Dec-01 00:33N 29°57' E 122°16'53076384.1
2016-Dec-01 00:33N 38°47' E 121°44'44588996.7
2016-Dec-01 00:32N 31°22' E 121°30'73181317255.2
2016-Dec-01 00:32N 05°17' W 004°01'7161171852.4
2016-Dec-01 00:29N 39°56' E 119°42'9357190.0
2016-Dec-01 00:22N 24°26' E 117°53'0 0.0
2016-Nov-30 23:33N 24°26' E 117°53'21337.3
2016-Nov-30 23:33N 24°26' E 117°51'403241530.8
2016-Nov-30 23:33N 29°51' E 122°17'73731263978.1
2016-Nov-30 23:33N 05°17' W 004°01'73181254529.4
2016-Nov-30 23:32N 31°22' E 121°30'7288.5
2016-Nov-30 23:31N 31°23' E 121°38'5214134.7
2016-Nov-30 23:23N 39°56' E 119°42'1221363.5
2016-Nov-30 23:18N 38°39' E 117°39'8531141.8
2016-Nov-30 22:33N 24°26' E 117°51'2180.7
2016-Nov-30 22:33N 24°26' E 117°53'71626445547.4
2016-Nov-30 22:33N 05°17' W 004°01'7374255263.8
2016-Nov-30 22:31N 29°51' E 122°18'98727.5
2016-Nov-30 22:23N 31°23' E 121°38'47614285.2
2016-Nov-30 22:21N 24°08' E 117°60'1924.4
2016-Nov-30 21:33N 24°26' E 117°53'2278.6
2016-Nov-30 21:33N 24°26' E 117°51'47133260.6
2016-Nov-30 21:32N 31°44' E 121°06'48945143.0
2016-Nov-30 21:31N 24°03' E 118°04'71752869988.9
2016-Nov-30 21:31N 05°17' W 004°01'7372208982.1
2016-Nov-30 21:29N 29°56' E 122°17'941996.2
2016-Nov-30 21:26N 31°23' E 121°38'703092.2
2016-Nov-30 21:25N 32°04' E 120°31'4192881.0
2016-Nov-30 21:16N 38°39' E 117°39'422589.6
2016-Nov-30 20:33N 31°58' E 120°17'7831175.9
2016-Nov-30 20:33N 31°22' E 121°39'73261883896.1
2016-Nov-30 20:33N 05°17' W 004°01'7302536503.6
2016-Nov-30 20:32N 31°38' E 121°15'468168311.7
2016-Nov-30 20:32N 24°26' E 117°53'40514743.0
2016-Nov-30 20:30N 29°58' E 122°15'4066532.5
2016-Nov-30 20:27N 24°26' E 117°51'4791548.3
2016-Nov-30 20:08N 32°04' E 120°29'156270.5
2016-Nov-30 19:33N 29°58' E 122°15'1033988.9
2016-Nov-30 19:32N 31°31' E 121°24'46422273.9
2016-Nov-30 19:31N 24°26' E 117°53'7162363129.1
2016-Nov-30 19:29N 05°17' W 004°01'7252246299.6
2016-Nov-30 19:28N 32°01' E 120°24'4758142.6
2016-Nov-30 19:24N 24°26' E 117°51'0 0.0
2016-Nov-30 18:33N 24°26' E 117°51'40697551.5
2016-Nov-30 18:33N 29°58' E 122°15'157563650.8
2016-Nov-30 18:33N 31°57' E 120°16'72260279.8
2016-Nov-30 18:33N 31°25' E 121°32'73201098023.8
2016-Nov-30 18:33N 05°17' W 004°01'73707470.1
2016-Nov-30 17:33N 29°58' E 122°15'7370247978.1
2016-Nov-30 17:32N 05°17' W 004°01'7234394581.7
2016-Nov-30 17:30N 31°57' E 120°03'33810311.5
2016-Nov-30 17:28N 37°06' E 122°51'4322875.9
2016-Nov-30 17:19N 29°57' E 121°50'6235580.1
2016-Nov-30 17:13N 22°24' E 113°53'4 6.2
2016-Nov-30 16:32N 22°29' E 113°52'6943416598.2
2016-Nov-30 16:31N 05°17' W 004°01'71607428.0
2016-Nov-30 15:33N 24°26' E 117°51'2290.7
2016-Nov-30 15:32N 24°26' E 117°53'7162102717.8
2016-Nov-30 15:28N 05°17' W 004°01'737030997.2
2016-Nov-30 15:14N 29°58' E 122°15'568841.0
2016-Nov-30 14:33N 38°39' E 117°41'853236237.0
2016-Nov-30 14:33N 24°26' E 117°51'46128586.8
2016-Nov-30 14:32N 31°18' E 121°43'8511796.9
2016-Nov-30 14:32N 29°58' E 122°15'54615353.1
2016-Nov-30 14:30N 38°20' E 117°56'126415.3
2016-Nov-30 14:11N 39°56' E 119°42'612966.9
2016-Nov-30 13:33N 29°58' E 122°15'943014.4
2016-Nov-30 13:32N 31°23' E 121°30'52014637.7
2016-Nov-30 13:29N 39°56' E 119°42'9359347.0
2016-Nov-30 13:23N 24°26' E 117°53'71621289108.6
2016-Nov-30 13:23N 05°17' W 004°01'7084125010.8
2016-Nov-30 13:20N 38°05' E 118°02'8201059.0
2016-Nov-30 12:33N 24°26' E 117°53'40541702.2
2016-Nov-30 12:33N 29°58' E 122°15'7370257608.0
2016-Nov-30 12:31N 05°17' W 004°01'7161274232.6
2016-Nov-30 12:29N 39°56' E 119°42'1352236.2
2016-Nov-30 12:26N 38°05' E 118°02'44311724.1
2016-Nov-30 12:24N 31°20' E 121°40'4 4.5
2016-Nov-30 11:32N 31°23' E 121°37'52115637.2
2016-Nov-30 11:30N 39°56' E 119°42'612137599.8
2016-Nov-30 11:29N 29°58' E 122°15'737137636.8
2016-Nov-30 11:18N 05°17' W 004°01'733188862.6
2016-Nov-30 11:13N 31°18' E 121°43'710.6
2016-Nov-30 10:33N 31°22' E 121°37'1153.5
2016-Nov-30 10:32N 31°23' E 121°37'92706.9
2016-Nov-30 10:24N 29°58' E 122°15'6125267.0
2016-Nov-30 10:17N 39°56' E 119°42'612818.5
2016-Nov-30 09:33N 29°58' E 122°15'61211527.3
2016-Nov-30 09:29N 39°56' E 119°42'935420614.2
2016-Nov-30 09:29N 24°26' E 117°53'46287587.5
2016-Nov-30 09:29N 31°23' E 121°37'92325.3
2016-Nov-30 09:12N 29°54' E 122°02'397238043.2
2016-Nov-30 09:12N 24°26' E 117°51'0 0.0
2016-Nov-30 08:33N 24°26' E 117°51'46315017.1
2016-Nov-30 08:31N 31°23' E 121°37'52124369.7
2016-Nov-30 08:29N 39°56' E 119°42'93526084.6
2016-Nov-30 08:27N 24°26' E 117°53'4056291.1
2016-Nov-30 08:23N 29°58' E 122°15'962080.5
2016-Nov-30 08:21N 31°06' E 120°57'433547.4
2016-Nov-30 07:33N 24°26' E 117°51'463208365.1
2016-Nov-30 07:33N 31°23' E 121°37'46234670.5
2016-Nov-30 07:32N 24°26' E 117°53'40576822.4
2016-Nov-30 07:32N 29°57' E 122°15'61214688.8
2016-Nov-30 07:29N 39°56' E 119°42'7162263093.6
2016-Nov-30 07:28N 05°16' W 004°02'71617772.0
2016-Nov-30 06:33N 24°26' E 117°51'935560911.3
2016-Nov-30 06:32N 39°56' E 119°42'93537808.0
2016-Nov-30 06:31N 24°26' E 117°53'46216641.6
2016-Nov-30 06:29N 31°23' E 121°37'73262028819.5
2016-Nov-30 06:29N 05°16' W 004°02'71617690.9
2016-Nov-30 05:33N 24°26' E 117°51'2445.8
2016-Nov-30 05:33N 24°26' E 117°53'462166404.2
2016-Nov-30 05:33N 31°23' E 121°37'521134034.0
2016-Nov-30 05:33N 39°56' E 119°42'716290786.1
2016-Nov-30 05:28N 05°16' W 004°02'7374252838.2
2016-Nov-30 05:26N 29°51' E 122°17'6263028.0
2016-Nov-30 05:14N 22°59' E 113°31'5 7.9
2016-Nov-30 04:33N 23°04' E 113°29'106173442.5
2016-Nov-30 04:32N 39°56' E 119°42'52162549.2
2016-Nov-30 04:32N 31°23' E 121°37'46283202.1
2016-Nov-30 04:32N 24°26' E 117°53'716325786906.6
2016-Nov-30 04:32N 05°16' W 004°02'71618593297.7
2016-Nov-30 04:32N 24°26' E 117°51'249799.6
2016-Nov-30 04:13N 22°28' E 113°52'63519692.4
2016-Nov-30 04:11N 29°51' E 122°18'99157.7
2016-Nov-30 03:33N 31°23' E 121°37'66288275.8
2016-Nov-30 03:33N 23°06' E 113°26'255131123.9
2016-Nov-30 03:33N 24°26' E 117°51'257.6
2016-Nov-30 03:31N 24°26' E 117°53'40512351.1
2016-Nov-30 03:29N 29°56' E 122°17'7374379226.1
2016-Nov-30 03:28N 05°16' W 004°02'69167616.7
2016-Nov-30 02:33N 23°06' E 113°26'255152977.9
2016-Nov-30 02:33N 24°26' E 117°51'463277796.7
2016-Nov-30 02:33N 31°23' E 121°37'46211020.1
2016-Nov-30 02:31N 24°26' E 117°53'71633683839.0
2016-Nov-30 02:31N 05°16' W 004°02'737250073.4
2016-Nov-30 02:22N 29°58' E 122°15'6124299.7
2016-Nov-30 02:13N 39°56' E 119°42'52665350.2
2016-Nov-30 02:13N 31°19' E 121°43'867200.4
2016-Nov-30 02:12N 29°54' E 121°59'615955.8
2016-Nov-30 01:33N 23°05' E 113°26'25722019.6
2016-Nov-30 01:33N 24°26' E 117°53'46252005.1
2016-Nov-30 01:32N 31°23' E 121°37'921310.4
2016-Nov-30 01:28N 29°58' E 122°15'4062920.7
2016-Nov-30 01:20N 24°26' E 117°51'935146314.4
2016-Nov-30 01:19N 39°56' E 119°42'6125741.8
2016-Nov-30 01:13N 29°54' E 121°59'7358529766.7
2016-Nov-30 01:12N 05°16' W 004°02'691610750.8
2016-Nov-30 00:33N 23°05' E 113°26'69161464639.1
2016-Nov-30 00:33N 05°16' W 004°02'7373541725.7
2016-Nov-30 00:32N 29°56' E 122°16'40666499.1
2016-Nov-30 00:32N 24°26' E 117°51'93578261.2
2016-Nov-30 00:31N 39°56' E 119°42'93536974.5
2016-Nov-30 00:30N 24°26' E 117°53'46236930.0
2016-Nov-30 00:29N 31°21' E 121°41'4410.2
2016-Nov-30 00:28N 31°23' E 121°37'6 7.0
2016-Nov-29 23:33N 31°25' E 121°30'611500.8
2016-Nov-29 23:33N 31°23' E 121°37'662340667.0
2016-Nov-29 23:33N 23°05' E 113°26'69162766539.1
2016-Nov-29 23:33N 05°16' W 004°02'7161696751.7
2016-Nov-29 23:33N 24°26' E 117°51'40365935.3
2016-Nov-29 23:32N 29°51' E 122°18'61834244.4
2016-Nov-29 23:31N 39°56' E 119°42'5154909.3
2016-Nov-29 23:25N 31°30' E 121°39'1820.7
2016-Nov-29 22:33N 31°34' E 121°19'660263820.1
2016-Nov-29 22:33N 23°05' E 113°26'257308274.0
2016-Nov-29 22:33N 24°26' E 117°53'264.3
2016-Nov-29 22:32N 24°26' E 117°51'935134609.3
2016-Nov-29 22:31N 39°56' E 119°42'513615532.8
2016-Nov-29 22:31N 31°30' E 121°28'10291.3
2016-Nov-29 22:29N 31°23' E 121°37'732668863.4
2016-Nov-29 22:23N 05°16' W 004°02'69178430.0
2016-Nov-29 21:33N 23°06' E 113°27'256307183.2
2016-Nov-29 21:33N 24°26' E 117°53'2104.5
2016-Nov-29 21:32N 24°26' E 117°51'46640896.5
2016-Nov-29 21:32N 31°34' E 121°19'73088769168.5
2016-Nov-29 21:31N 05°16' W 004°02'716267850.9
2016-Nov-29 21:25N 39°56' E 119°42'9351085.0
2016-Nov-29 20:33N 24°26' E 117°53'256115192.8
2016-Nov-29 20:33N 23°06' E 113°27'25433895.7
2016-Nov-29 20:33N 24°26' E 117°51'46919202.4
2016-Nov-29 20:31N 31°41' E 121°11'500112587.5
2016-Nov-29 20:31N 39°56' E 119°42'6181892.7
2016-Nov-29 20:12N 29°51' E 122°18'402633.0
2016-Nov-29 19:33N 24°26' E 117°53'256131650.9
2016-Nov-29 19:33N 23°06' E 113°27'254130742.3
2016-Nov-29 19:33N 24°26' E 117°51'46326044.7
2016-Nov-29 19:32N 31°23' E 121°37'7326599421.4
2016-Nov-29 19:31N 05°16' W 004°02'716268572.5
2016-Nov-29 19:25N 39°56' E 119°42'61860158.7
2016-Nov-29 19:25N 29°51' E 122°18'1653.1
2016-Nov-29 19:06N 29°54' E 121°59'395725.5
2016-Nov-29 18:33N 24°26' E 117°53'402361764.7
2016-Nov-29 18:33N 29°51' E 122°18'4031450873.3
2016-Nov-29 18:33N 24°26' E 117°51'46326456.8
2016-Nov-29 18:32N 31°23' E 121°37'52130262.0
2016-Nov-29 18:31N 39°56' E 119°42'109312987.3
2016-Nov-29 18:26N 22°24' E 113°53'62717225.8
2016-Nov-29 18:24N 29°54' E 121°59'7358144745.3
2016-Nov-29 18:21N 05°16' W 004°02'6917114756.4
2016-Nov-29 18:17N 23°06' E 113°27'256349.5
2016-Nov-29 17:33N 24°26' E 117°53'25640067.3
2016-Nov-29 17:33N 23°06' E 113°27'66025003.0
2016-Nov-29 17:31N 31°40' E 121°12'501180355.2
2016-Nov-29 17:31N 39°56' E 119°42'93561185.6
2016-Nov-29 17:30N 24°26' E 117°51'4036535.4
2016-Nov-29 17:27N 29°51' E 122°18'16114.7
2016-Nov-29 17:18N 29°54' E 121°59'1164167.7
2016-Nov-29 17:16N 31°42' E 121°10'469658.1
2016-Nov-29 16:33N 24°26' E 117°53'25627925.7
2016-Nov-29 16:33N 23°06' E 113°27'659169504.0
2016-Nov-29 16:33N 31°34' E 121°19'50820088.9
2016-Nov-29 16:31N 39°56' E 119°42'49917977.5
2016-Nov-29 16:30N 31°42' E 121°10'116395.4
2016-Nov-29 16:12N 29°54' E 121°59'16147.2
2016-Nov-29 16:05N 29°51' E 122°18'402759.2
2016-Nov-29 15:33N 24°26' E 117°53'463166805.2
2016-Nov-29 15:33N 31°29' E 121°27'10764346.5
2016-Nov-29 15:33N 29°51' E 122°18'625187454.7
2016-Nov-29 15:33N 23°06' E 113°27'106081166.6
2016-Nov-29 15:32N 39°56' E 119°42'6124366.1
2016-Nov-29 15:24N 29°54' E 121°59'3961424912.2
2016-Nov-29 15:24N 24°26' E 117°51'46311905.9
2016-Nov-29 15:21N 31°23' E 121°37'662824.7
2016-Nov-29 14:33N 23°06' E 113°27'254130740.4
2016-Nov-29 14:33N 24°26' E 117°51'2196.7
2016-Nov-29 14:33N 24°26' E 117°53'46233281.2
2016-Nov-29 14:32N 31°23' E 121°37'122.3
2016-Nov-29 14:29N 31°23' E 121°36'5219336.2
2016-Nov-29 14:25N 39°56' E 119°42'6189936.9
2016-Nov-29 14:21N 29°51' E 122°18'625777.3
2016-Nov-29 13:33N 23°06' E 113°27'256184309.9
2016-Nov-29 13:33N 24°26' E 117°53'46227735.7
2016-Nov-29 13:32N 31°23' E 121°37'67742027.9
2016-Nov-29 13:31N 22°28' E 113°52'6349027.1
2016-Nov-29 13:27N 29°51' E 122°18'1647.1
2016-Nov-29 13:06N 29°54' E 121°59'1528.2
2016-Nov-29 12:33N 29°52' E 122°17'62430366.7
2016-Nov-29 12:32N 23°06' E 113°27'66249625.2
2016-Nov-29 12:31N 31°23' E 121°37'521117263.2
2016-Nov-29 12:31N 39°56' E 119°42'61216830.8
2016-Nov-29 12:29N 29°54' E 121°59'3951892.5
2016-Nov-29 12:16N 24°26' E 117°53'46224800.8
2016-Nov-29 12:15N 31°25' E 121°32'85953.6
2016-Nov-29 12:10N 31°59' E 119°60'4674683.1
2016-Nov-29 12:04N 24°26' E 117°51'2 3.6
2016-Nov-29 11:33N 24°26' E 117°53'45849961.5
2016-Nov-29 11:33N 31°22' E 121°30'656196856.9
2016-Nov-29 11:33N 23°06' E 113°27'96286566.1
2016-Nov-29 11:32N 38°41' E 117°49'56723746.2
2016-Nov-29 11:30N 29°58' E 122°15'926879.4
2016-Nov-29 11:30N 31°23' E 121°37'5216897.9
2016-Nov-29 11:25N 39°56' E 119°42'9353208.0
2016-Nov-29 11:08N 24°26' E 117°51'2733.2
2016-Nov-29 11:07N 24°26' E 117°53'462815.9
2016-Nov-29 10:34N 31°23' E 121°37'462138607.0
2016-Nov-29 10:33N 24°26' E 117°53'2123.8
2016-Nov-29 10:32N 24°26' E 117°51'406365817.1
2016-Nov-29 10:32N 29°58' E 122°15'405291780.9
2016-Nov-29 10:32N 24°26' E 117°53'93549480.6
2016-Nov-29 10:31N 39°56' E 119°42'106010200.4
2016-Nov-29 10:25N 23°06' E 113°27'6151776.9
2016-Nov-29 10:04N 29°54' E 122°00'395768.1
2016-Nov-29 09:33N 24°26' E 117°53'256153635.8
2016-Nov-29 09:33N 23°06' E 113°27'25423473.2
2016-Nov-29 09:33N 24°26' E 117°51'40660968.5
2016-Nov-29 09:32N 29°58' E 122°15'61237956.4
2016-Nov-29 09:31N 39°56' E 119°42'6122266.0
2016-Nov-29 09:15N 29°54' E 121°59'3953214.2
2016-Nov-29 09:08N 24°26' E 117°53'462810.9
2016-Nov-29 08:33N 31°24' E 121°36'662596029.1
2016-Nov-29 08:33N 23°05' E 113°26'257924756.9
2016-Nov-29 08:33N 24°26' E 117°53'032.2
2016-Nov-29 08:33N 24°26' E 117°53'2384.1
2016-Nov-29 08:32N 24°26' E 117°51'93555167.4
2016-Nov-29 08:31N 39°56' E 119°42'6134126.3
2016-Nov-29 08:22N 29°56' E 122°17'13640.3
2016-Nov-29 08:21N 29°54' E 122°02'736046648.4
2016-Nov-29 08:12N 05°16' W 004°02'691710844.8
2016-Nov-29 07:33N 23°05' E 113°26'626321740.8
2016-Nov-29 07:33N 29°53' E 122°16'81992.6
2016-Nov-29 07:33N 29°55' E 122°07'399718014.3
2016-Nov-29 07:33N 24°26' E 117°53'22688.6
2016-Nov-29 07:33N 24°26' E 117°51'2257.2
2016-Nov-29 07:32N 24°26' E 117°53'46272359.4
2016-Nov-29 07:32N 31°24' E 121°36'7325527379.6
2016-Nov-29 07:31N 05°16' W 004°02'71628594395.2
2016-Nov-29 07:31N 39°56' E 119°42'10601103.4
2016-Nov-29 06:34N 23°05' E 113°26'25516112.3
2016-Nov-29 06:33N 24°26' E 117°51'2424.5
2016-Nov-29 06:32N 24°26' E 117°53'402120534.1
2016-Nov-29 06:32N 29°51' E 122°18'61840470.4
2016-Nov-29 06:31N 39°56' E 119°42'9359294.7
2016-Nov-29 06:25N 24°26' E 117°53'4602753.6
2016-Nov-29 06:15N 31°24' E 121°31'488.1
2016-Nov-29 06:12N 31°24' E 121°36'3839246.1
2016-Nov-29 06:10N 37°46' E 121°14'6 9.2
2016-Nov-29 05:33N 37°42' E 121°19'37890837.2
2016-Nov-29 05:33N 31°24' E 121°32'461331703.0
2016-Nov-29 05:33N 24°26' E 117°53'257154338.6
2016-Nov-29 05:33N 23°05' E 113°26'25524168.4
2016-Nov-29 05:32N 24°26' E 117°51'46324514.8
2016-Nov-29 05:31N 31°24' E 121°36'46297899.2
2016-Nov-29 05:31N 24°26' E 117°53'9354806.7
2016-Nov-29 05:19N 39°56' E 119°42'10601387.8
2016-Nov-29 04:33N 23°05' E 113°26'255459200.1
2016-Nov-29 04:33N 24°26' E 117°51'2955.2
2016-Nov-29 04:33N 24°26' E 117°53'8111458989.5
2016-Nov-29 04:33N 37°35' E 121°27'811324201.4
2016-Nov-29 04:33N 24°26' E 117°53'93533313.5
2016-Nov-29 04:31N 39°56' E 119°42'5236036.3
2016-Nov-29 04:26N 31°22' E 121°39'435.5
2016-Nov-29 04:20N 31°24' E 121°36'100707.2
2016-Nov-29 04:11N 29°51' E 122°18'466735.6
2016-Nov-29 03:33N 37°36' E 121°25'963123867.5
2016-Nov-29 03:33N 23°04' E 113°29'25557390.7
2016-Nov-29 03:33N 24°26' E 117°53'0461.6
2016-Nov-29 03:33N 24°26' E 117°53'25182069.3
2016-Nov-29 03:32N 22°27' E 113°52'109152357.2
2016-Nov-29 03:31N 39°56' E 119°42'93590951.6
2016-Nov-29 03:31N 24°26' E 117°51'403120906.1
2016-Nov-29 03:30N 29°51' E 122°18'1001823.6
2016-Nov-29 03:27N 31°24' E 121°36'372415.3
2016-Nov-29 02:33N 37°36' E 121°25'467167944.3
2016-Nov-29 02:33N 29°51' E 122°18'625374948.8
2016-Nov-29 02:33N 23°01' E 113°32'254101411.5
2016-Nov-29 02:33N 24°26' E 117°53'060.0
2016-Nov-29 02:33N 24°26' E 117°53'93538234.5
2016-Nov-29 02:31N 39°56' E 119°42'1181228.3
2016-Nov-29 02:25N 38°47' E 121°46'1802040.6
2016-Nov-29 02:20N 38°05' E 118°02'820268219.9
2016-Nov-29 02:20N 24°26' E 117°51'4634517.7
2016-Nov-29 02:14N 31°24' E 121°36'372553.2
2016-Nov-29 01:33N 37°36' E 121°25'811243208.5
2016-Nov-29 01:33N 24°26' E 117°51'8801584569.3
2016-Nov-29 01:33N 38°43' E 121°45'52719147.5
2016-Nov-29 01:32N 29°57' E 122°15'612100114.4
2016-Nov-29 01:31N 39°56' E 119°42'93546091.2
2016-Nov-29 01:30N 24°26' E 117°53'25427657.7
2016-Nov-29 01:29N 23°01' E 113°32'66211862.0
2016-Nov-29 01:26N 31°24' E 121°36'94690.2
2016-Nov-29 01:18N 29°53' E 122°03'463623.7
2016-Nov-29 00:33N 37°36' E 121°25'810972382.0
2016-Nov-29 00:33N 24°26' E 117°53'405291905.9
2016-Nov-29 00:33N 29°58' E 122°15'527189683.3
2016-Nov-29 00:33N 38°44' E 121°47'881102341.8
2016-Nov-29 00:33N 24°26' E 117°51'25221115.4
2016-Nov-29 00:32N 23°02' E 113°31'10629514.3
2016-Nov-29 00:25N 39°56' E 119°42'6132792.1
2016-Nov-29 00:12N 29°54' E 122°03'616956.0
2016-Nov-28 23:33N 23°02' E 113°31'965868628.5
2016-Nov-28 23:33N 37°36' E 121°25'81137417.8
2016-Nov-28 23:32N 24°26' E 117°51'93573157.2
2016-Nov-28 23:31N 39°56' E 119°42'716297664.0
2016-Nov-28 23:27N 05°16' W 004°02'71631031473.4
2016-Nov-28 23:26N 24°26' E 117°53'3959870.2
2016-Nov-28 23:24N 29°54' E 121°59'462549.7
2016-Nov-28 22:33N 37°36' E 121°25'811224506.6
2016-Nov-28 22:33N 24°26' E 117°51'25250482.2
2016-Nov-28 22:33N 23°02' E 113°31'6272257105.4
2016-Nov-28 22:33N 29°58' E 122°15'61221168.0
2016-Nov-28 22:31N 39°56' E 119°42'52021045.4
2016-Nov-28 22:30N 31°24' E 121°36'462554770.0
2016-Nov-28 22:30N 24°26' E 117°53'3954168.1
2016-Nov-28 22:24N 29°54' E 121°59'395467.7
2016-Nov-28 21:33N 24°26' E 117°53'254305001.8
2016-Nov-28 21:33N 23°02' E 113°31'6271128594.6
2016-Nov-28 21:33N 29°58' E 122°15'460275931.5
2016-Nov-28 21:33N 37°36' E 121°25'72702180933.1
2016-Nov-28 21:33N 05°16' W 004°02'732526368870.1
2016-Nov-28 21:33N 31°24' E 121°36'46327328.0
2016-Nov-28 21:32N 24°26' E 117°51'93578260.7
2016-Nov-28 21:31N 39°56' E 119°42'61229795.1
2016-Nov-28 21:30N 29°54' E 121°59'462491.6
2016-Nov-28 20:34N 37°36' E 121°25'810243102.5
2016-Nov-28 20:33N 24°26' E 117°53'2257.2
2016-Nov-28 20:33N 24°26' E 117°51'25220193.0
2016-Nov-28 20:32N 23°02' E 113°31'106363755.9
2016-Nov-28 20:31N 39°56' E 119°42'611157240.3
2016-Nov-28 20:31N 29°58' E 122°15'932227.0
2016-Nov-28 20:28N 31°24' E 121°36'921239.3
2016-Nov-28 20:24N 29°54' E 121°59'462549.4
2016-Nov-28 19:33N 37°36' E 121°25'810416747.1
2016-Nov-28 19:33N 24°26' E 117°53'854128033.0
2016-Nov-28 19:33N 38°39' E 117°45'56720225.5
2016-Nov-28 19:31N 29°58' E 122°15'611440273.0
2016-Nov-28 19:31N 39°56' E 119°42'52056758.8
2016-Nov-28 19:31N 31°24' E 121°36'6627268.8
2016-Nov-28 19:25N 23°02' E 113°31'6145132.1
2016-Nov-28 19:18N 29°54' E 121°59'462618.8
2016-Nov-28 18:33N 37°36' E 121°25'810364651.1
2016-Nov-28 18:33N 24°26' E 117°53'462416067.7
2016-Nov-28 18:33N 31°24' E 121°36'934175.3
2016-Nov-28 18:32N 29°58' E 122°15'61188054.6
2016-Nov-28 18:31N 39°56' E 119°42'106360719.6
2016-Nov-28 18:30N 23°02' E 113°31'614276492.1
2016-Nov-28 18:30N 29°54' E 121°59'3969827.0
2016-Nov-28 18:28N 24°26' E 117°51'7161107864.0
2016-Nov-28 18:24N 05°16' W 004°02'71638578.3
2016-Nov-28 17:33N 24°26' E 117°53'2477.6
2016-Nov-28 17:33N 24°26' E 117°51'4061463349.1
2016-Nov-28 17:33N 29°58' E 122°15'460275931.5
2016-Nov-28 17:33N 37°36' E 121°25'462237803.5
2016-Nov-28 17:33N 29°54' E 121°59'61429481.0
2016-Nov-28 17:32N 23°01' E 113°32'1063100695.7
2016-Nov-28 17:31N 39°56' E 119°42'7162118814.8
2016-Nov-28 17:28N 05°16' W 004°02'72708013.2
2016-Nov-28 16:33N 37°36' E 121°25'462554881.9
2016-Nov-28 16:33N 29°54' E 121°59'395473762.3
2016-Nov-28 16:33N 24°26' E 117°53'40558384.7
2016-Nov-28 16:33N 29°58' E 122°15'62746046.5
2016-Nov-28 16:32N 23°01' E 113°32'1063109326.7
2016-Nov-28 16:31N 39°56' E 119°42'52028378.9
2016-Nov-28 16:30N 31°24' E 121°36'3858767.8
2016-Nov-28 16:27N 37°49' E 121°31'727322709.2
2016-Nov-28 16:08N 05°16' W 004°02'7347629731.8
2016-Nov-28 16:08N 29°60' E 121°49'463814.5
2016-Nov-28 15:33N 37°42' E 121°29'818245348.8
2016-Nov-28 15:33N 24°26' E 117°51'716025774788.9
2016-Nov-28 15:33N 05°17' W 004°01'72683737964.8
2016-Nov-28 15:33N 37°36' E 121°25'462554881.9
2016-Nov-28 15:33N 29°54' E 121°59'61222730.5
2016-Nov-28 15:31N 39°56' E 119°42'61153691.8
2016-Nov-28 15:31N 29°58' E 122°15'627205116.0
2016-Nov-28 15:31N 23°01' E 113°32'662170261.8
2016-Nov-28 15:30N 31°24' E 121°36'46210273.0
2016-Nov-28 15:28N 24°26' E 117°53'4604563.4
2016-Nov-28 15:22N 31°19' E 121°42'376468.7
2016-Nov-28 14:33N 37°35' E 121°25'11286.1
2016-Nov-28 14:33N 37°36' E 121°25'965347513.9
2016-Nov-28 14:33N 23°01' E 113°32'6621191832.4
2016-Nov-28 14:33N 31°24' E 121°36'4631666947.5
2016-Nov-28 14:33N 24°26' E 117°51'406243888.5
2016-Nov-28 14:33N 29°58' E 122°15'1412477.6
2016-Nov-28 14:33N 29°54' E 121°59'7356615878.2
2016-Nov-28 14:32N 05°17' W 004°01'7162415833.0
2016-Nov-28 14:31N 24°26' E 117°53'935560779.6
2016-Nov-28 14:31N 39°56' E 119°42'162168.4
2016-Nov-28 13:34N 37°36' E 121°25'014.4
2016-Nov-28 13:33N 37°36' E 121°25'9651158379.5
2016-Nov-28 13:33N 23°01' E 113°32'6271128138.2
2016-Nov-28 13:33N 29°58' E 122°15'40591226.1
2016-Nov-28 13:33N 24°26' E 117°53'46287588.9
2016-Nov-28 13:33N 31°24' E 121°36'52021045.3
2016-Nov-28 13:31N 39°56' E 119°42'61230622.7
2016-Nov-28 13:30N 29°54' E 121°59'91272.0
2016-Nov-28 13:10N 31°22' E 121°30'374617.7
2016-Nov-28 12:34N 37°36' E 121°25'0 7.8
2016-Nov-28 12:33N 37°36' E 121°25'460276293.2
2016-Nov-28 12:33N 29°57' E 122°16'147404.7
2016-Nov-28 12:33N 29°54' E 121°59'929767.9
2016-Nov-28 12:32N 31°24' E 121°36'4240.5
2016-Nov-28 12:31N 31°24' E 121°31'520234014.6
2016-Nov-28 12:31N 39°56' E 119°42'4749865.3
2016-Nov-28 12:28N 32°02' E 119°57'6406795.9
2016-Nov-28 12:23N 23°01' E 113°32'2546473.3
2016-Nov-28 12:20N 24°26' E 117°53'2491894.6
2016-Nov-28 12:12N 22°31' E 113°51'633974.7
2016-Nov-28 11:33N 29°52' E 122°17'466837919.5
2016-Nov-28 11:33N 37°36' E 121°25'043.1
2016-Nov-28 11:33N 37°36' E 121°25'37274323.4
2016-Nov-28 11:33N 31°24' E 121°36'86154956.5
2016-Nov-28 11:33N 31°58' E 120°03'6391150946.7
2016-Nov-28 11:33N 23°01' E 113°32'6142211059.1
2016-Nov-28 11:33N 29°54' E 121°59'39517547.0
2016-Nov-28 11:32N 24°26' E 117°53'7162678470.0
2016-Nov-28 11:31N 05°17' W 004°01'716075372.3
2016-Nov-28 11:25N 39°56' E 119°42'520601.7
2016-Nov-28 10:33N 31°24' E 121°36'372668910.6
2016-Nov-28 10:33N 37°36' E 121°25'965157955.5
2016-Nov-28 10:33N 23°01' E 113°32'6141105522.6
2016-Nov-28 10:33N 29°54' E 121°59'462554881.9
2016-Nov-28 10:33N 37°36' E 121°25'7268670917.7
2016-Nov-28 10:32N 05°17' W 004°01'7160396573.8
2016-Nov-28 10:31N 39°56' E 119°42'935280388.0
2016-Nov-28 10:31N 24°26' E 117°53'40231458.2
2016-Nov-28 10:30N 29°51' E 122°18'1651330.1
2016-Nov-28 10:23N 31°57' E 120°13'13308.3
2016-Nov-28 10:20N 32°01' E 119°58'342439.7
2016-Nov-28 09:34N 37°36' E 121°25'463277670.5
2016-Nov-28 09:33N 29°55' E 122°17'463833009.2
2016-Nov-28 09:33N 37°36' E 121°25'46272374.5
2016-Nov-28 09:33N 29°54' E 121°59'925930.5
2016-Nov-28 09:32N 31°24' E 121°36'462332858.1
2016-Nov-28 09:32N 24°26' E 117°53'21337.3
2016-Nov-28 09:32N 24°26' E 117°51'467105068.9
2016-Nov-28 09:32N 31°58' E 120°02'47861464.0
2016-Nov-28 09:31N 39°56' E 119°42'4781720972.5
2016-Nov-28 09:31N 31°59' E 120°20'14210685.5
2016-Nov-28 09:30N 29°58' E 121°48'7345979384.3
2016-Nov-28 09:30N 05°17' W 004°01'73237781.5
2016-Nov-28 08:33N 31°24' E 121°36'3721337838.5
2016-Nov-28 08:33N 37°36' E 121°25'086.3
2016-Nov-28 08:33N 37°36' E 121°25'380170834.4
2016-Nov-28 08:33N 31°16' E 121°45'459236003.8
2016-Nov-28 08:33N 24°26' E 117°53'395203041.0
2016-Nov-28 08:33N 29°54' E 121°59'63865.5
2016-Nov-28 08:33N 29°59' E 121°54'1831903.4
2016-Nov-28 08:33N 29°58' E 122°15'16072066.5
2016-Nov-28 08:33N 31°56' E 120°09'467167993.6
2016-Nov-28 08:33N 24°26' E 117°51'25220600.6
2016-Nov-28 08:32N 23°01' E 113°32'106398113.7
2016-Nov-28 08:31N 39°56' E 119°42'716012888548.7
2016-Nov-28 08:31N 05°17' W 004°01'729655296.4
2016-Nov-28 08:23N 31°42' E 121°09'469565.4
2016-Nov-28 07:33N 24°26' E 117°53'  
Track history (hours):
 
Tides and Currents Weather Stations Pressure Air Temp Water Temp Dewpoint Dewpoint Depression Visibility Wind Speed Wind Dir Waves Ship Positions

Graceful Lady

Last reported at 2016-Dec-08 07:33 UTC. Time now 2016-Dec-08 07:56 UTC.
Position N 37°38' E 121°25'.

Length 6 m.

Type: Pollution control. MMSI: 316014038.

Date/timePositionNaut miles runAvg speedWind from/ knotsBaromVisibWave heightAir tempDewpointWater temp
2016-Dec-08 07:33N 37°38' E 121°25'51414.5
2016-Dec-08 07:33N 37°33' E 121°23'1558.4
2016-Dec-08 07:33N 37°33' E 121°25'458329580.5
2016-Dec-08 07:33N 29°58' E 122°15'1220846.6
2016-Dec-08 07:33N 29°54' E 122°02'59039302.0
2016-Dec-08 07:32N 39°01' E 117°36'875262486.3
2016-Dec-08 07:32N 24°26' E 117°51'7162678519.4
2016-Dec-08 07:31N 05°18' W 004°04'7163132231.2
2016-Dec-08 07:28N 39°56' E 119°42'52219767.3
2016-Dec-08 07:26N 31°22' E 121°28'372421.5
2016-Dec-08 06:34N 37°33' E 121°23'72692907775.3
2016-Dec-08 06:33N 05°18' W 004°04'727026172883.3
2016-Dec-08 06:33N 37°38' E 121°25'413423.4
2016-Dec-08 06:33N 37°34' E 121°25'46044736.5
2016-Dec-08 06:33N 29°57' E 122°16'591193434.1
2016-Dec-08 06:33N 39°01' E 117°36'875165780.8
2016-Dec-08 06:32N 24°26' E 117°51'47448800.6
2016-Dec-08 06:32N 32°01' E 120°23'47471104.9
2016-Dec-08 06:31N 24°26' E 117°53'39618273.0
2016-Dec-08 06:30N 29°54' E 122°02'61319039.1
2016-Dec-08 06:28N 39°56' E 119°42'4747893.2
2016-Dec-08 06:24N 32°04' E 120°30'64635.5
2016-Dec-08 06:18N 31°21' E 121°26'66917323.1
2016-Dec-08 06:16N 22°28' E 113°51'635896.0
2016-Dec-08 05:34N 29°51' E 122°18'464185689.5
2016-Dec-08 05:33N 37°33' E 121°23'3801.9
2016-Dec-08 05:33N 37°36' E 121°25'4631667046.2
2016-Dec-08 05:33N 29°54' E 122°02'629251540.0
2016-Dec-08 05:33N 22°24' E 113°53'252151062.1
2016-Dec-08 05:33N 24°26' E 117°53'45671299.1
2016-Dec-08 05:33N 31°21' E 121°26'37812026.8
2016-Dec-08 05:31N 37°38' E 121°25'1603686.9
2016-Dec-08 05:28N 39°56' E 119°42'11111443.8
2016-Dec-08 05:27N 39°01' E 117°36'705750410.0
2016-Dec-08 05:19N 05°18' W 004°04'72699582.6
2016-Dec-08 04:34N 37°33' E 121°23'31374.7
2016-Dec-08 04:33N 37°36' E 121°25'810324171.9
2016-Dec-08 04:33N 24°26' E 117°53'39695019.7
2016-Dec-08 04:33N 29°54' E 122°02'46610745.8
2016-Dec-08 04:30N 37°38' E 121°25'46928143.1
2016-Dec-08 04:29N 29°51' E 122°18'73771562090.2
2016-Dec-08 04:29N 05°18' W 004°04'7057725903.7
2016-Dec-08 04:29N 39°01' E 117°36'11112137.4
2016-Dec-08 04:28N 39°56' E 119°42'5222105.7
2016-Dec-08 04:13N 31°21' E 121°26'64641.3
2016-Dec-08 04:07N 32°04' E 120°30'158281.8
2016-Dec-08 03:34N 29°56' E 122°17'464167086.2
2016-Dec-08 03:33N 37°38' E 121°25'19778971.6
2016-Dec-08 03:33N 39°01' E 117°36'199102100.4
2016-Dec-08 03:33N 37°36' E 121°25'8102917546.7
2016-Dec-08 03:33N 24°26' E 117°53'7164158225.7
2016-Dec-08 03:30N 05°18' W 004°04'7086418188.4
2016-Dec-08 03:29N 38°06' E 118°02'1355837.8
2016-Dec-08 03:28N 39°56' E 119°42'52248214.6
2016-Dec-08 03:27N 31°21' E 121°26'373415.6
2016-Dec-08 02:34N 37°33' E 121°23'34811.3
2016-Dec-08 02:33N 37°36' E 121°25'810194503.1
2016-Dec-08 02:33N 24°26' E 117°53'406145981.6
2016-Dec-08 02:33N 29°58' E 122°15'125977.0
2016-Dec-08 02:33N 29°54' E 122°02'590117903.6
2016-Dec-08 02:33N 39°01' E 117°36'49777764.5
2016-Dec-08 02:32N 31°21' E 121°26'7317642431.7
2016-Dec-08 02:32N 05°18' W 004°04'7162422684.1
2016-Dec-08 02:31N 24°26' E 117°51'813731910.4
2016-Dec-08 02:31N 37°38' E 121°25'33731117.8
2016-Dec-08 02:30N 32°04' E 120°30'47415498.3
2016-Dec-08 02:28N 39°56' E 119°42'164179.9
2016-Dec-08 01:34N 37°33' E 121°23'458274584.7
2016-Dec-08 01:33N 29°58' E 122°15'406162203.7
2016-Dec-08 01:33N 24°26' E 117°53'39671262.9
2016-Dec-08 01:33N 29°54' E 122°02'73625300280.8
2016-Dec-08 01:33N 05°18' W 004°04'7162444547.0
2016-Dec-08 01:32N 24°26' E 117°51'81432912.3
2016-Dec-08 01:30N 37°39' E 121°25'378340222.3
2016-Dec-08 01:30N 31°21' E 121°26'644298.7
2016-Dec-08 01:29N 32°04' E 120°30'47425445.3
2016-Dec-08 01:28N 39°56' E 119°42'88913619.7
2016-Dec-08 01:24N 25°07' E 119°09'8378078.7
2016-Dec-08 01:18N 39°01' E 117°36'527844.7
2016-Dec-08 01:18N 38°15' E 118°09'159215.2
2016-Dec-08 00:34N 37°33' E 121°23'458329844.3
2016-Dec-08 00:33N 29°57' E 122°15'467560442.4
2016-Dec-08 00:33N 37°42' E 121°19'83516.4
2016-Dec-08 00:33N 37°36' E 121°25'7270654344.6
2016-Dec-08 00:33N 05°18' W 004°04'73171197259.3
2016-Dec-08 00:32N 31°21' E 121°26'49724841.4
2016-Dec-08 00:31N 39°01' E 117°36'87524998.7
2016-Dec-08 00:29N 24°26' E 117°51'93562324.3
2016-Dec-08 00:28N 39°56' E 119°42'8896401.3
2016-Dec-08 00:20N 25°07' E 119°09'7913364.2
2016-Dec-08 00:06N 38°17' E 118°13'156292.2
2016-Dec-07 23:34N 37°33' E 121°23'463833564.5
2016-Dec-07 23:33N 29°52' E 122°17'475213568.0
2016-Dec-07 23:33N 37°44' E 121°12'816419688.1
2016-Dec-07 23:33N 24°26' E 117°53'810291754.7
2016-Dec-07 23:33N 37°36' E 121°25'81131724.0
2016-Dec-07 23:32N 24°26' E 117°51'39614998.9
2016-Dec-07 23:30N 29°54' E 121°59'58818905.5
2016-Dec-07 23:28N 39°01' E 117°36'11180108.8
2016-Dec-07 23:28N 39°56' E 119°42'12128966.1
2016-Dec-07 23:28N 38°17' E 118°13'709540413.0
2016-Dec-07 23:17N 05°18' W 004°04'731799395.1
2016-Dec-07 23:13N 31°21' E 121°26'373568.8
2016-Dec-07 22:34N 37°33' E 121°23'464208902.4
2016-Dec-07 22:33N 29°51' E 122°18'403145090.8
2016-Dec-07 22:33N 24°26' E 117°51'811224508.3
2016-Dec-07 22:33N 37°36' E 121°25'810583509.3
2016-Dec-07 22:33N 24°26' E 117°53'875225021.0
2016-Dec-07 22:33N 39°01' E 117°36'1111415.3
2016-Dec-07 22:28N 39°56' E 119°42'5228001.6
2016-Dec-07 22:24N 31°21' E 121°26'373442.5
2016-Dec-07 21:34N 37°33' E 121°23'464238748.7
2016-Dec-07 21:33N 29°51' E 122°18'403131899.2
2016-Dec-07 21:33N 24°26' E 117°51'2372.0
2016-Dec-07 21:33N 24°26' E 117°53'810486254.3
2016-Dec-07 21:33N 37°36' E 121°25'72702617379.2
2016-Dec-07 21:33N 05°18' W 004°04'70952128414.5
2016-Dec-07 21:32N 38°17' E 118°13'4458130.0
2016-Dec-07 21:29N 31°21' E 121°26'52226862.4
2016-Dec-07 21:28N 39°56' E 119°42'1112743.4
2016-Dec-07 21:26N 39°01' E 117°36'1839391.9
2016-Dec-07 21:24N 37°43' E 121°07'1619.1
2016-Dec-07 20:34N 37°33' E 121°23'31374.7
2016-Dec-07 20:33N 37°36' E 121°25'810265229.6
2016-Dec-07 20:33N 24°26' E 117°53'40285136.7
2016-Dec-07 20:33N 29°51' E 122°18'403725445.5
2016-Dec-07 20:33N 24°26' E 117°51'831106831.6
2016-Dec-07 20:32N 38°17' E 118°13'1414490.4
2016-Dec-07 20:31N 37°43' E 121°07'1493479.5
2016-Dec-07 20:28N 39°56' E 119°42'716329468.7
2016-Dec-07 20:13N 05°18' W 004°04'7317120824.3
2016-Dec-07 20:10N 31°21' E 121°26'49727946.9
2016-Dec-07 20:09N 39°01' E 117°36'199338.4
2016-Dec-07 19:34N 37°33' E 121°23'3874.8
2016-Dec-07 19:33N 37°36' E 121°25'810729381.4
2016-Dec-07 19:33N 24°26' E 117°53'456234265.8
2016-Dec-07 19:33N 31°21' E 121°26'445801015.0
2016-Dec-07 19:33N 38°18' E 118°16'70976387181.0
2016-Dec-07 19:33N 05°18' W 004°04'7377577294.5
2016-Dec-07 19:32N 29°51' E 122°18'40360453.8
2016-Dec-07 19:32N 24°26' E 117°51'87569996.3
2016-Dec-07 19:31N 39°01' E 117°36'18320544.8
2016-Dec-07 19:31N 37°43' E 121°07'99337223.4
2016-Dec-07 19:29N 22°24' E 113°53'62518588.7
2016-Dec-07 19:27N 29°28' E 122°23'6427753.2
2016-Dec-07 19:22N 39°56' E 119°42'164202.4
2016-Dec-07 18:34N 37°33' E 121°23'464208905.1
2016-Dec-07 18:33N 29°51' E 122°18'467112079.5
2016-Dec-07 18:33N 37°36' E 121°26'72711189873.5
2016-Dec-07 18:33N 05°18' W 004°04'71641983906.0
2016-Dec-07 18:33N 24°26' E 117°53'45652898.1
2016-Dec-07 18:32N 31°21' E 121°26'38315835.1
2016-Dec-07 18:31N 37°43' E 121°07'1319258.1
2016-Dec-07 18:30N 38°21' E 118°28'1113791.3
2016-Dec-07 18:28N 39°56' E 119°42'10888533.2
2016-Dec-07 18:20N 22°30' E 113°51'6317307.3
2016-Dec-07 18:15N 29°38' E 122°28'1181568.9
2016-Dec-07 18:11N 31°25' E 121°32'368594.7
2016-Dec-07 17:34N 37°33' E 121°23'199357399.5
2016-Dec-07 17:33N 39°01' E 117°36'183109572.4
2016-Dec-07 17:33N 37°43' E 121°07'47299956.2
2016-Dec-07 17:33N 29°55' E 122°20'406121812.6
2016-Dec-07 17:33N 24°26' E 117°53'816146874.6
2016-Dec-07 17:33N 37°43' E 121°18'48382737.2
2016-Dec-07 17:32N 29°44' E 122°30'1112081.6
2016-Dec-07 17:29N 31°22' E 121°30'52229813.2
2016-Dec-07 17:28N 39°56' E 119°42'5221880370.3
2016-Dec-07 17:28N 31°21' E 121°26'4468442.3
2016-Dec-07 17:25N 38°25' E 118°40'53737171.0
2016-Dec-07 17:24N 29°54' E 121°59'460547.7
2016-Dec-07 16:34N 37°33' E 121°23'461110566.8
2016-Dec-07 16:33N 29°55' E 122°20'406730884.3
2016-Dec-07 16:33N 24°26' E 117°53'41174028.1
2016-Dec-07 16:33N 29°53' E 122°32'47558966.3
2016-Dec-07 16:32N 37°43' E 121°07'149858.7
2016-Dec-07 16:22N 39°56' E 119°42'1111395.6
2016-Dec-07 16:17N 39°01' E 117°36'59251975.3
2016-Dec-07 16:17N 29°56' E 122°17'1272837.7
2016-Dec-07 16:14N 31°45' E 121°02'32227.7
2016-Dec-07 16:05N 31°21' E 121°26'98184.0
2016-Dec-07 15:34N 29°55' E 122°20'406730884.3
2016-Dec-07 15:34N 24°26' E 117°53'4701691412.6
2016-Dec-07 15:34N 31°44' E 121°06'126151132.2
2016-Dec-07 15:34N 30°03' E 122°34'468336833.0
2016-Dec-07 15:33N 37°45' E 121°09'1835979.4
2016-Dec-07 15:32N 39°01' E 117°36'596357778.9
2016-Dec-07 15:31N 29°53' E 122°21'1001041.7
2016-Dec-07 15:26N 31°21' E 121°26'5228357.2
2016-Dec-07 15:22N 39°56' E 119°42'6133980.3
2016-Dec-07 15:13N 29°54' E 121°59'460703.6
2016-Dec-07 14:34N 37°33' E 121°23'35352944.6
2016-Dec-07 14:33N 31°40' E 121°12'120216871.8
2016-Dec-07 14:33N 29°55' E 122°20'476171436.3
2016-Dec-07 14:33N 37°47' E 121°07'18159231.5
2016-Dec-07 14:33N 39°01' E 117°36'605136024.0
2016-Dec-07 14:32N 29°45' E 122°25'40142443.3
2016-Dec-07 14:32N 24°26' E 117°53'1013462.4
2016-Dec-07 14:30N 23°07' E 116°43'102028466.8
2016-Dec-07 14:28N 39°56' E 119°42'522125359.4
2016-Dec-07 14:28N 31°21' E 121°26'91560.1
2016-Dec-07 14:18N 29°54' E 121°59'486656.1
2016-Dec-07 13:34N 23°14' E 116°52'8913207091.2
2016-Dec-07 13:34N 37°33' E 121°23'461110686.7
2016-Dec-07 13:33N 29°54' E 122°18'9811707.8
2016-Dec-07 13:33N 31°21' E 121°26'16774.7
2016-Dec-07 13:31N 31°36' E 121°18'37237170.5
2016-Dec-07 13:31N 37°47' E 121°07'475285107.5
2016-Dec-07 13:31N 29°54' E 121°59'395118463.3
2016-Dec-07 13:31N 24°26' E 117°53'9356509.2
2016-Dec-07 13:22N 39°56' E 119°42'164202.4
2016-Dec-07 12:34N 37°33' E 121°23'36231815.3
2016-Dec-07 12:33N 31°31' E 121°24'37711895.1
2016-Dec-07 12:31N 37°47' E 121°07'81915429.3
2016-Dec-07 12:28N 24°26' E 117°53'808893.7
2016-Dec-07 11:34N 37°33' E 121°23'19202.1
2016-Dec-07 11:28N 37°47' E 121°07'8195678.2
2016-Dec-07 11:19N 24°26' E 117°53'71641611924.1
2016-Dec-07 11:19N 05°18' W 004°04'732461602.1
2016-Dec-07 11:12N 31°24' E 121°34'9810992.4
2016-Dec-07 11:11N 29°53' E 122°17'31317589.2
2016-Dec-07 11:10N 25°22' E 119°22'875185216.0
2016-Dec-07 11:10N 39°56' E 119°42'164269.1
2016-Dec-07 10:34N 37°33' E 121°23'458329501.7
2016-Dec-07 10:33N 29°58' E 122°15'936218.8
2016-Dec-07 10:33N 31°21' E 121°26'132943.5
2016-Dec-07 10:32N 31°20' E 121°41'73313770153.4
2016-Dec-07 10:32N 05°18' W 004°04'7164179102.7
2016-Dec-07 10:30N 24°26' E 117°53'943850.0
2016-Dec-07 10:28N 25°22' E 119°16'874196667.2
2016-Dec-07 10:28N 39°56' E 119°42'52214686.3
2016-Dec-07 10:26N 31°22' E 121°35'6746908.7
2016-Dec-07 10:20N 22°31' E 113°51'9871273.9
2016-Dec-07 09:34N 37°35' E 121°27'811162168.6
2016-Dec-07 09:33N 24°26' E 117°51'406133025.4
2016-Dec-07 09:33N 29°58' E 122°15'9311147.5
2016-Dec-07 09:33N 31°24' E 121°34'46142582.1
2016-Dec-07 09:32N 24°26' E 117°53'7164277320.2
2016-Dec-07 09:30N 05°18' W 004°04'73262930231.2
2016-Dec-07 09:30N 31°22' E 121°35'5223805.4
2016-Dec-07 09:22N 39°56' E 119°42'5222332.3
2016-Dec-07 09:09N 31°21' E 121°26'382653.9
2016-Dec-07 08:34N 37°43' E 121°30'37690228.0
2016-Dec-07 08:33N 31°27' E 121°28'507140524.2
2016-Dec-07 08:33N 23°42' E 117°38'45163481.5
2016-Dec-07 08:33N 24°26' E 117°51'406243774.7
2016-Dec-07 08:33N 29°58' E 122°15'40623226.4
2016-Dec-07 08:32N 24°26' E 117°51'46183054.4
2016-Dec-07 08:32N 31°22' E 121°35'498112102.3
2016-Dec-07 08:31N 39°01' E 117°36'7057373624.4
2016-Dec-07 08:30N 05°18' W 004°04'7336480154.1
2016-Dec-07 08:29N 31°16' E 121°45'53026508.8
2016-Dec-07 08:28N 39°56' E 119°42'522208866.8
2016-Dec-07 08:28N 31°21' E 121°26'389429.7
2016-Dec-07 07:34N 37°50' E 121°32'827496137.5
2016-Dec-07 07:33N 24°24' E 117°57'405485735.1
2016-Dec-07 07:33N 29°57' E 122°16'4531629459.5
2016-Dec-07 07:33N 23°41' E 117°33'71511029710.3
2016-Dec-07 07:33N 05°18' W 004°04'716212891868.2
2016-Dec-07 07:33N 24°26' E 117°51'4639260.1
2016-Dec-07 07:30N 31°24' E 121°37'5910.5
2016-Dec-07 07:30N 31°20' E 121°41'502139132.8
2016-Dec-07 07:29N 39°01' E 117°36'1114886.7
2016-Dec-07 07:28N 39°56' E 119°42'52226854.3
2016-Dec-07 07:27N 31°21' E 121°26'3874718.9
2016-Dec-07 07:22N 37°47' E 121°07'180223.1
2016-Dec-07 06:33N 39°01' E 117°38'8771052817.9
2016-Dec-07 06:33N 24°24' E 117°57'4479071.5
2016-Dec-07 06:33N 23°45' E 117°35'863517807.1
2016-Dec-07 06:33N 37°49' E 121°06'48186545.3
2016-Dec-07 06:33N 29°52' E 122°17'73751896526.8
2016-Dec-07 06:33N 05°18' W 004°04'7329538423.8
2016-Dec-07 06:32N 31°22' E 121°39'119743.6
2016-Dec-07 06:32N 31°21' E 121°26'934016.8
2016-Dec-07 06:32N 31°24' E 121°37'47824597.5
2016-Dec-07 06:31N 24°03' E 118°05'261663.3
2016-Dec-07 06:30N 24°26' E 117°51'3964626.4
2016-Dec-07 06:25N 29°54' E 121°59'61314412.4
2016-Dec-07 06:22N 39°56' E 119°42'96424276.7
2016-Dec-07 06:20N 23°56' E 117°52'2836.6
2016-Dec-07 05:33N 24°24' E 117°57'4439550.1
2016-Dec-07 05:33N 23°45' E 117°35'915411677.4
2016-Dec-07 05:33N 38°60' E 117°40'495148398.7
2016-Dec-07 05:33N 31°24' E 121°34'482157867.3
2016-Dec-07 05:33N 24°01' E 117°57'265451.0
2016-Dec-07 05:33N 24°26' E 117°51'45731611.4
2016-Dec-07 05:32N 31°21' E 121°26'111391.8
2016-Dec-07 05:31N 31°22' E 121°39'7329479686.8
2016-Dec-07 05:30N 05°18' W 004°04'73771770370.5
2016-Dec-07 05:30N 29°51' E 122°18'993237.7
2016-Dec-07 05:28N 31°24' E 121°37'921639.6
2016-Dec-07 05:25N 29°54' E 121°59'61312672.9
2016-Dec-07 05:22N 39°56' E 119°42'9361156.5
2016-Dec-07 04:33N 24°24' E 117°58'1865542.0
2016-Dec-07 04:33N 24°07' E 118°04'4151493170.3
2016-Dec-07 04:33N 29°55' E 122°17'106380079.4
2016-Dec-07 04:33N 31°30' E 121°23'135970.0
2016-Dec-07 04:33N 31°24' E 121°37'73273296981.4
2016-Dec-07 04:33N 05°18' W 004°04'715125744989.1
2016-Dec-07 04:33N 23°45' E 117°35'50656920.9
2016-Dec-07 04:33N 31°22' E 121°39'67778609.7
2016-Dec-07 04:32N 22°29' E 113°51'1009363368.7
2016-Dec-07 04:32N 38°59' E 117°40'1101694.3
2016-Dec-07 04:28N 39°56' E 119°42'5221438.3
2016-Dec-07 04:06N 31°21' E 121°26'2037.3
2016-Dec-07 03:34N 31°38' E 121°14'465209200.6
2016-Dec-07 03:33N 24°25' E 118°04'135003.2
2016-Dec-07 03:33N 24°26' E 117°51'463138897.0
2016-Dec-07 03:33N 31°24' E 121°37'467841010.5
2016-Dec-07 03:33N 24°14' E 118°09'885167750.7
2016-Dec-07 03:33N 38°59' E 117°40'49748312.0
2016-Dec-07 03:32N 31°22' E 121°39'506910822.5
2016-Dec-07 03:32N 23°45' E 117°35'861387522.2
2016-Dec-07 03:32N 37°46' E 121°09'47256618.3
2016-Dec-07 03:31N 29°58' E 122°15'10742640.4
2016-Dec-07 03:31N 31°33' E 121°19'13387.3
2016-Dec-07 03:29N 31°21' E 121°26'52226476.4
2016-Dec-07 03:28N 39°56' E 119°42'7163548618.6
2016-Dec-07 03:27N 05°18' W 004°04'71517987.9
2016-Dec-07 02:34N 23°45' E 117°35'48172111.3
2016-Dec-07 02:33N 24°22' E 118°08'467560025.5
2016-Dec-07 02:33N 31°38' E 121°17'467840731.2
2016-Dec-07 02:33N 24°21' E 118°09'40153486.8
2016-Dec-07 02:33N 29°58' E 122°15'9282815.1
2016-Dec-07 02:33N 31°24' E 121°37'365930.7
2016-Dec-07 02:33N 31°46' E 121°03'464167001.2
2016-Dec-07 02:32N 38°59' E 117°40'70611694608.0
2016-Dec-07 02:32N 05°18' W 004°04'7317487807.4
2016-Dec-07 02:31N 31°21' E 121°26'38268830.1
2016-Dec-07 02:31N 37°43' E 121°04'1483043.3
2016-Dec-07 02:28N 39°56' E 119°42'93578267.7
2016-Dec-07 02:27N 24°26' E 117°51'4348.4
2016-Dec-07 01:33N 23°45' E 117°35'449807531.0
2016-Dec-07 01:33N 29°58' E 122°15'4011444990.4
2016-Dec-07 01:33N 24°25' E 118°02'128649.4
2016-Dec-07 01:33N 24°15' E 118°09'46639944.7
2016-Dec-07 01:33N 31°23' E 121°39'2234.8
2016-Dec-07 01:32N 31°24' E 121°37'495104803.8
2016-Dec-07 01:32N 38°59' E 117°40'49417966.8
2016-Dec-07 01:30N 31°21' E 121°26'52214460.2
2016-Dec-07 01:28N 39°56' E 119°42'935140229.6
2016-Dec-07 01:28N 24°26' E 117°51'1111.7
2016-Dec-07 00:33N 24°25' E 118°02'459110221.1
2016-Dec-07 00:33N 31°23' E 121°39'9222015.4
2016-Dec-07 00:33N 29°57' E 122°16'414186395.4
2016-Dec-07 00:33N 24°10' E 118°02'46739136.1
2016-Dec-07 00:32N 31°21' E 121°26'50078250.0
2016-Dec-07 00:32N 23°45' E 117°35'51618199.4
2016-Dec-07 00:30N 31°47' E 121°03'41662474.2
2016-Dec-07 00:30N 38°42' E 121°47'728326217021.4
2016-Dec-07 00:30N 05°18' W 004°04'7163260455.3
2016-Dec-07 00:28N 39°56' E 119°42'9355481.3
2016-Dec-07 00:18N 24°26' E 117°51'1114.4
2016-Dec-06 23:34N 24°25' E 118°02'46999219.7
2016-Dec-06 23:33N 31°44' E 121°07'3562400.8
2016-Dec-06 23:33N 31°23' E 121°39'9726832.3
2016-Dec-06 23:33N 29°51' E 122°17'73761397475.4
2016-Dec-06 23:33N 05°18' W 004°04'71724303104.5
2016-Dec-06 23:33N 24°03' E 117°58'896100793.5
2016-Dec-06 23:32N 38°59' E 117°40'91476527.8
2016-Dec-06 23:31N 23°45' E 117°35'500112484.4
2016-Dec-06 23:31N 31°21' E 121°26'457205474.3
2016-Dec-06 23:31N 24°26' E 117°51'93519014.2
2016-Dec-06 23:28N 39°56' E 119°42'120942.8
2016-Dec-06 23:20N 38°50' E 121°51'4141507.8
2016-Dec-06 23:04N 32°01' E 120°33'475938.6
2016-Dec-06 22:33N 24°25' E 118°02'874149876.5
2016-Dec-06 22:33N 38°59' E 117°40'9141645347.9
2016-Dec-06 22:33N 23°45' E 117°35'2112718.3
2016-Dec-06 22:33N 23°58' E 117°53'425139017.6
2016-Dec-06 22:33N 29°51' E 122°18'9721911.0
2016-Dec-06 22:33N 31°23' E 121°39'10223.5
2016-Dec-06 22:30N 31°21' E 121°27'235230.9
2016-Dec-06 22:30N 31°41' E 121°12'50118034.5
2016-Dec-06 22:28N 39°56' E 119°42'93516258.5
2016-Dec-06 22:25N 24°26' E 117°51'47514024.5
2016-Dec-06 22:23N 32°01' E 120°25'34345729.5
2016-Dec-06 22:22N 37°43' E 121°04'725140786.4
2016-Dec-06 22:11N 05°18' W 004°04'717311356.1
2016-Dec-06 21:34N 24°25' E 118°02'4728327.8
2016-Dec-06 21:33N 23°45' E 117°35'511204539.5
2016-Dec-06 21:33N 31°37' E 121°16'4681684681.5
2016-Dec-06 21:33N 24°26' E 117°51'716212891870.1
2016-Dec-06 21:33N 05°18' W 004°04'72474348388.8
2016-Dec-06 21:33N 31°56' E 120°15'7920204.8
2016-Dec-06 21:33N 31°23' E 121°39'493147944.2
2016-Dec-06 21:33N 23°54' E 117°47'90595835.0
2016-Dec-06 21:32N 38°59' E 117°40'1101611.5
2016-Dec-06 21:28N 39°56' E 119°42'1481504.7
2016-Dec-06 21:22N 37°43' E 121°04'8131003.1
2016-Dec-06 20:34N 24°25' E 118°02'4733975.1
2016-Dec-06 20:33N 23°45' E 117°35'505363285.6
2016-Dec-06 20:33N 31°24' E 121°31'101121537.7
2016-Dec-06 20:33N 29°51' E 122°18'4371574742.2
2016-Dec-06 20:33N 23°50' E 117°41'9091635822.4
2016-Dec-06 20:33N 38°59' E 117°40'8731571749.4
2016-Dec-06 20:33N 24°26' E 117°51'46341652.3
2016-Dec-06 20:33N 31°23' E 121°39'1922742.6
2016-Dec-06 20:32N 31°33' E 121°20'73101754450.8
2016-Dec-06 20:32N 05°18' W 004°04'7163101117.9
2016-Dec-06 20:28N 39°56' E 119°42'1481521.9
2016-Dec-06 20:22N 37°43' E 121°04'813448.9
2016-Dec-06 18:34N 24°25' E 118°02'402241150.3
2016-Dec-06 18:33N 29°55' E 122°20'737813280255.2
2016-Dec-06 18:33N 05°18' W 004°04'71515149001.0
2016-Dec-06 18:33N 23°45' E 117°35'4351979.6
2016-Dec-06 18:33N 24°26' E 117°51'463833026.2
2016-Dec-06 18:33N 31°23' E 121°39'50658736.9
2016-Dec-06 18:33N 23°45' E 117°35'49542415.6
2016-Dec-06 18:32N 31°14' E 121°29'11840.8
2016-Dec-06 18:31N 31°25' E 121°30'285.1
2016-Dec-06 18:30N 31°27' E 121°29'48920003.8
2016-Dec-06 18:28N 38°59' E 117°40'11039469.7
2016-Dec-06 18:28N 39°56' E 119°42'148740.9
2016-Dec-06 18:16N 37°43' E 121°04'8131147.1
2016-Dec-06 17:34N 24°25' E 118°02'402111293.3
2016-Dec-06 17:33N 29°55' E 122°20'9513610.1
2016-Dec-06 17:33N 31°23' E 121°39'623042.8
2016-Dec-06 17:33N 31°25' E 121°32'49210420.1
2016-Dec-06 17:30N 38°59' E 117°40'1775496.8
2016-Dec-06 17:28N 37°43' E 121°04'148106535.9
2016-Dec-06 17:28N 39°56' E 119°42'5243585.6
2016-Dec-06 17:19N 31°21' E 121°39'6310.3
2016-Dec-06 17:18N 31°16' E 121°34'4444827.3
2016-Dec-06 17:12N 38°18' E 118°47'98919040.2
2016-Dec-06 17:09N 22°23' E 113°52'260435.1
2016-Dec-06 16:34N 24°25' E 118°02'455819404.0
2016-Dec-06 16:33N 31°21' E 121°31'502602140.3
2016-Dec-06 16:33N 23°45' E 117°35'857514088.9
2016-Dec-06 16:33N 37°43' E 121°04'177317771.8
2016-Dec-06 16:33N 38°59' E 117°41'59154526.2
2016-Dec-06 16:33N 29°55' E 122°20'64059040.8
2016-Dec-06 16:32N 22°26' E 113°53'67769634.1
2016-Dec-06 16:31N 31°34' E 121°18'215741.3
2016-Dec-06 16:31N 31°22' E 121°39'50625290.9
2016-Dec-06 16:30N 23°45' E 117°35'5014453.1
2016-Dec-06 16:23N 31°19' E 121°33'45871673.1
2016-Dec-06 16:23N 24°26' E 117°51'9358168.7
2016-Dec-06 16:16N 39°56' E 119°42'9351319.4
2016-Dec-06 15:33N 24°25' E 118°02'455148961.4
2016-Dec-06 15:33N 31°21' E 121°31'383275451.6
2016-Dec-06 15:33N 37°43' E 121°04'38234336.0
2016-Dec-06 15:33N 31°22' E 121°39'9422679.4
2016-Dec-06 15:32N 29°55' E 122°20'590354130.3
2016-Dec-06 15:32N 38°59' E 117°43'1009117157.1
2016-Dec-06 15:32N 22°30' E 113°51'976292914.7
2016-Dec-06 15:31N 38°18' E 118°24'43471089.5
2016-Dec-06 15:31N 31°30' E 121°24'142114.6
2016-Dec-06 15:31N 31°40' E 121°12'50212129.1
2016-Dec-06 15:28N 39°56' E 119°42'9777207.2
2016-Dec-06 15:20N 23°45' E 117°35'4961851.3
2016-Dec-06 15:04N 31°15' E 121°31'450883.0
2016-Dec-06 14:33N 24°25' E 118°02'817735696.6
2016-Dec-06 14:33N 37°47' E 121°09'8611033748.5
2016-Dec-06 14:33N 23°45' E 117°35'506227708.0
2016-Dec-06 14:33N 31°22' E 121°39'73938.7
2016-Dec-06 14:33N 31°24' E 121°31'163957.3
2016-Dec-06 14:33N 31°35' E 121°17'1148364.9
2016-Dec-06 14:32N 29°55' E 122°20'59040083.3
2016-Dec-06 14:31N 38°59' E 117°43'91434272.5
2016-Dec-06 14:30N 23°45' E 117°35'97737013.9
2016-Dec-06 14:28N 39°56' E 119°42'49610317.0
2016-Dec-06 14:25N 31°45' E 121°05'7294332398.0
2016-Dec-06 14:24N 05°18' W 004°04'709022849.9
2016-Dec-06 14:05N 38°14' E 118°08'8291569.6
2016-Dec-06 13:33N 24°25' E 118°02'4718785.7
2016-Dec-06 13:33N 23°45' E 117°35'506121400.8
2016-Dec-06 13:33N 31°27' E 121°28'10261220.8
2016-Dec-06 13:33N 29°55' E 122°20'73782043116.1
2016-Dec-06 13:33N 05°18' W 004°04'70705090536.6
2016-Dec-06 13:33N 38°58' E 117°51'495635.1
2016-Dec-06 13:32N 38°11' E 118°05'42211966.7
2016-Dec-06 13:30N 31°38' E 121°14'263266.4
2016-Dec-06 13:30N 31°22' E 121°39'5224160.3
2016-Dec-06 13:22N 39°56' E 119°42'9351155.3
2016-Dec-06 12:33N 24°25' E 118°02'4721239.0
2016-Dec-06 12:33N 23°45' E 117°35'449538837.3
2016-Dec-06 12:33N 29°55' E 122°20'9524373.8
2016-Dec-06 12:33N 31°22' E 121°37'259111.1
2016-Dec-06 12:33N 31°38' E 121°14'121838.3
2016-Dec-06 12:32N 31°29' E 121°24'73142393692.3
2016-Dec-06 12:32N 05°18' W 004°04'715125744733.1
2016-Dec-06 12:32N 23°45' E 117°35'506364203.6
2016-Dec-06 12:32N 31°23' E 121°39'5227491.8
2016-Dec-06 12:28N 39°56' E 119°42'1011373.0
2016-Dec-06 12:24N 38°56' E 117°57'8711042.1
2016-Dec-06 11:33N 24°25' E 118°02'4718789.7
2016-Dec-06 11:33N 23°45' E 117°35'4491615514.4
2016-Dec-06 11:33N 29°55' E 122°20'1105636.2
2016-Dec-06 11:32N 31°32' E 121°21'183807.0
2016-Dec-06 11:32N 31°23' E 121°39'266763.3
2016-Dec-06 11:32N 31°38' E 121°14'5048239.5
2016-Dec-06 11:28N 39°56' E 119°42'716324008.4
2016-Dec-06 11:10N 05°18' W 004°04'717311770.1
2016-Dec-06 10:34N 24°25' E 118°02'397286065.0
2016-Dec-06 10:33N 29°54' E 122°13'110132357.8
2016-Dec-06 10:33N 31°34' E 121°18'509916232.3
2016-Dec-06 10:33N 23°45' E 117°35'43782865.6
2016-Dec-06 10:33N 29°54' E 121°58'9011612.0
2016-Dec-06 10:33N 31°23' E 121°39'262424.1
2016-Dec-06 10:32N 31°38' E 121°14'51120003.5
2016-Dec-06 10:30N 23°45' E 117°35'97724762.9
2016-Dec-06 10:28N 39°56' E 119°42'7163103554.6
2016-Dec-06 10:24N 05°18' W 004°04'71728546.9
2016-Dec-06 09:34N 24°27' E 118°01'102065.2
2016-Dec-06 09:33N 24°26' E 117°51'400720709.8
2016-Dec-06 09:33N 29°53' E 122°10'62435.6
2016-Dec-06 09:33N 29°53' E 122°03'73621766887.4
2016-Dec-06 09:33N 05°18' W 004°04'7304973821.3
2016-Dec-06 09:32N 31°38' E 121°14'2694538.3
2016-Dec-06 09:32N 31°23' E 121°39'50633119.7
2016-Dec-06 09:31N 23°45' E 117°35'97717240.7
2016-Dec-06 09:28N 39°56' E 119°42'50611685.8
2016-Dec-06 09:25N 31°36' E 121°17'51067989.9
2016-Dec-06 09:25N 23°45' E 117°35'9353239.3
2016-Dec-06 09:08N 38°53' E 121°55'436766.4
2016-Dec-06 08:33N 31°38' E 121°14'511460223.6
2016-Dec-06 08:33N 23°45' E 117°35'443318724.8
2016-Dec-06 08:33N 29°53' E 122°10'3951420363.6
2016-Dec-06 08:33N 24°27' E 118°01'101462.8
2016-Dec-06 08:33N 24°26' E 117°51'71623222967.3
2016-Dec-06 08:33N 05°18' W 004°04'7328851050.2
2016-Dec-06 08:32N 31°23' E 121°39'249476.3
2016-Dec-06 08:32N 31°36' E 121°16'1113085.8
2016-Dec-06 08:30N 29°53' E 122°03'61418883.6
2016-Dec-06 08:28N 39°56' E 119°42'101434.5
2016-Dec-06 08:14N 38°56' E 117°57'707610461.9
2016-Dec-06 07:34N 05°18' W 004°04'717612917421.5
2016-Dec-06 07:33N 24°24' E 118°05'4824767.7
2016-Dec-06 07:33N 23°45' E 117°35'4319487.2
2016-Dec-06 07:33N 24°26' E 117°51'39789319.5
2016-Dec-06 07:33N 29°53' E 122°03'439790269.7
2016-Dec-06 07:33N 23°45' E 117°35'44279644.8
2016-Dec-06 07:33N 29°53' E 122°10'11519768.2
2016-Dec-06 07:32N 31°38' E 121°14'157.7
2016-Dec-06 07:31N 31°37' E 121°15'42595566.4
2016-Dec-06 07:31N 38°41' E 121°52'43915187.5
2016-Dec-06 07:29N 31°23' E 121°39'52232988.5
2016-Dec-06 07:28N 39°56' E 119°42'51128282.0
2016-Dec-06 07:27N 31°32' E 121°20'73108213.1
2016-Dec-06 06:33N 05°18' W 004°04'731013157419.8
2016-Dec-06 06:33N 31°32' E 121°20'507456559.6
2016-Dec-06 06:33N 23°45' E 117°35'4842883.4
2016-Dec-06 06:33N 24°22' E 118°07'394473184.5
2016-Dec-06 06:33N 29°52' E 122°10'61588.3
2016-Dec-06 06:33N 29°53' E 122°03'439263410.9
2016-Dec-06 06:33N 23°45' E 117°35'506910331.7
2016-Dec-06 06:33N 31°23' E 121°39'271658.4
2016-Dec-06 06:32N 31°39' E 121°13'468843169.6
2016-Dec-06 06:32N 24°26' E 117°51'47060400.7
2016-Dec-06 06:31N 31°41' E 121°13'5018797.4
2016-Dec-06 06:28N 39°56' E 119°42'129578.5
2016-Dec-06 06:15N 38°32' E 121°47'10458196.1
2016-Dec-06 06:07N 22°31' E 113°51'260465.2
2016-Dec-06 05:33N 24°22' E 118°07'8721569174.3
2016-Dec-06 05:33N 38°54' E 117°58'9091091147.4
2016-Dec-06 05:33N 23°45' E 117°35'0907.4
2016-Dec-06 05:33N 23°45' E 117°35'71518581506.1
2016-Dec-06 05:33N 05°18' W 004°04'73104385846.8
2016-Dec-06 05:33N 31°32' E 121°20'10547230.3
2016-Dec-06 05:33N 29°53' E 122°03'118105862.6
2016-Dec-06 05:33N 31°42' E 121°09'3214269.6
2016-Dec-06 05:33N 31°23' E 121°39'9233088.9
2016-Dec-06 05:33N 29°56' E 122°16'63899810.7
2016-Dec-06 05:32N 22°27' E 113°53'678116308.0
2016-Dec-06 05:32N 31°41' E 121°13'5017514.5
2016-Dec-06 05:28N 39°56' E 119°42'101293.0
2016-Dec-06 05:07N 38°56' E 117°57'8731547.2
2016-Dec-06 04:34N 24°22' E 118°07'401288773.1
2016-Dec-06 04:33N 29°58' E 122°15'448146757.6
2016-Dec-06 04:33N 23°45' E 117°35'5071825627.7
2016-Dec-06 04:33N 31°32' E 121°20'189309.9
2016-Dec-06 04:33N 31°45' E 121°05'827535.2
2016-Dec-06 04:33N 31°41' E 121°13'45671450.7
2016-Dec-06 04:33N 38°51' E 118°05'48157723.4
2016-Dec-06 04:32N 31°22' E 121°39'46383299.7
2016-Dec-06 04:32N 24°26' E 117°51'71621171987.5
2016-Dec-06 04:32N 05°18' W 004°04'7151198038.6
2016-Dec-06 04:29N 23°45' E 117°35'97743963.6
2016-Dec-06 04:28N 39°56' E 119°42'6142876.2
2016-Dec-06 04:15N 29°54' E 122°03'392563.8
2016-Dec-06 03:34N 24°22' E 118°07'462332361.6
2016-Dec-06 03:33N 31°32' E 121°20'105379199.4
2016-Dec-06 03:33N 29°58' E 122°15'44957677.6
2016-Dec-06 03:33N 23°45' E 117°35'71511838932.0
2016-Dec-06 03:33N 05°18' W 004°04'7162920847.9
2016-Dec-06 03:32N 24°26' E 117°51'470422800.2
2016-Dec-06 03:32N 31°41' E 121°13'29994.3
2016-Dec-06 03:30N 31°22' E 121°39'47331536.2
2016-Dec-06 03:30N 38°45' E 118°13'99783.0
2016-Dec-06 03:22N 39°56' E 119°42'97722114.9
2016-Dec-06 03:19N 23°45' E 117°35'4862.2
2016-Dec-06 02:33N 24°22' E 118°07'4842904.7
2016-Dec-06 02:33N 23°45' E 117°35'449230694.1
2016-Dec-06 02:33N 29°57' E 122°15'449538307.7
2016-Dec-06 02:33N 23°43' E 117°39'5081829297.5
2016-Dec-06 02:33N 31°32' E 121°20'111053.1
2016-Dec-06 02:33N 31°41' E 121°13'294309.4
2016-Dec-06 02:32N 31°22' E 121°39'903121.3
2016-Dec-06 02:30N 29°54' E 121°59'55422178.9
2016-Dec-06 02:29N 38°38' E 118°19'70986387832.9
2016-Dec-06 02:29N 05°18' W 004°04'7163468819.6
2016-Dec-06 02:28N 39°56' E 119°42'93526710.4
2016-Dec-06 02:26N 24°26' E 117°51'1617.8
2016-Dec-06 01:33N 24°22' E 118°07'462332404.1
2016-Dec-06 01:33N 31°32' E 121°20'1119491.1
2016-Dec-06 01:33N 31°41' E 121°13'121437181.8
2016-Dec-06 01:33N 29°52' E 122°17'9612782.3
2016-Dec-06 01:33N 31°22' E 121°39'502120521.8
2016-Dec-06 01:33N 23°46' E 117°44'81682.7
2016-Dec-06 01:32N 23°45' E 117°35'43810877.9
2016-Dec-06 01:30N 29°54' E 121°59'396474965.0
2016-Dec-06 01:30N 24°26' E 117°51'7162257837.4
2016-Dec-06 01:28N 05°18' W 004°04'716368944.1
2016-Dec-06 01:22N 39°56' E 119°42'4742970.5
2016-Dec-06 01:12N 32°04' E 120°30'478737.3
2016-Dec-06 00:33N 24°22' E 118°07'462332342.2
2016-Dec-06 00:33N 31°31' E 121°20'112403568.8
2016-Dec-06 00:33N 29°51' E 122°18'445228624.5
2016-Dec-06 00:33N 23°43' E 117°38'8711044912.6
2016-Dec-06 00:33N 37°51' E 121°31'37170213.1
2016-Dec-06 00:33N 31°41' E 121°13'2590958.3
2016-Dec-06 00:33N 31°23' E 121°34'4621662282.2
2016-Dec-06 00:33N 24°26' E 117°51'7162334853.7
2016-Dec-06 00:32N 05°18' W 004°04'706918139.1
2016-Dec-06 00:08N 38°55' E 117°49'8731509.6
2016-Dec-05 23:33N 24°22' E 118°09'8192949967.8
2016-Dec-05 23:33N 37°43' E 121°29'374449077.6
2016-Dec-05 23:33N 31°29' E 121°26'104376052.7
2016-Dec-05 23:33N 29°54' E 122°17'451203071.0
2016-Dec-05 23:33N 23°40' E 117°33'4887202.7
2016-Dec-05 23:33N 24°26' E 117°51'396142489.5
2016-Dec-05 23:33N 29°54' E 121°59'438262886.6
2016-Dec-05 23:33N 23°45' E 117°35'71511838932.1
2016-Dec-05 23:33N 05°18' W 004°04'7302536480.0
2016-Dec-05 23:32N 31°41' E 121°13'1111.2
2016-Dec-05 22:33N 31°31' E 121°20'5071826058.1
2016-Dec-05 22:33N 23°45' E 117°35'4491615043.8
2016-Dec-05 22:33N 29°58' E 122°15'108388409.3
2016-Dec-05 22:33N 31°34' E 121°18'3611299686.3
2016-Dec-05 22:33N 37°35' E 121°26'8161469157.6
2016-Dec-05 22:33N 24°16' E 118°10'473189083.0
2016-Dec-05 22:33N 31°41' E 121°13'7302328594.0
2016-Dec-05 22:32N 05°18' W 004°04'70695089838.3
2016-Dec-05 22:32N 38°55' E 117°49'910935.9
2016-Dec-05 21:33N 23°45' E 117°35'511920488.0
2016-Dec-05 21:33N 31°38' E 121°14'113408108.2
2016-Dec-05 21:33N 29°58' E 122°15'460827791.7
2016-Dec-05 21:33N 37°36' E 121°25'35585235.1
2016-Dec-05 21:33N 31°41' E 121°13'478286890.4
2016-Dec-05 21:33N 24°11' E 118°08'222779.3
2016-Dec-05 21:33N 24°26' E 117°51'7162468795.3
2016-Dec-05 21:32N 05°18' W 004°04'7359267591.1
2016-Dec-05 21:30N 29°54' E 121°59'5794651.9
2016-Dec-05 21:23N 38°55' E 117°49'8891088.0
2016-Dec-05 20:34N 24°06' E 118°07'481288631.6
2016-Dec-05 20:33N 31°38' E 121°14'3581287097.1
2016-Dec-05 20:33N 37°36' E 121°25'370166305.5
2016-Dec-05 20:33N 31°26' E 121°30'73201254816.4
2016-Dec-05 20:33N 05°18' W 004°04'73732412904.9
2016-Dec-05 20:33N 29°58' E 122°15'406162596.3
2016-Dec-05 20:33N 24°26' E 117°51'47019216.9
2016-Dec-05 20:31N 31°41' E 121°12'46534160.9
2016-Dec-05 20:30N 38°55' E 117°49'57910633.0
2016-Dec-05 20:27N 29°54' E 121°59'43815616.7
2016-Dec-05 20:25N 23°45' E 117°35'3641.9
2016-Dec-05 19:34N 24°06' E 118°07'474284270.6
2016-Dec-05 19:33N 31°21' E 121°39'375449592.5
2016-Dec-05 19:33N 37°36' E 121°25'358321774.3
2016-Dec-05 19:33N 31°38' E 121°14'39638.8
2016-Dec-05 19:33N 31°41' E 121°13'470845570.6
2016-Dec-05 19:33N 24°26' E 117°51'86944058.9
2016-Dec-05 19:32N 38°55' E 117°49'706912724589.5
2016-Dec-05 19:32N 05°18' W 004°04'71511170227.8
2016-Dec-05 19:32N 23°45' E 117°35'21943797.2
2016-Dec-05 19:31N 22°26' E 113°53'62626199.4
2016-Dec-05 19:30N 29°54' E 121°59'5297682.2
2016-Dec-05 19:26N 38°05' E 118°02'546.9
2016-Dec-05 19:19N 38°10' E 118°05'162212.1
2016-Dec-05 18:33N 37°36' E 121°25'72701090566.1
2016-Dec-05 18:33N 05°18' W 004°04'73042022550.8
2016-Dec-05 18:33N 31°38' E 121°14'46852684.6
2016-Dec-05 18:32N 24°25' E 117°52'47041273.7
2016-Dec-05 18:32N 31°41' E 121°13'48317046.4
2016-Dec-05 18:30N 24°06' E 118°06'2021.0
2016-Dec-05 17:33N 24°24' E 117°56'812973849.8
2016-Dec-05 17:33N 37°36' E 121°25'35511117.6
2016-Dec-05 17:31N 31°41' E 121°13'470485.6
2016-Dec-05 16:33N 24°24' E 117°56'812973863.4
2016-Dec-05 16:33N 37°36' E 121°25'355142058.5
2016-Dec-05 16:33N 31°41' E 121°13'355357.1
2016-Dec-05 15:34N 37°36' E 121°25'8291491387.7
2016-Dec-05 15:34N 24°06' E 118°01'418250983.5
2016-Dec-05 15:33N 29°58' E 122°15'449322997.5
2016-Dec-05 15:33N 23°45' E 117°35'511368193.5
2016-Dec-05 15:33N 31°38' E 121°14'46870147.5
2016-Dec-05 15:33N 38°55' E 117°49'465128763.7
2016-Dec-05 15:33N 31°41' E 121°13'730267403.9
2016-Dec-05 15:26N 05°18' W 004°04'70861109112.1
2016-Dec-05 15:26N 38°05' E 118°02'3812887.4
2016-Dec-05 15:18N 32°04' E 120°30'479647.7
2016-Dec-05 14:33N 24°24' E 117°57'8122921404.6
2016-Dec-05 14:33N 37°36' E 121°25'460206947.9
2016-Dec-05 14:33N 29°58' E 122°15'113408165.5
2016-Dec-05 14:33N 31°38' E 121°14'31379.7
2016-Dec-05 14:33N 31°41' E 121°13'46520666.0
2016-Dec-05 14:32N 38°55' E 117°49'8898744.1
2016-Dec-05 14:26N 24°06' E 118°01'32439.0
2016-Dec-05 14:21N 23°45' E 117°35'4381709.0
2016-Dec-05 14:06N 29°54' E 121°59'462855.4
2016-Dec-05 13:34N 37°36' E 121°25'812365175.6
2016-Dec-05 13:33N 24°24' E 117°57'468168430.2
2016-Dec-05 13:33N 31°38' E 121°14'511167365.0
2016-Dec-05 13:33N 23°45' E 117°35'3228482.3
2016-Dec-05 13:33N 24°06' E 118°01'485102684.5
2016-Dec-05 13:33N 31°40' E 121°13'73021314446.3
2016-Dec-05 13:32N 05°18' W 004°04'73731396944.8
2016-Dec-05 13:32N 29°58' E 122°15'58052227.3
2016-Dec-05 13:31N 38°55' E 117°49'57924232.8
2016-Dec-05 13:30N 29°54' E 121°59'158589.8
2016-Dec-05 13:14N 31°58' E 120°04'344511.7
2016-Dec-05 12:33N 37°36' E 121°25'358429032.4
2016-Dec-05 12:33N 31°38' E 121°14'468842160.8
2016-Dec-05 12:33N 24°24' E 117°57'40572915.6
2016-Dec-05 12:33N 29°58' E 122°15'58056461.9
2016-Dec-05 12:32N 38°55' E 117°49'7069403955.2
2016-Dec-05 12:31N 05°18' W 004°04'72381042208.6
2016-Dec-05 12:31N 31°58' E 120°05'51087462.7
2016-Dec-05 12:31N 23°45' E 117°35'51143757.6
2016-Dec-05 12:30N 31°57' E 120°10'154621.9
2016-Dec-05 12:15N 29°54' E 121°59'111160.3
2016-Dec-05 11:33N 31°38' E 121°14'113408165.5
2016-Dec-05 11:33N 29°58' E 122°15'4051458311.2
2016-Dec-05 11:33N 24°24' E 117°57'8122921425.7
2016-Dec-05 11:33N 37°36' E 121°25'18724943.8
2016-Dec-05 11:33N 38°55' E 117°49'43531296.0
2016-Dec-05 11:32N 31°56' E 120°13'4232.1
2016-Dec-05 11:31N 31°58' E 120°18'724960833.3
2016-Dec-05 11:24N 05°18' W 004°04'7176161461.8
2016-Dec-05 11:21N 23°59' E 118°02'8351047.4
2016-Dec-05 10:33N 37°36' E 121°25'8613100989.9
2016-Dec-05 10:33N 23°37' E 117°38'518266449.9
2016-Dec-05 10:33N 31°38' E 121°14'5044802.3
2016-Dec-05 10:33N 31°60' E 120°21'15640204.1
2016-Dec-05 10:33N 29°58' E 122°15'73731020845.4
2016-Dec-05 10:33N 05°18' W 004°04'706948108.1
2016-Dec-05 10:24N 38°55' E 117°49'4656584.9
2016-Dec-05 10:19N 31°40' E 121°11'3 4.5
2016-Dec-05 09:33N 31°38' E 121°14'358643548.5
2016-Dec-05 09:33N 37°36' E 121°25'8122922060.1
2016-Dec-05 09:33N 24°24' E 117°53'7165403038.5
2016-Dec-05 09:32N 05°18' W 004°04'73731105915.6
2016-Dec-05 09:32N 29°58' E 122°15'58083566.0
2016-Dec-05 09:31N 38°55' E 117°49'4627558.1
2016-Dec-05 09:28N 31°42' E 121°08'7 7.5
2016-Dec-05 08:33N 31°38' E 121°14'358643548.5
2016-Dec-05 08:33N 37°36' E 121°25'811100638.0
2016-Dec-05 08:33N 24°26' E 117°51'7162920847.0
2016-Dec-05 08:32N 05°18' W 004°04'7373323682.3
2016-Dec-05 08:31N 29°58' E 122°15'58023212.6
2016-Dec-05 08:30N 38°55' E 117°49'468499.6
2016-Dec-05 07:33N 31°38' E 121°14'35861290.3
2016-Dec-05 07:33N 37°36' E 121°25'811364812.8
2016-Dec-05 07:33N 24°26' E 117°51'406146326.2
2016-Dec-05 07:33N 29°58' E 122°15'73738847321.8
2016-Dec-05 07:33N 05°18' W 004°04'7069210323.8
2016-Dec-05 07:31N 38°55' E 117°49'4921419.1
2016-Dec-05 07:10N 31°21' E 121°41'375619.0
2016-Dec-05 06:34N 37°36' E 121°25'358160887.1
2016-Dec-05 06:33N 31°38' E 121°14'468140401.1
2016-Dec-05 06:33N 24°26' E 117°51'25332468.0
2016-Dec-05 06:33N 22°58' E 113°32'66030466.0
2016-Dec-05 06:31N 32°04' E 120°30'4318574.2
2016-Dec-05 06:28N 38°55' E 117°49'70691590574.8
2016-Dec-05 06:28N 05°18' W 004°04'73738084.7
2016-Dec-05 05:33N 29°58' E 122°15'6261127133.5
2016-Dec-05 05:33N 23°03' E 113°31'6602374419.9
2016-Dec-05 05:33N 31°38' E 121°14'35861290.3
2016-Dec-05 05:33N 37°36' E 121°25'18784185.3
2016-Dec-05 05:33N 38°55' E 117°49'7069318114.9
2016-Dec-05 05:32N 05°18' W 004°04'7162415866.7
2016-Dec-05 05:31N 24°26' E 117°51'4751892.9
2016-Dec-05 05:15N 32°00' E 120°27'158226.2
2016-Dec-05 04:33N 29°53' E 122°17'465239067.5
2016-Dec-05 04:33N 37°36' E 121°25'3571284120.0
2016-Dec-05 04:33N 31°39' E 121°13'660169680.8
2016-Dec-05 04:33N 23°03' E 113°31'25264794.9
2016-Dec-05 04:33N 24°26' E 117°51'47936697.3
2016-Dec-05 04:32N 32°04' E 120°30'7260580767.0
2016-Dec-05 04:31N 05°18' W 004°04'723232063.7
2016-Dec-05 04:18N 25°07' E 119°09'82111.5
2016-Dec-05 03:34N 24°26' E 117°51'252226782.3
2016-Dec-05 03:33N 23°03' E 113°31'964578449.8
2016-Dec-05 03:33N 37°36' E 121°25'354182211.0
2016-Dec-05 03:33N 31°41' E 121°11'424476.3
2016-Dec-05 03:33N 31°58' E 120°25'7256280884.9
2016-Dec-05 03:31N 05°18' W 004°04'7377414930.6
2016-Dec-05 03:30N 29°51' E 122°18'63435688.8
2016-Dec-05 03:29N 22°29' E 113°51'6762461.4
2016-Dec-05 03:13N 32°04' E 120°30'40714088.4
2016-Dec-05 03:11N 25°23' E 119°14'343551.0
2016-Dec-05 02:33N 23°03' E 113°31'660475508.1
2016-Dec-05 02:33N 31°41' E 121°11'354637738.4
2016-Dec-05 02:33N 37°36' E 121°25'811324278.0
2016-Dec-05 02:33N 24°26' E 117°51'40326867.4
2016-Dec-05 02:32N 29°51' E 122°18'31348928.6
2016-Dec-05 02:32N 25°22' E 119°19'7240258075.4
2016-Dec-05 02:30N 05°18' W 004°04'72486523159.1
2016-Dec-05 02:30N 31°56' E 120°16'66521574.5
2016-Dec-05 02:28N 22°25' E 113°53'678203364.1
2016-Dec-05 02:28N 32°04' E 120°30'4293828.6
2016-Dec-05 02:21N 38°54' E 117°57'181226.8
2016-Dec-05 01:34N 37°36' E 121°25'354182211.0
2016-Dec-05 01:33N 31°41' E 121°11'12122878.5
2016-Dec-05 01:33N 29°55' E 122°17'73758849831.4
2016-Dec-05 01:33N 05°18' W 004°04'72483727694.8
2016-Dec-05 01:33N 25°19' E 119°27'35355220.9
2016-Dec-05 01:33N 23°03' E 113°31'25247738.5
2016-Dec-05 01:32N 24°26' E 117°51'4666169.4
2016-Dec-05 01:28N 31°55' E 120°11'43350257.8
2016-Dec-05 01:27N 38°54' E 117°57'181201.9
2016-Dec-05 00:33N 37°36' E 121°25'354159434.6
2016-Dec-05 00:33N 31°41' E 121°11'11830218.9
2016-Dec-05 00:33N 29°58' E 122°15'73732412905.7
2016-Dec-05 00:33N 05°18' W 004°04'6922712018.9
2016-Dec-05 00:32N 23°03' E 113°31'64013092.3
2016-Dec-05 00:29N 31°55' E 120°11'466419521.3
2016-Dec-05 00:29N 24°26' E 117°51'4679238.8
2016-Dec-05 00:26N 31°58' E 120°04'344391.4
2016-Dec-04 23:33N 37°36' E 121°25'35485028.9
2016-Dec-04 23:33N 31°41' E 121°11'66059439.9
2016-Dec-04 23:33N 23°03' E 113°31'656787642.6
2016-Dec-04 23:32N 32°04' E 120°29'156112112.4
2016-Dec-04 23:32N 29°58' E 122°15'7373915240.4
2016-Dec-04 23:32N 05°18' W 004°04'7243441921.5
2016-Dec-04 23:31N 31°57' E 120°10'4676951.9
2016-Dec-04 23:27N 24°26' E 117°51'466279675.9
2016-Dec-04 23:27N 31°55' E 120°11'153616.6
2016-Dec-04 23:12N 29°54' E 121°59'462722.8
2016-Dec-04 22:34N 37°36' E 121°25'354212565.1
2016-Dec-04 22:33N 31°41' E 121°11'73002021670.3
2016-Dec-04 22:33N 05°18' W 004°04'73731658872.9
2016-Dec-04 22:33N 29°58' E 122°15'15624458.1
2016-Dec-04 22:33N 32°02' E 120°24'131502.3
2016-Dec-04 22:32N 31°56' E 120°10'46757947.8
2016-Dec-04 22:32N 24°26' E 117°51'25213336.3
2016-Dec-04 22:30N 23°03' E 113°31'64519348.1
2016-Dec-04 22:28N 31°58' E 120°17'91221.2
2016-Dec-04 22:04N 31°16' E 121°52'380751.0
2016-Dec-04 21:33N 37°36' E 121°25'4601655669.6
2016-Dec-04 21:33N 29°58' E 122°15'11842314.0
2016-Dec-04 21:33N 31°42' E 121°11'5464770.6
2016-Dec-04 21:33N 31°56' E 120°10'9154583.6
2016-Dec-04 21:33N 31°18' E 121°47'73365282255.7
2016-Dec-04 21:33N 05°18' W 004°04'6922265111.3
2016-Dec-04 21:31N 23°03' E 113°31'64646517.3
2016-Dec-04 21:31N 31°58' E 120°19'342360.0
2016-Dec-04 20:34N 37°36' E 121°25'964433854.8
2016-Dec-04 20:33N 23°03' E 113°31'6602377663.2
2016-Dec-04 20:33N 31°42' E 121°11'305700.4
2016-Dec-04 20:33N 31°22' E 121°38'90324256.3
2016-Dec-04 20:33N 29°58' E 122°15'15827137.0
2016-Dec-04 20:33N 31°56' E 120°12'48469685.6
2016-Dec-04 20:32N 24°06' E 117°60'71731986442.9
2016-Dec-04 20:32N 05°18' W 004°04'724286046.5
2016-Dec-04 20:27N 31°56' E 120°10'51152.9
2016-Dec-04 20:07N 31°44' E 121°08'352629.4
2016-Dec-04 19:34N 37°36' E 121°25'370190410.7
2016-Dec-04 19:33N 31°25' E 121°30'73205270528.2
2016-Dec-04 19:33N 05°18' W 004°04'737326541965.9
2016-Dec-04 19:33N 29°58' E 122°15'11828210.6
2016-Dec-04 19:33N 31°42' E 121°11'661183088.2
2016-Dec-04 19:33N 23°02' E 113°31'63969721.9
2016-Dec-04 19:32N 31°57' E 120°04'49110212.5
2016-Dec-04 19:29N 23°59' E 118°02'49139287.8
2016-Dec-04 19:29N 31°56' E 120°10'154554.3
2016-Dec-04 19:12N 29°54' E 121°59'614958.9
2016-Dec-04 18:34N 23°02' E 113°31'965694732.1
2016-Dec-04 18:33N 37°36' E 121°25'365657526.0
2016-Dec-04 18:33N 31°30' E 121°24'73141385865.2
2016-Dec-04 18:33N 05°18' W 004°04'7359138698.9
2016-Dec-04 18:30N 29°54' E 121°59'15461708.0
2016-Dec-04 18:30N 31°56' E 120°10'12726.5
2016-Dec-04 18:29N 32°02' E 119°57'4691112.8
2016-Dec-04 18:03N 24°26' E 117°51'8111623.2
2016-Dec-04 17:33N 37°36' E 121°25'360648468.7
2016-Dec-04 17:33N 31°35' E 121°18'814931.0
2016-Dec-04 17:33N 31°41' E 121°11'12410926.3
2016-Dec-04 17:33N 29°51' E 122°18'625173049.1
2016-Dec-04 17:33N 23°02' E 113°31'64123558.8
2016-Dec-04 17:31N 31°56' E 120°10'724271823.9
2016-Dec-04 17:25N 05°18' W 004°04'72708478.7
2016-Dec-04 16:33N 37°36' E 121°25'354182024.8
2016-Dec-04 16:33N 31°42' E 121°09'2633.7
2016-Dec-04 16:33N 31°41' E 121°11'661170008.1
2016-Dec-04 16:33N 23°02' E 113°31'6256900.7
2016-Dec-04 16:27N 29°51' E 122°18'7377336146.3
2016-Dec-04 16:26N 05°18' W 004°04'7242532083.4
2016-Dec-04 16:25N 31°56' E 120°10'4671643.3
2016-Dec-04 16:08N 24°26' E 117°51'463800.0
2016-Dec-04 15:34N 31°26' E 121°30'2211559.8
2016-Dec-04 15:33N 31°41' E 121°11'661264457.0
2016-Dec-04 15:33N 23°02' E 113°31'625204512.6
2016-Dec-04 15:33N 29°51' E 122°18'636458246.7
2016-Dec-04 15:33N 22°25' E 113°53'25034557.2
2016-Dec-04 15:33N 24°26' E 117°51'8569391.4
2016-Dec-04 15:27N 38°42' E 117°43'4241674.5
2016-Dec-04 15:12N 31°56' E 120°15'724753679.2
2016-Dec-04 15:04N 05°18' W 004°04'727014404.8
2016-Dec-04 14:34N 37°36' E 121°25'354159434.6
2016-Dec-04 14:33N 31°41' E 121°11'661264451.6
2016-Dec-04 14:33N 23°02' E 113°31'62532602.2
2016-Dec-04 14:32N 29°51' E 122°18'40345339.2
2016-Dec-04 14:32N 24°26' E 117°51'47062708.5
2016-Dec-04 14:31N 31°58' E 120°19'42416756.5
2016-Dec-04 14:30N 38°42' E 117°43'17228.2
2016-Dec-04 14:25N 38°54' E 117°57'7076160221.9
2016-Dec-04 14:22N 05°18' W 004°04'72708917.8
2016-Dec-04 13:34N 37°36' E 121°25'18761161.2
2016-Dec-04 13:33N 38°42' E 117°43'964578616.8
2016-Dec-04 13:33N 23°02' E 113°31'62520450.6
2016-Dec-04 13:31N 29°51' E 122°18'1243222.7
2016-Dec-04 13:29N 31°41' E 121°11'730021212.0
2016-Dec-04 13:08N 05°18' W 004°04'727012463.6
2016-Dec-04 12:33N 37°36' E 121°25'354425159.0
2016-Dec-04 12:33N 31°41' E 121°11'661132226.8
2016-Dec-04 12:33N 23°02' E 113°31'62544991.6
2016-Dec-04 12:32N 29°51' E 122°18'7377856630.7
2016-Dec-04 12:32N 05°18' W 004°04'7256450371.0
2016-Dec-04 12:31N 31°58' E 120°25'650680.7
2016-Dec-04 11:33N 23°02' E 113°31'661793400.1
2016-Dec-04 11:33N 31°41' E 121°11'354425159.0
2016-Dec-04 11:33N 37°36' E 121°25'34164622.8
2016-Dec-04 11:33N 31°58' E 120°25'156561543.9
2016-Dec-04 11:33N 29°55' E 122°17'737526549932.8
2016-Dec-04 11:33N 05°18' W 004°04'7374884916.4
2016-Dec-04 11:33N 29°56' E 122°16'1571614.3
2016-Dec-04 11:27N 32°00' E 120°23'339382.0
2016-Dec-04 10:33N 37°36' E 121°25'460331138.2
2016-Dec-04 10:33N 29°58' E 122°15'11832544.9
2016-Dec-04 10:33N 31°41' E 121°11'66013663.7
2016-Dec-04 10:30N 23°03' E 113°31'6922129118.2
2016-Dec-04 10:27N 05°18' W 004°04'7247156222.1
2016-Dec-04 10:24N 31°56' E 120°15'7386.2
2016-Dec-04 09:34N 31°25' E 121°32'2816861.0
2016-Dec-04 09:33N 31°43' E 121°07'120144458.8
2016-Dec-04 09:33N 29°58' E 122°15'460183963.3
2016-Dec-04 09:33N 37°36' E 121°25'96455088.2
2016-Dec-04 09:32N 23°03' E 113°31'69221661320.0
2016-Dec-04 09:32N 05°18' W 004°04'725676828.0
2016-Dec-04 09:26N 31°58' E 120°25'161028.9
2016-Dec-04 09:25N 31°57' E 120°06'4661898.6
2016-Dec-04 09:11N 24°26' E 117°51'8111313.5
2016-Dec-04 08:34N 37°36' E 121°25'350179979.0
2016-Dec-04 08:33N 31°46' E 121°02'126454318.4
2016-Dec-04 08:33N 29°57' E 122°16'73742041911.7
2016-Dec-04 08:33N 05°18' W 004°04'69221384432.6
2016-Dec-04 08:33N 23°03' E 113°31'2523796.0
2016-Dec-04 08:29N 24°26' E 117°51'811878.3
2016-Dec-04 07:34N 37°36' E 121°25'465239283.3
2016-Dec-04 07:33N 29°52' E 122°16'7375983327.1
2016-Dec-04 07:33N 05°18' W 004°04'7162158182.5
2016-Dec-04 07:30N 24°26' E 117°51'470496.7
2016-Dec-04 06:33N 31°42' E 121°10'72998759266.2
2016-Dec-04 06:33N 05°18' W 004°04'727026173618.0
2016-Dec-04 06:33N 37°36' E 121°25'462415519.1
2016-Dec-04 06:33N 29°56' E 122°17'12319177.3
2016-Dec-04 06:33N 31°43' E 121°08'12710904.7
2016-Dec-04 06:32N 29°51' E 122°18'403725427.8
2016-Dec-04 06:32N 24°26' E 117°51'82315.2
2016-Dec-04 06:17N 25°07' E 119°09'331459.5
2016-Dec-04 05:33N 29°53' E 122°17'465167231.0
2016-Dec-04 05:33N 37°36' E 121°25'358107417.9
2016-Dec-04 05:33N 31°38' E 121°16'14838.5
2016-Dec-04 05:32N 31°46' E 121°03'72922625275.8
2016-Dec-04 05:32N 05°18' W 004°04'71621611483.8
2016-Dec-04 05:32N 24°26' E 117°51'4675816.0
2016-Dec-04 05:27N 31°35' E 121°19'4043859.6
2016-Dec-04 05:20N 25°07' E 119°09'757964.4
2016-Dec-04 04:33N 37°36' E 121°25'35190345.3
2016-Dec-04 04:33N 31°45' E 121°06'72966566397.6
2016-Dec-04 04:33N 05°18' W 004°04'7162515674.8
2016-Dec-04 04:32N 24°26' E 117°51'406133023.8
2016-Dec-04 04:32N 29°58' E 122°15'149773.6
2016-Dec-04 04:21N 31°60' E 120°36'338431.7
2016-Dec-04 03:34N 37°36' E 121°25'460236527.3
2016-Dec-04 03:33N 29°58' E 122°15'99357662.0
2016-Dec-04 03:33N 31°28' E 121°28'464166952.5
2016-Dec-04 03:33N 24°26' E 117°51'470846185.9
2016-Dec-04 03:33N 31°42' E 121°09'401923.0
2016-Dec-04 03:32N 32°02' E 120°28'72581866362.2
2016-Dec-04 03:32N 05°18' W 004°04'0 0.0
2016-Dec-04 02:33N 05°18' W 004°04'737326541980.3
2016-Dec-04 02:33N 29°58' E 122°15'46097392.3
2016-Dec-04 02:33N 37°36' E 121°25'342308059.1
2016-Dec-04 02:33N 31°58' E 120°19'483458.8
2016-Dec-04 02:32N 31°41' E 121°12'47016905.0
2016-Dec-04 02:31N 24°26' E 117°51'4601333.0
2016-Dec-04 02:10N 31°17' E 121°44'463764.6
2016-Dec-04 01:33N 24°15' E 118°08'818490873.2
2016-Dec-04 01:33N 37°36' E 121°25'465418369.3
2016-Dec-04 01:33N 29°53' E 122°16'73753792802.7
2016-Dec-04 01:33N 05°18' W 004°04'71621357038.4
2016-Dec-04 01:33N 24°26' E 117°51'469562882.8
2016-Dec-04 01:33N 31°40' E 121°11'305961.8
2016-Dec-04 01:33N 31°21' E 121°38'8411625.4
2016-Dec-04 01:32N 31°56' E 120°09'5811569.6
2016-Dec-04 01:32N 31°39' E 121°14'355365.7
2016-Dec-04 00:34N 37°34' E 121°25'3681323534.3
2016-Dec-04 00:34N 31°27' E 121°29'10411749.7
2016-Dec-04 00:33N 29°51' E 122°18'40317069.3
2016-Dec-04 00:32N 24°26' E 117°51'46767306.3
2016-Dec-04 00:31N 31°59' E 119°59'72321132006.5
2016-Dec-04 00:31N 05°18' W 004°04'71792584498.3
2016-Dec-04 00:31N 24°22' E 118°08'4691127.2
2016-Dec-04 00:06N 31°46' E 120°60'130243.1
2016-Dec-03 23:33N 29°54' E 122°17'4621664103.1
2016-Dec-03 23:33N 37°34' E 121°25'809100489.2
2016-Dec-03 23:33N 24°26' E 117°51'868148875.6
2016-Dec-03 23:33N 38°54' E 117°57'7077771983.5
2016-Dec-03 23:32N 05°18' W 004°04'72717459.5
2016-Dec-03 22:34N 37°34' E 121°25'459126981.2
2016-Dec-03 22:33N 29°58' E 122°15'73738847321.0
2016-Dec-03 22:33N 05°18' W 004°04'71621227797.0
2016-Dec-03 22:33N 24°26' E 117°51'396890.0
2016-Dec-03 22:06N 29°54' E 121°59'461845.1
2016-Dec-03 21:33N 37°34' E 121°25'459183413.1
2016-Dec-03 21:33N 29°58' E 122°15'40654197.5
2016-Dec-03 21:33N 24°26' E 117°51'7162781325.2
2016-Dec-03 21:32N 05°18' W 004°04'73737506.2
2016-Dec-03 20:33N 29°58' E 122°15'460828231.5
2016-Dec-03 20:33N 37°36' E 121°27'811584267.7
2016-Dec-03 20:33N 24°26' E 117°51'7162358107.5
2016-Dec-03 20:32N 05°18' W 004°04'72747432.7
2016-Dec-03 19:33N 37°43' E 121°30'72748728505.9
2016-Dec-03 19:33N 05°18' W 004°04'737313270979.0
2016-Dec-03 19:33N 29°58' E 122°15'40614070.5
2016-Dec-03 19:32N 24°26' E 117°51'86824812.9
2016-Dec-03 19:29N 38°54' E 117°57'5762001.8
2016-Dec-03 19:12N 29°54' E 121°59'396609.2
2016-Dec-03 18:33N 24°26' E 117°51'462415687.2
2016-Dec-03 18:33N 31°21' E 121°40'4881756739.1
2016-Dec-03 18:33N 38°54' E 117°58'179107513.7
2016-Dec-03 18:33N 37°50' E 121°32'7275727498.1
2016-Dec-03 18:32N 05°18' W 004°04'7373141935.6
2016-Dec-03 18:29N 29°58' E 122°15'0 0.0
2016-Dec-03 17:33N 29°58' E 122°15'7373442366.0
2016-Dec-03 17:32N 05°18' W 004°04'71622578373.3
2016-Dec-03 17:32N 24°26' E 117°51'8629794.8
2016-Dec-03 17:27N 38°48' E 118°08'56811225.6
2016-Dec-03 17:24N 29°54' E 121°59'62414593.6
2016-Dec-03 17:21N 22°29' E 113°52'69468691.3
2016-Dec-03 16:33N 05°18' W 004°04'73732654196.1
2016-Dec-03 16:33N 29°58' E 122°15'144159.7
2016-Dec-03 16:33N 29°54' E 121°59'62818368.1
2016-Dec-03 16:31N 22°24' E 113°53'2502468.6
2016-Dec-03 16:25N 24°26' E 117°51'46310551.2
2016-Dec-03 16:22N 31°27' E 121°29'98119.8
2016-Dec-03 15:33N 29°58' E 122°15'40621841.0
2016-Dec-03 15:32N 24°26' E 117°51'406414.7
2016-Dec-03 14:33N 29°58' E 122°15'40629267.0
2016-Dec-03 14:33N 24°26' E 117°51'3969075.8
2016-Dec-03 14:30N 29°54' E 121°59'1414.7
2016-Dec-03 13:33N 29°58' E 122°15'15835471.2
2016-Dec-03 13:33N 31°57' E 120°14'5011939.1
2016-Dec-03 13:18N 23°48' E 118°08'7 8.9
2016-Dec-03 12:33N 23°55' E 118°09'424109048.0
2016-Dec-03 12:33N 29°58' E 122°15'922147.0
2016-Dec-03 12:31N 31°21' E 121°31'732164757.0
2016-Dec-03 12:24N 05°18' W 004°04'7250122533.5
2016-Dec-03 12:20N 31°57' E 120°18'7191.6
2016-Dec-03 11:34N 31°21' E 121°31'47251541.5
2016-Dec-03 11:33N 24°04' E 118°09'1449522.9
2016-Dec-03 11:33N 23°50' E 118°07'42925733.3
2016-Dec-03 11:32N 29°58' E 122°15'17512337.9
2016-Dec-03 11:31N 32°05' E 119°55'21488.2
2016-Dec-03 11:29N 31°57' E 120°18'7250213931.6
2016-Dec-03 11:26N 05°18' W 004°04'728523147.9
2016-Dec-03 11:08N 38°40' E 121°50'4409666.1
2016-Dec-03 11:05N 31°20' E 121°41'5 9.5
2016-Dec-03 10:34N 31°23' E 121°36'480575516.2
2016-Dec-03 10:33N 23°60' E 118°08'9053256718.4
2016-Dec-03 10:33N 38°44' E 121°51'52779010.1
2016-Dec-03 10:33N 29°58' E 122°15'925166.6
2016-Dec-03 10:32N 31°21' E 121°31'8817589.4
2016-Dec-03 10:32N 32°01' E 119°58'17670.6
2016-Dec-03 10:30N 31°57' E 120°18'725032543.2
2016-Dec-03 10:17N 05°18' W 004°04'71821436492.7
2016-Dec-03 10:16N 23°55' E 118°08'4895775.8
2016-Dec-03 10:11N 31°35' E 121°17'610875558.6
2016-Dec-03 10:07N 33°37' W 117°55'652911865.4
2016-Dec-03 09:34N 24°23' E 118°07'401144263.1
2016-Dec-03 09:33N 29°58' E 122°15'411295695.7
2016-Dec-03 09:33N 24°10' E 118°10'7430.6
2016-Dec-03 09:32N 24°03' E 118°09'48828327.7
2016-Dec-03 09:31N 31°57' E 120°18'17223.5
2016-Dec-03 09:27N 32°01' E 119°58'7231464855.5
2016-Dec-03 09:26N 05°18' W 004°04'72484349022.6
2016-Dec-03 09:26N 31°57' E 120°17'4694213.2
2016-Dec-03 09:19N 24°26' E 117°51'654231739.7
2016-Dec-03 09:07N 33°37' W 117°55'653711880.2
2016-Dec-03 08:34N 24°24' E 117°57'1222490.4
2016-Dec-03 08:33N 24°20' E 118°10'402289292.5
2016-Dec-03 08:33N 29°58' E 122°15'33463227.8
2016-Dec-03 08:33N 25°07' E 119°09'8226937.7
2016-Dec-03 08:33N 24°26' E 117°51'2213411.4
2016-Dec-03 08:33N 24°12' E 118°10'47866127.4
2016-Dec-03 08:32N 32°00' E 119°59'6158201549.4
2016-Dec-03 08:31N 33°37' W 117°55'66611410638.5
2016-Dec-03 08:30N 05°18' W 004°04'7250215699.7
2016-Dec-03 08:28N 31°57' E 120°18'470515.2
2016-Dec-03 07:34N 24°24' E 117°57'4051457080.1
2016-Dec-03 07:34N 29°58' E 122°15'4011443644.4
2016-Dec-03 07:33N 24°22' E 118°08'78530.5
2016-Dec-03 07:33N 24°25' E 118°01'258154886.3
2016-Dec-03 07:33N 22°24' E 113°53'66228052.3
2016-Dec-03 07:32N 31°57' E 120°05'72371002106.6
2016-Dec-03 07:31N 05°18' W 004°04'7162460424.0
2016-Dec-03 07:31N 24°26' E 117°51'4692438.3
2016-Dec-03 07:19N 31°57' E 120°18'470620.0
2016-Dec-03 06:34N 24°25' E 117°53'4061459932.3
2016-Dec-03 06:34N 29°55' E 122°17'4031451687.7
2016-Dec-03 06:33N 24°24' E 117°58'31019.7
2016-Dec-03 06:33N 24°24' E 117°55'45064.1
2016-Dec-03 06:33N 24°26' E 117°51'467129255.1
2016-Dec-03 06:33N 31°56' E 120°11'6151.3
2016-Dec-03 06:30N 31°57' E 120°18'725086137.5
2016-Dec-03 06:25N 05°18' W 004°04'7306597773.8
2016-Dec-03 06:25N 31°36' E 121°16'6755783.9
2016-Dec-03 06:18N 22°30' E 113°51'249337.5
2016-Dec-03 05:33N 24°26' E 117°52'0499.2
2016-Dec-03 05:33N 24°26' E 117°52'46939256.5
2016-Dec-03 05:33N 31°57' E 120°17'72494349130.0
2016-Dec-03 05:32N 05°18' W 004°04'7162560516.2
2016-Dec-03 05:32N 24°26' E 117°51'46941213.7
2016-Dec-03 05:31N 31°57' E 120°18'50674.3
2016-Dec-03 05:27N 31°39' E 121°13'1211733.0
2016-Dec-03 05:22N 29°51' E 122°18'125153.5
2016-Dec-03 04:33N 31°42' E 121°09'469421868.2
2016-Dec-03 04:33N 24°26' E 117°53'47344787.7
2016-Dec-03 04:33N 32°00' E 120°22'47327913.3
2016-Dec-03 04:32N 24°26' E 117°52'71645158031.8
2016-Dec-03 04:32N 05°18' W 004°04'7250966653.7
2016-Dec-03 04:31N 31°57' E 120°18'6485557.4
2016-Dec-03 04:24N 22°58' E 113°32'2534711.3
2016-Dec-03 04:21N 24°26' E 117°51'2 2.8
2016-Dec-03 03:33N 24°26' E 117°53'255917176.6
2016-Dec-03 03:33N 23°04' E 113°30'627205052.8
2016-Dec-03 03:33N 29°57' E 122°16'406365759.1
2016-Dec-03 03:33N 24°26' E 117°51'2381.7
2016-Dec-03 03:33N 24°26' E 117°52'45851544.8
2016-Dec-03 03:32N 31°22' E 121°30'683906.0
2016-Dec-03 03:31N 32°04' E 120°26'7257117147.2
2016-Dec-03 03:28N 05°18' W 004°04'7086277278.3
2016-Dec-03 03:26N 38°05' E 118°02'3852457.2
2016-Dec-03 03:17N 31°57' E 120°18'156215.8
2016-Dec-03 02:33N 29°58' E 122°15'627118749.6
2016-Dec-03 02:33N 23°06' E 113°27'64447350.9
2016-Dec-03 02:32N 31°57' E 120°18'469153499.0
2016-Dec-03 02:32N 24°26' E 117°52'2113.1
2016-Dec-03 02:31N 24°26' E 117°51'93530876.1
2016-Dec-03 02:29N 39°56' E 119°42'7163889141.2
2016-Dec-03 02:29N 05°18' W 004°04'69187483.7
2016-Dec-03 01:33N 23°06' E 113°27'25630707.7
2016-Dec-03 01:33N 24°26' E 117°52'40613037.1
2016-Dec-03 01:31N 29°58' E 122°15'737396515.5
2016-Dec-03 01:27N 05°18' W 004°04'7162176600.9
2016-Dec-03 01:24N 24°26' E 117°51'9354445.8
2016-Dec-03 01:11N 39°56' E 119°42'612966.0
2016-Dec-03 00:33N 29°57' E 122°16'406208578.4
2016-Dec-03 00:33N 24°26' E 117°52'21018.4
2016-Dec-03 00:33N 24°26' E 117°51'254152588.1
2016-Dec-03 00:33N 23°06' E 113°27'69182264161.9
2016-Dec-03 00:33N 05°18' W 004°04'716345396.3
2016-Dec-03 00:23N 39°56' E 119°42'618741.0
2016-Dec-02 23:33N 29°51' E 122°17'403207103.7
2016-Dec-02 23:33N 24°26' E 117°51'2103.6
2016-Dec-02 23:32N 24°26' E 117°52'7164243303.6
2016-Dec-02 23:31N 05°18' W 004°04'7163396693.8
2016-Dec-02 23:29N 39°56' E 119°42'4803982.6
2016-Dec-02 23:22N 31°57' E 120°18'29111.8
2016-Dec-02 23:07N 31°57' E 120°52'479853.5
2016-Dec-02 22:33N 24°26' E 117°51'403145089.1
2016-Dec-02 22:33N 29°51' E 122°18'40253619.1
2016-Dec-02 22:33N 24°26' E 117°52'46913505.8
2016-Dec-02 22:31N 31°57' E 120°18'72502007621.9
2016-Dec-02 22:30N 05°18' W 004°04'73003754224.3
2016-Dec-02 22:30N 31°41' E 121°10'192219.1
2016-Dec-02 22:30N 31°54' E 120°53'486109359.7
2016-Dec-02 22:29N 39°56' E 119°42'935990.7
2016-Dec-02 21:33N 24°26' E 117°52'47062729.0
2016-Dec-02 21:32N 31°48' E 120°56'1367775.9
2016-Dec-02 21:31N 29°51' E 122°18'61819875.9
2016-Dec-02 21:29N 39°56' E 119°42'716325785093.6
2016-Dec-02 21:29N 05°18' W 004°04'691854858.6
2016-Dec-02 21:22N 23°06' E 113°27'6183740.5
2016-Dec-02 21:12N 29°52' E 122°08'8734876.6
2016-Dec-02 21:12N 31°17' E 121°48'4773.4
2016-Dec-02 20:33N 31°46' E 121°04'47160598.8
2016-Dec-02 20:33N 24°26' E 117°52'21527.2
2016-Dec-02 20:33N 24°26' E 117°51'25439806.6
2016-Dec-02 20:33N 23°06' E 113°27'66256708.7
2016-Dec-02 20:32N 31°20' E 121°42'7332399906.8
2016-Dec-02 20:31N 05°18' W 004°04'73775311113.8
2016-Dec-02 20:31N 29°51' E 122°18'61830918.1
2016-Dec-02 20:29N 39°56' E 119°42'61914857.3
2016-Dec-02 20:27N 29°48' E 122°03'5441658.7
2016-Dec-02 20:07N 38°52' E 121°54'10421852.3
2016-Dec-02 19:34N 23°05' E 113°26'627451699.0
2016-Dec-02 19:33N 29°54' E 122°18'121434067.0
2016-Dec-02 19:33N 31°40' E 121°12'12219040.4
2016-Dec-02 19:33N 29°46' E 122°00'38932543.6
2016-Dec-02 19:32N 24°26' E 117°52'71641357377.2
2016-Dec-02 19:32N 05°18' W 004°04'716279334.6
2016-Dec-02 19:27N 24°26' E 117°51'9356163.9
2016-Dec-02 19:17N 39°56' E 119°42'124685.3
2016-Dec-02 19:07N 38°44' E 121°52'10341876.5
2016-Dec-02 18:34N 23°05' E 113°26'257462087.4
2016-Dec-02 18:33N 24°26' E 117°52'465418940.1
2016-Dec-02 18:33N 31°34' E 121°19'11219255.8
2016-Dec-02 18:33N 29°55' E 122°20'61510157.0
2016-Dec-02 18:29N 39°56' E 119°42'4942883.5
2016-Dec-02 18:19N 31°46' E 121°03'1301925.2
2016-Dec-02 18:15N 29°46' E 122°00'390107880.0
2016-Dec-02 18:15N 24°26' E 117°51'464671.4
2016-Dec-02 17:33N 31°29' E 121°27'10475149.9
2016-Dec-02 17:33N 29°55' E 122°20'6291132774.3
2016-Dec-02 17:33N 23°05' E 113°26'660297129.5
2016-Dec-02 17:33N 31°42' E 121°09'12434344.1
2016-Dec-02 17:33N 29°46' E 122°00'38923323.2
2016-Dec-02 17:32N 24°26' E 117°52'93522140.1
2016-Dec-02 17:29N 39°56' E 119°42'716320464.4
2016-Dec-02 17:08N 05°18' W 004°04'730612507.0
2016-Dec-02 16:33N 31°37' E 121°16'6752430120.5
2016-Dec-02 16:33N 22°30' E 113°51'637382158.5
2016-Dec-02 16:33N 29°55' E 122°20'194665.8
2016-Dec-02 16:33N 29°46' E 122°00'6101098418.3
2016-Dec-02 16:33N 23°05' E 113°26'661396717.5
2016-Dec-02 16:33N 31°23' E 121°36'3831380450.6
2016-Dec-02 16:33N 37°46' E 121°14'819226751.9
2016-Dec-02 16:33N 24°26' E 117°52'45246537.9
2016-Dec-02 16:32N 31°15' E 121°31'45310801.3
2016-Dec-02 16:30N 24°26' E 117°51'935420683.5
2016-Dec-02 16:29N 39°56' E 119°42'716320677.7
2016-Dec-02 16:09N 05°18' W 004°04'726812371.5
2016-Dec-02 15:33N 37°39' E 121°23'467239997.1
2016-Dec-02 15:33N 29°55' E 122°20'8814434.9
2016-Dec-02 15:33N 31°18' E 121°44'460118232.4
2016-Dec-02 15:33N 24°26' E 117°52'257462084.2
2016-Dec-02 15:33N 23°05' E 113°26'660395983.4
2016-Dec-02 15:33N 31°32' E 121°23'67922014.4
2016-Dec-02 15:31N 22°24' E 113°53'109454683.7
2016-Dec-02 15:29N 39°56' E 119°42'93562323.5
2016-Dec-02 15:29N 24°26' E 117°51'3962227.8
2016-Dec-02 15:18N 29°50' E 122°06'466629.9
2016-Dec-02 14:33N 37°35' E 121°23'81083287.1
2016-Dec-02 14:33N 24°26' E 117°51'40747256.1
2016-Dec-02 14:32N 29°55' E 122°20'629755062.9
2016-Dec-02 14:32N 23°05' E 113°26'25777013.5
2016-Dec-02 14:32N 24°26' E 117°52'39910977.8
2016-Dec-02 14:30N 29°55' E 122°08'9232940.6
2016-Dec-02 14:30N 31°21' E 121°32'7311.6
2016-Dec-02 14:28N 31°27' E 121°28'5166296.9
2016-Dec-02 14:23N 39°56' E 119°42'162192.8
2016-Dec-02 13:33N 37°35' E 121°23'463185027.4
2016-Dec-02 13:33N 29°55' E 122°20'40615888.7
2016-Dec-02 13:31N 24°26' E 117°52'0 0.0
2016-Dec-02 12:33N 24°26' E 117°52'810161901.6
2016-Dec-02 12:33N 37°35' E 121°23'9623464702.9
2016-Dec-02 12:33N 23°04' E 113°30'6281130430.5
2016-Dec-02 12:33N 29°55' E 122°20'480287975.0
2016-Dec-02 12:33N 37°53' E 121°34'387107149.5
2016-Dec-02 12:33N 31°26' E 121°29'7132.3
2016-Dec-02 12:29N 31°22' E 121°35'5225280.3
2016-Dec-02 12:23N 39°56' E 119°42'6136661.9
2016-Dec-02 12:18N 29°54' E 121°59'613170972.1
2016-Dec-02 12:13N 33°37' W 117°55'58939012.3
2016-Dec-02 11:33N 37°34' E 121°25'8091455712.0
2016-Dec-02 11:33N 24°26' E 117°52'403725501.0
2016-Dec-02 11:33N 29°54' E 122°16'473568116.1
2016-Dec-02 11:33N 37°46' E 121°31'38312545.9
2016-Dec-02 11:32N 31°22' E 121°35'14456.1
2016-Dec-02 11:30N 31°31' E 121°22'512153550.6
2016-Dec-02 11:29N 39°56' E 119°42'1063765441.6
2016-Dec-02 11:29N 23°01' E 113°32'682188007.0
2016-Dec-02 11:25N 33°37' W 117°55'61237163.9
2016-Dec-02 10:33N 29°51' E 122°11'620558000.6
2016-Dec-02 10:33N 23°01' E 113°32'9641156532.8
2016-Dec-02 10:33N 37°34' E 121°25'8092911382.4
2016-Dec-02 10:33N 24°26' E 117°52'46114809.6
2016-Dec-02 10:31N 31°22' E 121°36'52215534.8
2016-Dec-02 10:29N 39°56' E 119°42'6262561.7
2016-Dec-02 10:15N 29°41' E 122°01'141118.3
2016-Dec-02 10:14N 29°54' E 121°59'39623747.9
2016-Dec-02 10:13N 24°26' E 117°51'2 2.6
2016-Dec-02 09:34N 24°26' E 117°52'807415145.0
2016-Dec-02 09:33N 37°31' E 121°32'461332131.7
2016-Dec-02 09:33N 29°51' E 122°10'465167291.1
2016-Dec-02 09:33N 37°34' E 121°25'964133445.4
2016-Dec-02 09:33N 23°01' E 113°32'106319427.5
2016-Dec-02 09:29N 39°56' E 119°42'50123442.9
2016-Dec-02 09:28N 31°40' E 121°12'271451.8
2016-Dec-02 09:27N 31°22' E 121°35'461516.0
2016-Dec-02 08:33N 24°26' E 117°52'804578615.9
2016-Dec-02 08:33N 37°27' E 121°35'112077.2
2016-Dec-02 08:33N 37°34' E 121°25'809291227.7
2016-Dec-02 08:33N 24°26' E 117°51'399205086.3
2016-Dec-02 08:33N 29°51' E 122°11'12415996.3
2016-Dec-02 08:32N 31°43' E 121°07'1209391.5
2016-Dec-02 08:32N 29°55' E 122°08'9217431.6
2016-Dec-02 08:31N 31°22' E 121°35'52217568.1
2016-Dec-02 08:29N 39°56' E 119°42'10633229.7
2016-Dec-02 08:10N 23°01' E 113°32'9611592.2
2016-Dec-02 07:33N 37°27' E 121°35'4571644340.3
2016-Dec-02 07:33N 29°51' E 122°11'39868212.3
2016-Dec-02 07:33N 24°26' E 117°52'810224436.3
2016-Dec-02 07:33N 37°36' E 121°25'343123386.6
2016-Dec-02 07:33N 31°57' E 120°17'470211307.8
2016-Dec-02 07:33N 24°26' E 117°51'410184575.0
2016-Dec-02 07:32N 29°50' E 122°34'139618.1
2016-Dec-02 07:19N 31°45' E 121°04'66042448.7
2016-Dec-02 07:18N 23°01' E 113°32'10639689.1
2016-Dec-02 07:11N 39°56' E 119°42'162256.0
2016-Dec-02 06:33N 37°36' E 121°25'127199.0
2016-Dec-02 06:33N 37°27' E 121°35'961164753.3
2016-Dec-02 06:33N 23°01' E 113°32'252100716.8
2016-Dec-02 06:33N 24°26' E 117°51'2179.6
2016-Dec-02 06:32N 24°26' E 117°52'46112283.8
2016-Dec-02 06:30N 31°22' E 121°35'9347975.2
2016-Dec-02 06:30N 29°55' E 122°15'61471274.1
2016-Dec-02 06:29N 39°56' E 119°42'10914269.6
2016-Dec-02 06:14N 22°27' E 113°53'9851456.9
2016-Dec-02 05:34N 37°27' E 121°35'961691834.3
2016-Dec-02 05:33N 23°01' E 113°32'9651158326.3
2016-Dec-02 05:33N 37°36' E 121°25'810583521.6
2016-Dec-02 05:33N 24°26' E 117°52'21017.7
2016-Dec-02 05:33N 24°26' E 117°51'40616079.8
2016-Dec-02 05:32N 29°58' E 122°15'141348.3
2016-Dec-02 05:31N 29°54' E 121°59'61322273.6
2016-Dec-02 05:29N 39°56' E 119°42'522156562.5
2016-Dec-02 05:29N 31°22' E 121°35'67414030.0
2016-Dec-02 05:26N 22°30' E 113°51'9821112.3
2016-Dec-02 04:33N 37°27' E 121°35'804361756.0
2016-Dec-02 04:33N 24°26' E 117°51'461237230.6
2016-Dec-02 04:33N 31°22' E 121°35'46134550.2
2016-Dec-02 04:32N 24°26' E 117°52'93519565.5
2016-Dec-02 04:29N 39°56' E 119°42'61223175.8
2016-Dec-02 04:28N 29°58' E 122°15'8337.6
2016-Dec-02 04:26N 29°52' E 122°22'738053244.3
2016-Dec-02 04:18N 05°18' W 004°04'729883939.7
2016-Dec-02 04:13N 31°43' E 121°09'354539.0
2016-Dec-02 03:33N 37°37' E 121°26'128823.8
2016-Dec-02 03:33N 37°27' E 121°35'450324144.6
2016-Dec-02 03:33N 29°58' E 122°15'4051459672.3
2016-Dec-02 03:33N 24°26' E 117°53'2148.7
2016-Dec-02 03:33N 24°26' E 117°51'2524316.8
2016-Dec-02 03:29N 23°01' E 113°32'66119492.6
2016-Dec-02 03:27N 31°22' E 121°35'5222012.4
2016-Dec-02 03:11N 39°56' E 119°42'174273.7
2016-Dec-02 02:33N 37°27' E 121°35'2119296.1
2016-Dec-02 02:33N 37°43' E 121°18'47099584.4
2016-Dec-02 02:33N 29°54' E 121°59'395129209.5
2016-Dec-02 02:33N 24°26' E 117°53'831997328.9
2016-Dec-02 02:33N 38°17' E 118°13'538276701.4
2016-Dec-02 02:33N 29°58' E 122°15'7373442366.2
2016-Dec-02 02:32N 05°18' W 004°04'716352408.7
2016-Dec-02 02:23N 39°56' E 119°42'522187960.1
2016-Dec-02 02:23N 31°22' E 121°35'6612227.9
2016-Dec-02 02:05N 23°01' E 113°31'9611795.7
2016-Dec-02 01:33N 37°27' E 121°35'45041555.9
2016-Dec-02 01:33N 29°58' E 122°15'40556137.1
2016-Dec-02 01:32N 24°26' E 117°53'46147368.2
2016-Dec-02 01:32N 31°22' E 121°35'73261648241.0
2016-Dec-02 01:31N 05°18' W 004°04'7359367937.6
2016-Dec-02 01:30N 29°54' E 121°59'61345002.3
2016-Dec-02 01:29N 39°56' E 119°42'93512652.2
2016-Dec-02 01:25N 24°26' E 117°51'82010173.9
2016-Dec-02 01:20N 38°05' E 118°02'8201049.6
2016-Dec-02 00:33N 24°26' E 117°53'405104165.3
2016-Dec-02 00:33N 29°56' E 122°17'932364.5
2016-Dec-02 00:31N 31°22' E 121°35'52224410.7
2016-Dec-02 00:29N 39°56' E 119°42'93546743.2
2016-Dec-02 00:28N 24°26' E 117°51'3962313.1
2016-Dec-02 00:18N 29°54' E 121°59'73599903.4
2016-Dec-01 23:33N 05°18' W 004°04'7162526198.5
2016-Dec-01 23:33N 24°26' E 117°51'2477.6
2016-Dec-01 23:32N 24°26' E 117°53'93519228.1
2016-Dec-01 23:29N 39°56' E 119°42'61818397.7
2016-Dec-01 23:27N 29°51' E 122°18'4613877.7
2016-Dec-01 23:20N 37°31' E 121°33'170842.3
2016-Dec-01 23:08N 38°05' E 118°02'52914217.4
2016-Dec-01 23:06N 29°54' E 121°59'460847.8
2016-Dec-01 22:33N 37°33' E 121°28'46442828.2
2016-Dec-01 22:33N 29°51' E 122°18'9814762.2
2016-Dec-01 22:32N 31°23' E 121°38'44014136.2
2016-Dec-01 22:30N 38°22' E 118°52'1026012.2
2016-Dec-01 22:29N 39°56' E 119°42'135868.0
2016-Dec-01 22:20N 38°05' E 118°02'165212.1
2016-Dec-01 21:33N 37°33' E 121°28'46498252.9
2016-Dec-01 21:33N 29°51' E 122°18'6183851.4
2016-Dec-01 21:23N 39°56' E 119°42'9353409.3
2016-Dec-01 21:07N 24°26' E 117°53'8091444.0
2016-Dec-01 20:33N 37°33' E 121°28'46441757.5
2016-Dec-01 20:33N 29°51' E 122°18'6183989.5
2016-Dec-01 20:23N 39°56' E 119°42'935560822.5
2016-Dec-01 20:23N 24°26' E 117°53'3954400.3
2016-Dec-01 20:18N 29°54' E 121°59'395530.5
2016-Dec-01 19:33N 24°26' E 117°53'809111962.5
2016-Dec-01 19:33N 37°33' E 121°28'46425307.6
2016-Dec-01 19:32N 29°51' E 122°18'61815788.1
2016-Dec-01 19:29N 39°56' E 119°42'5214171.5
2016-Dec-01 19:22N 31°23' E 121°38'91547.7
2016-Dec-01 19:12N 29°54' E 121°59'460715.9
2016-Dec-01 18:33N 37°33' E 121°28'809582209.0
2016-Dec-01 18:33N 24°26' E 117°53'21671.6
2016-Dec-01 18:33N 24°26' E 117°51'40313817.8
2016-Dec-01 18:31N 29°51' E 122°18'9844292.4
2016-Dec-01 18:31N 31°23' E 121°38'1126.7
2016-Dec-01 18:31N 31°22' E 121°37'52325424.1
2016-Dec-01 18:29N 39°56' E 119°42'6133200.5
2016-Dec-01 18:18N 29°54' E 121°59'460621.1
2016-Dec-01 17:34N 37°33' E 121°28'464556773.4
2016-Dec-01 17:33N 29°51' E 122°18'10218305.3
2016-Dec-01 17:33N 31°25' E 121°31'46115231.4
2016-Dec-01 17:31N 24°26' E 117°53'21671.7
2016-Dec-01 17:31N 24°26' E 117°51'46328739.5
2016-Dec-01 17:30N 31°23' E 121°38'912624.9
2016-Dec-01 17:28N 29°54' E 121°59'6133424.1
2016-Dec-01 17:17N 39°56' E 119°42'165225.4
2016-Dec-01 16:34N 37°33' E 121°28'36994944.0
2016-Dec-01 16:33N 31°24' E 121°31'51361.0
2016-Dec-01 16:33N 31°28' E 121°27'46236186.6
2016-Dec-01 16:32N 24°26' E 117°53'4031069.8
2016-Dec-01 16:10N 29°54' E 122°16'4045085.5
2016-Dec-01 16:05N 24°26' E 117°51'8091533.6
2016-Dec-01 15:33N 37°33' E 121°28'362100286.4
2016-Dec-01 15:33N 31°31' E 121°21'46337071.7
2016-Dec-01 15:32N 24°26' E 117°53'46179065.7
2016-Dec-01 15:32N 31°22' E 121°39'217.7
2016-Dec-01 15:25N 31°23' E 121°38'911697.1
2016-Dec-01 15:22N 29°58' E 122°15'53116332.9
2016-Dec-01 15:20N 38°05' E 118°02'82026580.4
2016-Dec-01 15:18N 24°26' E 117°51'93568683.0
2016-Dec-01 15:17N 39°56' E 119°42'6133219.1
2016-Dec-01 15:06N 29°54' E 121°59'460845.5
2016-Dec-01 14:33N 37°33' E 121°28'3701331237.8
2016-Dec-01 14:33N 31°23' E 121°31'461207250.3
2016-Dec-01 14:33N 24°26' E 117°51'40633256.2
2016-Dec-01 14:32N 29°58' E 122°15'40566343.6
2016-Dec-01 14:32N 24°26' E 117°53'467560479.2
2016-Dec-01 14:32N 31°37' E 121°15'24989.4
2016-Dec-01 14:31N 31°23' E 121°38'91817.9
2016-Dec-01 14:24N 29°54' E 121°59'735926976.7
2016-Dec-01 14:08N 05°18' W 004°04'1 2.2
2016-Dec-01 13:33N 05°18' W 004°02'729513130489.3
2016-Dec-01 13:33N 31°44' E 121°06'350630026.1
2016-Dec-01 13:33N 37°33' E 121°28'46082778.7
2016-Dec-01 13:33N 29°54' E 121°59'14371.2
2016-Dec-01 13:31N 29°58' E 122°15'56952525.7
2016-Dec-01 13:30N 38°39' E 117°39'85342662.3
2016-Dec-01 13:29N 24°26' E 117°53'4621157.3
2016-Dec-01 13:05N 31°23' E 121°38'370702.2
2016-Dec-01 12:33N 37°33' E 121°28'72712379676.8
2016-Dec-01 12:33N 05°17' W 004°01'73731154003.8
2016-Dec-01 12:33N 29°55' E 122°17'40513368.1
2016-Dec-01 12:31N 24°26' E 117°53'46215849.6
2016-Dec-01 12:29N 31°23' E 121°38'370397.3
2016-Dec-01 11:33N 37°33' E 121°28'7271409004.1
2016-Dec-01 11:32N 05°17' W 004°01'7373166929.2
2016-Dec-01 11:30N 29°53' E 122°17'4021038.9
2016-Dec-01 11:06N 24°26' E 117°53'8091448.0
2016-Dec-01 10:33N 37°34' E 121°27'7271513242.1
2016-Dec-01 10:32N 05°17' W 004°01'7374165917.9
2016-Dec-01 10:29N 29°51' E 122°18'4031180.0
2016-Dec-01 10:09N 24°26' E 117°51'8171386.2
2016-Dec-01 09:34N 37°41' E 121°29'816734713.7
2016-Dec-01 09:33N 24°26' E 117°53'71622578216.9
2016-Dec-01 09:33N 05°17' W 004°01'7371245695.9
2016-Dec-01 09:32N 29°57' E 122°15'40633255.3
2016-Dec-01 09:31N 24°26' E 117°51'824862.9
2016-Dec-01 08:33N 37°48' E 121°30'824185420.8
2016-Dec-01 08:33N 24°26' E 117°51'2196.7
2016-Dec-01 08:33N 24°26' E 117°53'46224473.1
2016-Dec-01 08:32N 31°23' E 121°38'91497.5
2016-Dec-01 08:20N 29°58' E 122°15'1552019.7
2016-Dec-01 08:16N 32°04' E 120°30'479674.0
2016-Dec-01 07:33N 24°26' E 117°51'7160402737.1
2016-Dec-01 07:32N 05°17' W 004°01'7162805693.4
2016-Dec-01 07:32N 24°26' E 117°53'4056884.7
2016-Dec-01 07:28N 29°58' E 122°15'9123527.0
2016-Dec-01 07:28N 31°23' E 121°38'916309.1
2016-Dec-01 07:27N 29°54' E 121°59'395441.3
2016-Dec-01 06:33N 24°26' E 117°53'21114.4
2016-Dec-01 06:33N 24°26' E 117°51'4068348.4
2016-Dec-01 06:30N 29°56' E 122°17'7373104905.5
2016-Dec-01 06:26N 05°17' W 004°01'735725989.7
2016-Dec-01 06:09N 29°54' E 121°59'396655.7
2016-Dec-01 05:33N 24°26' E 117°51'403724696.7
2016-Dec-01 05:33N 29°51' E 122°17'164661.1
2016-Dec-01 05:33N 29°54' E 121°59'39525841.9
2016-Dec-01 05:32N 24°26' E 117°53'716265603.6
2016-Dec-01 05:25N 05°17' W 004°01'7259237562.7
2016-Dec-01 05:23N 32°04' E 120°31'70854.6
2016-Dec-01 05:18N 31°23' E 121°38'0 0.0
2016-Dec-01 04:33N 31°23' E 121°38'46379374.8
2016-Dec-01 04:33N 24°26' E 117°51'716012887592.3
2016-Dec-01 04:33N 05°17' W 004°01'716225782198.2
2016-Dec-01 04:33N 24°26' E 117°53'40232157.2
2016-Dec-01 04:32N 29°51' E 122°18'6182585.5
2016-Dec-01 04:17N 39°56' E 119°42'52262669.7
2016-Dec-01 04:17N 31°21' E 121°30'911307.8
2016-Dec-01 04:13N 29°54' E 121°59'1522.7
2016-Dec-01 03:33N 29°55' E 122°17'7373856167.1
2016-Dec-01 03:32N 05°17' W 004°01'7160758094.7
2016-Dec-01 03:32N 24°26' E 117°51'2477.6
2016-Dec-01 03:32N 24°26' E 117°53'45827466.5
2016-Dec-01 03:31N 31°21' E 121°30'737.6
2016-Dec-01 03:20N 31°23' E 121°38'52111731.8
2016-Dec-01 03:17N 39°56' E 119°42'10919943.4
2016-Dec-01 03:11N 22°27' E 113°52'249396.7
2016-Dec-01 02:33N 24°26' E 117°51'2668.7
2016-Dec-01 02:33N 24°26' E 117°53'40548651.4
2016-Dec-01 02:33N 29°58' E 122°15'61211710.3
2016-Dec-01 02:29N 39°56' E 119°42'5224362.2
2016-Dec-01 02:22N 31°21' E 121°30'67533727.7
2016-Dec-01 02:21N 22°24' E 113°53'6944117925.1
2016-Dec-01 02:17N 05°17' W 004°01'732549850.4
2016-Dec-01 02:09N 31°23' E 121°38'478791.9
2016-Dec-01 01:32N 38°39' E 117°39'70606354041.6
2016-Dec-01 01:32N 05°17' W 004°01'73701105569.0
2016-Dec-01 01:32N 29°58' E 122°15'9337174.6
2016-Dec-01 01:32N 31°22' E 121°30'7743.2
2016-Dec-01 01:31N 31°23' E 121°38'52116466.4
2016-Dec-01 01:29N 39°56' E 119°42'93510258.9
2016-Dec-01 01:24N 24°26' E 117°53'87760708.7
2016-Dec-01 01:23N 38°41' E 121°42'190228.9
2016-Dec-01 00:33N 38°39' E 117°39'478343828.4
2016-Dec-01 00:33N 31°23' E 121°38'9223685.4
2016-Dec-01 00:33N 29°57' E 122°16'53076384.1
2016-Dec-01 00:33N 38°47' E 121°44'44588996.7
2016-Dec-01 00:32N 31°22' E 121°30'73181317255.2
2016-Dec-01 00:32N 05°17' W 004°01'7161171852.4
2016-Dec-01 00:29N 39°56' E 119°42'9357190.0
2016-Dec-01 00:22N 24°26' E 117°53'0 0.0
2016-Nov-30 23:33N 24°26' E 117°53'21337.3
2016-Nov-30 23:33N 24°26' E 117°51'403241530.8
2016-Nov-30 23:33N 29°51' E 122°17'73731263978.1
2016-Nov-30 23:33N 05°17' W 004°01'73181254529.4
2016-Nov-30 23:32N 31°22' E 121°30'7288.5
2016-Nov-30 23:31N 31°23' E 121°38'5214134.7
2016-Nov-30 23:23N 39°56' E 119°42'1221363.5
2016-Nov-30 23:18N 38°39' E 117°39'8531141.8
2016-Nov-30 22:33N 24°26' E 117°51'2180.7
2016-Nov-30 22:33N 24°26' E 117°53'71626445547.4
2016-Nov-30 22:33N 05°17' W 004°01'7374255263.8
2016-Nov-30 22:31N 29°51' E 122°18'98727.5
2016-Nov-30 22:23N 31°23' E 121°38'47614285.2
2016-Nov-30 22:21N 24°08' E 117°60'1924.4
2016-Nov-30 21:33N 24°26' E 117°53'2278.6
2016-Nov-30 21:33N 24°26' E 117°51'47133260.6
2016-Nov-30 21:32N 31°44' E 121°06'48945143.0
2016-Nov-30 21:31N 24°03' E 118°04'71752869988.9
2016-Nov-30 21:31N 05°17' W 004°01'7372208982.1
2016-Nov-30 21:29N 29°56' E 122°17'941996.2
2016-Nov-30 21:26N 31°23' E 121°38'703092.2
2016-Nov-30 21:25N 32°04' E 120°31'4192881.0
2016-Nov-30 21:16N 38°39' E 117°39'422589.6
2016-Nov-30 20:33N 31°58' E 120°17'7831175.9
2016-Nov-30 20:33N 31°22' E 121°39'73261883896.1
2016-Nov-30 20:33N 05°17' W 004°01'7302536503.6
2016-Nov-30 20:32N 31°38' E 121°15'468168311.7
2016-Nov-30 20:32N 24°26' E 117°53'40514743.0
2016-Nov-30 20:30N 29°58' E 122°15'4066532.5
2016-Nov-30 20:27N 24°26' E 117°51'4791548.3
2016-Nov-30 20:08N 32°04' E 120°29'156270.5
2016-Nov-30 19:33N 29°58' E 122°15'1033988.9
2016-Nov-30 19:32N 31°31' E 121°24'46422273.9
2016-Nov-30 19:31N 24°26' E 117°53'7162363129.1
2016-Nov-30 19:29N 05°17' W 004°01'7252246299.6
2016-Nov-30 19:28N 32°01' E 120°24'4758142.6
2016-Nov-30 19:24N 24°26' E 117°51'0 0.0
2016-Nov-30 18:33N 24°26' E 117°51'40697551.5
2016-Nov-30 18:33N 29°58' E 122°15'157563650.8
2016-Nov-30 18:33N 31°57' E 120°16'72260279.8
2016-Nov-30 18:33N 31°25' E 121°32'73201098023.8
2016-Nov-30 18:33N 05°17' W 004°01'73707470.1
2016-Nov-30 17:33N 29°58' E 122°15'7370247978.1
2016-Nov-30 17:32N 05°17' W 004°01'7234394581.7
2016-Nov-30 17:30N 31°57' E 120°03'33810311.5
2016-Nov-30 17:28N 37°06' E 122°51'4322875.9
2016-Nov-30 17:19N 29°57' E 121°50'6235580.1
2016-Nov-30 17:13N 22°24' E 113°53'4 6.2
2016-Nov-30 16:32N 22°29' E 113°52'6943416598.2
2016-Nov-30 16:31N 05°17' W 004°01'71607428.0
2016-Nov-30 15:33N 24°26' E 117°51'2290.7
2016-Nov-30 15:32N 24°26' E 117°53'7162102717.8
2016-Nov-30 15:28N 05°17' W 004°01'737030997.2
2016-Nov-30 15:14N 29°58' E 122°15'568841.0
2016-Nov-30 14:33N 38°39' E 117°41'853236237.0
2016-Nov-30 14:33N 24°26' E 117°51'46128586.8
2016-Nov-30 14:32N 31°18' E 121°43'8511796.9
2016-Nov-30 14:32N 29°58' E 122°15'54615353.1
2016-Nov-30 14:30N 38°20' E 117°56'126415.3
2016-Nov-30 14:11N 39°56' E 119°42'612966.9
2016-Nov-30 13:33N 29°58' E 122°15'943014.4
2016-Nov-30 13:32N 31°23' E 121°30'52014637.7
2016-Nov-30 13:29N 39°56' E 119°42'9359347.0
2016-Nov-30 13:23N 24°26' E 117°53'71621289108.6
2016-Nov-30 13:23N 05°17' W 004°01'7084125010.8
2016-Nov-30 13:20N 38°05' E 118°02'8201059.0
2016-Nov-30 12:33N 24°26' E 117°53'40541702.2
2016-Nov-30 12:33N 29°58' E 122°15'7370257608.0
2016-Nov-30 12:31N 05°17' W 004°01'7161274232.6
2016-Nov-30 12:29N 39°56' E 119°42'1352236.2
2016-Nov-30 12:26N 38°05' E 118°02'44311724.1
2016-Nov-30 12:24N 31°20' E 121°40'4 4.5
2016-Nov-30 11:32N 31°23' E 121°37'52115637.2
2016-Nov-30 11:30N 39°56' E 119°42'612137599.8
2016-Nov-30 11:29N 29°58' E 122°15'737137636.8
2016-Nov-30 11:18N 05°17' W 004°01'733188862.6
2016-Nov-30 11:13N 31°18' E 121°43'710.6
2016-Nov-30 10:33N 31°22' E 121°37'1153.5
2016-Nov-30 10:32N 31°23' E 121°37'92706.9
2016-Nov-30 10:24N 29°58' E 122°15'6125267.0
2016-Nov-30 10:17N 39°56' E 119°42'612818.5
2016-Nov-30 09:33N 29°58' E 122°15'61211527.3
2016-Nov-30 09:29N 39°56' E 119°42'935420614.2
2016-Nov-30 09:29N 24°26' E 117°53'46287587.5
2016-Nov-30 09:29N 31°23' E 121°37'92325.3
2016-Nov-30 09:12N 29°54' E 122°02'397238043.2
2016-Nov-30 09:12N 24°26' E 117°51'0 0.0
2016-Nov-30 08:33N 24°26' E 117°51'46315017.1
2016-Nov-30 08:31N 31°23' E 121°37'52124369.7
2016-Nov-30 08:29N 39°56' E 119°42'93526084.6
2016-Nov-30 08:27N 24°26' E 117°53'4056291.1
2016-Nov-30 08:23N 29°58' E 122°15'962080.5
2016-Nov-30 08:21N 31°06' E 120°57'433547.4
2016-Nov-30 07:33N 24°26' E 117°51'463208365.1
2016-Nov-30 07:33N 31°23' E 121°37'46234670.5
2016-Nov-30 07:32N 24°26' E 117°53'40576822.4
2016-Nov-30 07:32N 29°57' E 122°15'61214688.8
2016-Nov-30 07:29N 39°56' E 119°42'7162263093.6
2016-Nov-30 07:28N 05°16' W 004°02'71617772.0
2016-Nov-30 06:33N 24°26' E 117°51'935560911.3
2016-Nov-30 06:32N 39°56' E 119°42'93537808.0
2016-Nov-30 06:31N 24°26' E 117°53'46216641.6
2016-Nov-30 06:29N 31°23' E 121°37'73262028819.5
2016-Nov-30 06:29N 05°16' W 004°02'71617690.9
2016-Nov-30 05:33N 24°26' E 117°51'2445.8
2016-Nov-30 05:33N 24°26' E 117°53'462166404.2
2016-Nov-30 05:33N 31°23' E 121°37'521134034.0
2016-Nov-30 05:33N 39°56' E 119°42'716290786.1
2016-Nov-30 05:28N 05°16' W 004°02'7374252838.2
2016-Nov-30 05:26N 29°51' E 122°17'6263028.0
2016-Nov-30 05:14N 22°59' E 113°31'5 7.9
2016-Nov-30 04:33N 23°04' E 113°29'106173442.5
2016-Nov-30 04:32N 39°56' E 119°42'52162549.2
2016-Nov-30 04:32N 31°23' E 121°37'46283202.1
2016-Nov-30 04:32N 24°26' E 117°53'716325786906.6
2016-Nov-30 04:32N 05°16' W 004°02'71618593297.7
2016-Nov-30 04:32N 24°26' E 117°51'249799.6
2016-Nov-30 04:13N 22°28' E 113°52'63519692.4
2016-Nov-30 04:11N 29°51' E 122°18'99157.7
2016-Nov-30 03:33N 31°23' E 121°37'66288275.8
2016-Nov-30 03:33N 23°06' E 113°26'255131123.9
2016-Nov-30 03:33N 24°26' E 117°51'257.6
2016-Nov-30 03:31N 24°26' E 117°53'40512351.1
2016-Nov-30 03:29N 29°56' E 122°17'7374379226.1
2016-Nov-30 03:28N 05°16' W 004°02'69167616.7
2016-Nov-30 02:33N 23°06' E 113°26'255152977.9
2016-Nov-30 02:33N 24°26' E 117°51'463277796.7
2016-Nov-30 02:33N 31°23' E 121°37'46211020.1
2016-Nov-30 02:31N 24°26' E 117°53'71633683839.0
2016-Nov-30 02:31N 05°16' W 004°02'737250073.4
2016-Nov-30 02:22N 29°58' E 122°15'6124299.7
2016-Nov-30 02:13N 39°56' E 119°42'52665350.2
2016-Nov-30 02:13N 31°19' E 121°43'867200.4
2016-Nov-30 02:12N 29°54' E 121°59'615955.8
2016-Nov-30 01:33N 23°05' E 113°26'25722019.6
2016-Nov-30 01:33N 24°26' E 117°53'46252005.1
2016-Nov-30 01:32N 31°23' E 121°37'921310.4
2016-Nov-30 01:28N 29°58' E 122°15'4062920.7
2016-Nov-30 01:20N 24°26' E 117°51'935146314.4
2016-Nov-30 01:19N 39°56' E 119°42'6125741.8
2016-Nov-30 01:13N 29°54' E 121°59'7358529766.7
2016-Nov-30 01:12N 05°16' W 004°02'691610750.8
2016-Nov-30 00:33N 23°05' E 113°26'69161464639.1
2016-Nov-30 00:33N 05°16' W 004°02'7373541725.7
2016-Nov-30 00:32N 29°56' E 122°16'40666499.1
2016-Nov-30 00:32N 24°26' E 117°51'93578261.2
2016-Nov-30 00:31N 39°56' E 119°42'93536974.5
2016-Nov-30 00:30N 24°26' E 117°53'46236930.0
2016-Nov-30 00:29N 31°21' E 121°41'4410.2
2016-Nov-30 00:28N 31°23' E 121°37'6 7.0
2016-Nov-29 23:33N 31°25' E 121°30'611500.8
2016-Nov-29 23:33N 31°23' E 121°37'662340667.0
2016-Nov-29 23:33N 23°05' E 113°26'69162766539.1
2016-Nov-29 23:33N 05°16' W 004°02'7161696751.7
2016-Nov-29 23:33N 24°26' E 117°51'40365935.3
2016-Nov-29 23:32N 29°51' E 122°18'61834244.4
2016-Nov-29 23:31N 39°56' E 119°42'5154909.3
2016-Nov-29 23:25N 31°30' E 121°39'1820.7
2016-Nov-29 22:33N 31°34' E 121°19'660263820.1
2016-Nov-29 22:33N 23°05' E 113°26'257308274.0
2016-Nov-29 22:33N 24°26' E 117°53'264.3
2016-Nov-29 22:32N 24°26' E 117°51'935134609.3
2016-Nov-29 22:31N 39°56' E 119°42'513615532.8
2016-Nov-29 22:31N 31°30' E 121°28'10291.3
2016-Nov-29 22:29N 31°23' E 121°37'732668863.4
2016-Nov-29 22:23N 05°16' W 004°02'69178430.0
2016-Nov-29 21:33N 23°06' E 113°27'256307183.2
2016-Nov-29 21:33N 24°26' E 117°53'2104.5
2016-Nov-29 21:32N 24°26' E 117°51'46640896.5
2016-Nov-29 21:32N 31°34' E 121°19'73088769168.5
2016-Nov-29 21:31N 05°16' W 004°02'716267850.9
2016-Nov-29 21:25N 39°56' E 119°42'9351085.0
2016-Nov-29 20:33N 24°26' E 117°53'256115192.8
2016-Nov-29 20:33N 23°06' E 113°27'25433895.7
2016-Nov-29 20:33N 24°26' E 117°51'46919202.4
2016-Nov-29 20:31N 31°41' E 121°11'500112587.5
2016-Nov-29 20:31N 39°56' E 119°42'6181892.7
2016-Nov-29 20:12N 29°51' E 122°18'402633.0
2016-Nov-29 19:33N 24°26' E 117°53'256131650.9
2016-Nov-29 19:33N 23°06' E 113°27'254130742.3
2016-Nov-29 19:33N 24°26' E 117°51'46326044.7
2016-Nov-29 19:32N 31°23' E 121°37'7326599421.4
2016-Nov-29 19:31N 05°16' W 004°02'716268572.5
2016-Nov-29 19:25N 39°56' E 119°42'61860158.7
2016-Nov-29 19:25N 29°51' E 122°18'1653.1
2016-Nov-29 19:06N 29°54' E 121°59'395725.5
2016-Nov-29 18:33N 24°26' E 117°53'402361764.7
2016-Nov-29 18:33N 29°51' E 122°18'4031450873.3
2016-Nov-29 18:33N 24°26' E 117°51'46326456.8
2016-Nov-29 18:32N 31°23' E 121°37'52130262.0
2016-Nov-29 18:31N 39°56' E 119°42'109312987.3
2016-Nov-29 18:26N 22°24' E 113°53'62717225.8
2016-Nov-29 18:24N 29°54' E 121°59'7358144745.3
2016-Nov-29 18:21N 05°16' W 004°02'6917114756.4
2016-Nov-29 18:17N 23°06' E 113°27'256349.5
2016-Nov-29 17:33N 24°26' E 117°53'25640067.3
2016-Nov-29 17:33N 23°06' E 113°27'66025003.0
2016-Nov-29 17:31N 31°40' E 121°12'501180355.2
2016-Nov-29 17:31N 39°56' E 119°42'93561185.6
2016-Nov-29 17:30N 24°26' E 117°51'4036535.4
2016-Nov-29 17:27N 29°51' E 122°18'16114.7
2016-Nov-29 17:18N 29°54' E 121°59'1164167.7
2016-Nov-29 17:16N 31°42' E 121°10'469658.1
2016-Nov-29 16:33N 24°26' E 117°53'25627925.7
2016-Nov-29 16:33N 23°06' E 113°27'659169504.0
2016-Nov-29 16:33N 31°34' E 121°19'50820088.9
2016-Nov-29 16:31N 39°56' E 119°42'49917977.5
2016-Nov-29 16:30N 31°42' E 121°10'116395.4
2016-Nov-29 16:12N 29°54' E 121°59'16147.2
2016-Nov-29 16:05N 29°51' E 122°18'402759.2
2016-Nov-29 15:33N 24°26' E 117°53'463166805.2
2016-Nov-29 15:33N 31°29' E 121°27'10764346.5
2016-Nov-29 15:33N 29°51' E 122°18'625187454.7
2016-Nov-29 15:33N 23°06' E 113°27'106081166.6
2016-Nov-29 15:32N 39°56' E 119°42'6124366.1
2016-Nov-29 15:24N 29°54' E 121°59'3961424912.2
2016-Nov-29 15:24N 24°26' E 117°51'46311905.9
2016-Nov-29 15:21N 31°23' E 121°37'662824.7
2016-Nov-29 14:33N 23°06' E 113°27'254130740.4
2016-Nov-29 14:33N 24°26' E 117°51'2196.7
2016-Nov-29 14:33N 24°26' E 117°53'46233281.2
2016-Nov-29 14:32N 31°23' E 121°37'122.3
2016-Nov-29 14:29N 31°23' E 121°36'5219336.2
2016-Nov-29 14:25N 39°56' E 119°42'6189936.9
2016-Nov-29 14:21N 29°51' E 122°18'625777.3
2016-Nov-29 13:33N 23°06' E 113°27'256184309.9
2016-Nov-29 13:33N 24°26' E 117°53'46227735.7
2016-Nov-29 13:32N 31°23' E 121°37'67742027.9
2016-Nov-29 13:31N 22°28' E 113°52'6349027.1
2016-Nov-29 13:27N 29°51' E 122°18'1647.1
2016-Nov-29 13:06N 29°54' E 121°59'1528.2
2016-Nov-29 12:33N 29°52' E 122°17'62430366.7
2016-Nov-29 12:32N 23°06' E 113°27'66249625.2
2016-Nov-29 12:31N 31°23' E 121°37'521117263.2
2016-Nov-29 12:31N 39°56' E 119°42'61216830.8
2016-Nov-29 12:29N 29°54' E 121°59'3951892.5
2016-Nov-29 12:16N 24°26' E 117°53'46224800.8
2016-Nov-29 12:15N 31°25' E 121°32'85953.6
2016-Nov-29 12:10N 31°59' E 119°60'4674683.1
2016-Nov-29 12:04N 24°26' E 117°51'2 3.6
2016-Nov-29 11:33N 24°26' E 117°53'45849961.5
2016-Nov-29 11:33N 31°22' E 121°30'656196856.9
2016-Nov-29 11:33N 23°06' E 113°27'96286566.1
2016-Nov-29 11:32N 38°41' E 117°49'56723746.2
2016-Nov-29 11:30N 29°58' E 122°15'926879.4
2016-Nov-29 11:30N 31°23' E 121°37'5216897.9
2016-Nov-29 11:25N 39°56' E 119°42'9353208.0
2016-Nov-29 11:08N 24°26' E 117°51'2733.2
2016-Nov-29 11:07N 24°26' E 117°53'462815.9
2016-Nov-29 10:34N 31°23' E 121°37'462138607.0
2016-Nov-29 10:33N 24°26' E 117°53'2123.8
2016-Nov-29 10:32N 24°26' E 117°51'406365817.1
2016-Nov-29 10:32N 29°58' E 122°15'405291780.9
2016-Nov-29 10:32N 24°26' E 117°53'93549480.6
2016-Nov-29 10:31N 39°56' E 119°42'106010200.4
2016-Nov-29 10:25N 23°06' E 113°27'6151776.9
2016-Nov-29 10:04N 29°54' E 122°00'395768.1
2016-Nov-29 09:33N 24°26' E 117°53'256153635.8
2016-Nov-29 09:33N 23°06' E 113°27'25423473.2
2016-Nov-29 09:33N 24°26' E 117°51'40660968.5
2016-Nov-29 09:32N 29°58' E 122°15'61237956.4
2016-Nov-29 09:31N 39°56' E 119°42'6122266.0
2016-Nov-29 09:15N 29°54' E 121°59'3953214.2
2016-Nov-29 09:08N 24°26' E 117°53'462810.9
2016-Nov-29 08:33N 31°24' E 121°36'662596029.1
2016-Nov-29 08:33N 23°05' E 113°26'257924756.9
2016-Nov-29 08:33N 24°26' E 117°53'032.2
2016-Nov-29 08:33N 24°26' E 117°53'2384.1
2016-Nov-29 08:32N 24°26' E 117°51'93555167.4
2016-Nov-29 08:31N 39°56' E 119°42'6134126.3
2016-Nov-29 08:22N 29°56' E 122°17'13640.3
2016-Nov-29 08:21N 29°54' E 122°02'736046648.4
2016-Nov-29 08:12N 05°16' W 004°02'691710844.8
2016-Nov-29 07:33N 23°05' E 113°26'626321740.8
2016-Nov-29 07:33N 29°53' E 122°16'81992.6
2016-Nov-29 07:33N 29°55' E 122°07'399718014.3
2016-Nov-29 07:33N 24°26' E 117°53'22688.6
2016-Nov-29 07:33N 24°26' E 117°51'2257.2
2016-Nov-29 07:32N 24°26' E 117°53'46272359.4
2016-Nov-29 07:32N 31°24' E 121°36'7325527379.6
2016-Nov-29 07:31N 05°16' W 004°02'71628594395.2
2016-Nov-29 07:31N 39°56' E 119°42'10601103.4
2016-Nov-29 06:34N 23°05' E 113°26'25516112.3
2016-Nov-29 06:33N 24°26' E 117°51'2424.5
2016-Nov-29 06:32N 24°26' E 117°53'402120534.1
2016-Nov-29 06:32N 29°51' E 122°18'61840470.4
2016-Nov-29 06:31N 39°56' E 119°42'9359294.7
2016-Nov-29 06:25N 24°26' E 117°53'4602753.6
2016-Nov-29 06:15N 31°24' E 121°31'488.1
2016-Nov-29 06:12N 31°24' E 121°36'3839246.1
2016-Nov-29 06:10N 37°46' E 121°14'6 9.2
2016-Nov-29 05:33N 37°42' E 121°19'37890837.2
2016-Nov-29 05:33N 31°24' E 121°32'461331703.0
2016-Nov-29 05:33N 24°26' E 117°53'257154338.6
2016-Nov-29 05:33N 23°05' E 113°26'25524168.4
2016-Nov-29 05:32N 24°26' E 117°51'46324514.8
2016-Nov-29 05:31N 31°24' E 121°36'46297899.2
2016-Nov-29 05:31N 24°26' E 117°53'9354806.7
2016-Nov-29 05:19N 39°56' E 119°42'10601387.8
2016-Nov-29 04:33N 23°05' E 113°26'255459200.1
2016-Nov-29 04:33N 24°26' E 117°51'2955.2
2016-Nov-29 04:33N 24°26' E 117°53'8111458989.5
2016-Nov-29 04:33N 37°35' E 121°27'811324201.4
2016-Nov-29 04:33N 24°26' E 117°53'93533313.5
2016-Nov-29 04:31N 39°56' E 119°42'5236036.3
2016-Nov-29 04:26N 31°22' E 121°39'435.5
2016-Nov-29 04:20N 31°24' E 121°36'100707.2
2016-Nov-29 04:11N 29°51' E 122°18'466735.6
2016-Nov-29 03:33N 37°36' E 121°25'963123867.5
2016-Nov-29 03:33N 23°04' E 113°29'25557390.7
2016-Nov-29 03:33N 24°26' E 117°53'0461.6
2016-Nov-29 03:33N 24°26' E 117°53'25182069.3
2016-Nov-29 03:32N 22°27' E 113°52'109152357.2
2016-Nov-29 03:31N 39°56' E 119°42'93590951.6
2016-Nov-29 03:31N 24°26' E 117°51'403120906.1
2016-Nov-29 03:30N 29°51' E 122°18'1001823.6
2016-Nov-29 03:27N 31°24' E 121°36'372415.3
2016-Nov-29 02:33N 37°36' E 121°25'467167944.3
2016-Nov-29 02:33N 29°51' E 122°18'625374948.8
2016-Nov-29 02:33N 23°01' E 113°32'254101411.5
2016-Nov-29 02:33N 24°26' E 117°53'060.0
2016-Nov-29 02:33N 24°26' E 117°53'93538234.5
2016-Nov-29 02:31N 39°56' E 119°42'1181228.3
2016-Nov-29 02:25N 38°47' E 121°46'1802040.6
2016-Nov-29 02:20N 38°05' E 118°02'820268219.9
2016-Nov-29 02:20N 24°26' E 117°51'4634517.7
2016-Nov-29 02:14N 31°24' E 121°36'372553.2
2016-Nov-29 01:33N 37°36' E 121°25'811243208.5
2016-Nov-29 01:33N 24°26' E 117°51'8801584569.3
2016-Nov-29 01:33N 38°43' E 121°45'52719147.5
2016-Nov-29 01:32N 29°57' E 122°15'612100114.4
2016-Nov-29 01:31N 39°56' E 119°42'93546091.2
2016-Nov-29 01:30N 24°26' E 117°53'25427657.7
2016-Nov-29 01:29N 23°01' E 113°32'66211862.0
2016-Nov-29 01:26N 31°24' E 121°36'94690.2
2016-Nov-29 01:18N 29°53' E 122°03'463623.7
2016-Nov-29 00:33N 37°36' E 121°25'810972382.0
2016-Nov-29 00:33N 24°26' E 117°53'405291905.9
2016-Nov-29 00:33N 29°58' E 122°15'527189683.3
2016-Nov-29 00:33N 38°44' E 121°47'881102341.8
2016-Nov-29 00:33N 24°26' E 117°51'25221115.4
2016-Nov-29 00:32N 23°02' E 113°31'10629514.3
2016-Nov-29 00:25N 39°56' E 119°42'6132792.1
2016-Nov-29 00:12N 29°54' E 122°03'616956.0
2016-Nov-28 23:33N 23°02' E 113°31'965868628.5
2016-Nov-28 23:33N 37°36' E 121°25'81137417.8
2016-Nov-28 23:32N 24°26' E 117°51'93573157.2
2016-Nov-28 23:31N 39°56' E 119°42'716297664.0
2016-Nov-28 23:27N 05°16' W 004°02'71631031473.4
2016-Nov-28 23:26N 24°26' E 117°53'3959870.2
2016-Nov-28 23:24N 29°54' E 121°59'462549.7
2016-Nov-28 22:33N 37°36' E 121°25'811224506.6
2016-Nov-28 22:33N 24°26' E 117°51'25250482.2
2016-Nov-28 22:33N 23°02' E 113°31'6272257105.4
2016-Nov-28 22:33N 29°58' E 122°15'61221168.0
2016-Nov-28 22:31N 39°56' E 119°42'52021045.4
2016-Nov-28 22:30N 31°24' E 121°36'462554770.0
2016-Nov-28 22:30N 24°26' E 117°53'3954168.1
2016-Nov-28 22:24N 29°54' E 121°59'395467.7
2016-Nov-28 21:33N 24°26' E 117°53'254305001.8
2016-Nov-28 21:33N 23°02' E 113°31'6271128594.6
2016-Nov-28 21:33N 29°58' E 122°15'460275931.5
2016-Nov-28 21:33N 37°36' E 121°25'72702180933.1
2016-Nov-28 21:33N 05°16' W 004°02'732526368870.1
2016-Nov-28 21:33N 31°24' E 121°36'46327328.0
2016-Nov-28 21:32N 24°26' E 117°51'93578260.7
2016-Nov-28 21:31N 39°56' E 119°42'61229795.1
2016-Nov-28 21:30N 29°54' E 121°59'462491.6
2016-Nov-28 20:34N 37°36' E 121°25'810243102.5
2016-Nov-28 20:33N 24°26' E 117°53'2257.2
2016-Nov-28 20:33N 24°26' E 117°51'25220193.0
2016-Nov-28 20:32N 23°02' E 113°31'106363755.9
2016-Nov-28 20:31N 39°56' E 119°42'611157240.3
2016-Nov-28 20:31N 29°58' E 122°15'932227.0
2016-Nov-28 20:28N 31°24' E 121°36'921239.3
2016-Nov-28 20:24N 29°54' E 121°59'462549.4
2016-Nov-28 19:33N 37°36' E 121°25'810416747.1
2016-Nov-28 19:33N 24°26' E 117°53'854128033.0
2016-Nov-28 19:33N 38°39' E 117°45'56720225.5
2016-Nov-28 19:31N 29°58' E 122°15'611440273.0
2016-Nov-28 19:31N 39°56' E 119°42'52056758.8
2016-Nov-28 19:31N 31°24' E 121°36'6627268.8
2016-Nov-28 19:25N 23°02' E 113°31'6145132.1
2016-Nov-28 19:18N 29°54' E 121°59'462618.8
2016-Nov-28 18:33N 37°36' E 121°25'810364651.1
2016-Nov-28 18:33N 24°26' E 117°53'462416067.7
2016-Nov-28 18:33N 31°24' E 121°36'934175.3
2016-Nov-28 18:32N 29°58' E 122°15'61188054.6
2016-Nov-28 18:31N 39°56' E 119°42'106360719.6
2016-Nov-28 18:30N 23°02' E 113°31'614276492.1
2016-Nov-28 18:30N 29°54' E 121°59'3969827.0
2016-Nov-28 18:28N 24°26' E 117°51'7161107864.0
2016-Nov-28 18:24N 05°16' W 004°02'71638578.3
2016-Nov-28 17:33N 24°26' E 117°53'2477.6
2016-Nov-28 17:33N 24°26' E 117°51'4061463349.1
2016-Nov-28 17:33N 29°58' E 122°15'460275931.5
2016-Nov-28 17:33N 37°36' E 121°25'462237803.5
2016-Nov-28 17:33N 29°54' E 121°59'61429481.0
2016-Nov-28 17:32N 23°01' E 113°32'1063100695.7
2016-Nov-28 17:31N 39°56' E 119°42'7162118814.8
2016-Nov-28 17:28N 05°16' W 004°02'72708013.2
2016-Nov-28 16:33N 37°36' E 121°25'462554881.9
2016-Nov-28 16:33N 29°54' E 121°59'395473762.3
2016-Nov-28 16:33N 24°26' E 117°53'40558384.7
2016-Nov-28 16:33N 29°58' E 122°15'62746046.5
2016-Nov-28 16:32N 23°01' E 113°32'1063109326.7
2016-Nov-28 16:31N 39°56' E 119°42'52028378.9
2016-Nov-28 16:30N 31°24' E 121°36'3858767.8
2016-Nov-28 16:27N 37°49' E 121°31'727322709.2
2016-Nov-28 16:08N 05°16' W 004°02'7347629731.8
2016-Nov-28 16:08N 29°60' E 121°49'463814.5
2016-Nov-28 15:33N 37°42' E 121°29'818245348.8
2016-Nov-28 15:33N 24°26' E 117°51'716025774788.9
2016-Nov-28 15:33N 05°17' W 004°01'72683737964.8
2016-Nov-28 15:33N 37°36' E 121°25'462554881.9
2016-Nov-28 15:33N 29°54' E 121°59'61222730.5
2016-Nov-28 15:31N 39°56' E 119°42'61153691.8
2016-Nov-28 15:31N 29°58' E 122°15'627205116.0
2016-Nov-28 15:31N 23°01' E 113°32'662170261.8
2016-Nov-28 15:30N 31°24' E 121°36'46210273.0
2016-Nov-28 15:28N 24°26' E 117°53'4604563.4
2016-Nov-28 15:22N 31°19' E 121°42'376468.7
2016-Nov-28 14:33N 37°35' E 121°25'11286.1
2016-Nov-28 14:33N 37°36' E 121°25'965347513.9
2016-Nov-28 14:33N 23°01' E 113°32'6621191832.4
2016-Nov-28 14:33N 31°24' E 121°36'4631666947.5
2016-Nov-28 14:33N 24°26' E 117°51'406243888.5
2016-Nov-28 14:33N 29°58' E 122°15'1412477.6
2016-Nov-28 14:33N 29°54' E 121°59'7356615878.2
2016-Nov-28 14:32N 05°17' W 004°01'7162415833.0
2016-Nov-28 14:31N 24°26' E 117°53'935560779.6
2016-Nov-28 14:31N 39°56' E 119°42'162168.4
2016-Nov-28 13:34N 37°36' E 121°25'014.4
2016-Nov-28 13:33N 37°36' E 121°25'9651158379.5
2016-Nov-28 13:33N 23°01' E 113°32'6271128138.2
2016-Nov-28 13:33N 29°58' E 122°15'40591226.1
2016-Nov-28 13:33N 24°26' E 117°53'46287588.9
2016-Nov-28 13:33N 31°24' E 121°36'52021045.3
2016-Nov-28 13:31N 39°56' E 119°42'61230622.7
2016-Nov-28 13:30N 29°54' E 121°59'91272.0
2016-Nov-28 13:10N 31°22' E 121°30'374617.7
2016-Nov-28 12:34N 37°36' E 121°25'0 7.8
2016-Nov-28 12:33N 37°36' E 121°25'460276293.2
2016-Nov-28 12:33N 29°57' E 122°16'147404.7
2016-Nov-28 12:33N 29°54' E 121°59'929767.9
2016-Nov-28 12:32N 31°24' E 121°36'4240.5
2016-Nov-28 12:31N 31°24' E 121°31'520234014.6
2016-Nov-28 12:31N 39°56' E 119°42'4749865.3
2016-Nov-28 12:28N 32°02' E 119°57'6406795.9
2016-Nov-28 12:23N 23°01' E 113°32'2546473.3
2016-Nov-28 12:20N 24°26' E 117°53'2491894.6
2016-Nov-28 12:12N 22°31' E 113°51'633974.7
2016-Nov-28 11:33N 29°52' E 122°17'466837919.5
2016-Nov-28 11:33N 37°36' E 121°25'043.1
2016-Nov-28 11:33N 37°36' E 121°25'37274323.4
2016-Nov-28 11:33N 31°24' E 121°36'86154956.5
2016-Nov-28 11:33N 31°58' E 120°03'6391150946.7
2016-Nov-28 11:33N 23°01' E 113°32'6142211059.1
2016-Nov-28 11:33N 29°54' E 121°59'39517547.0
2016-Nov-28 11:32N 24°26' E 117°53'7162678470.0
2016-Nov-28 11:31N 05°17' W 004°01'716075372.3
2016-Nov-28 11:25N 39°56' E 119°42'520601.7
2016-Nov-28 10:33N 31°24' E 121°36'372668910.6
2016-Nov-28 10:33N 37°36' E 121°25'965157955.5
2016-Nov-28 10:33N 23°01' E 113°32'6141105522.6
2016-Nov-28 10:33N 29°54' E 121°59'462554881.9
2016-Nov-28 10:33N 37°36' E 121°25'7268670917.7
2016-Nov-28 10:32N 05°17' W 004°01'7160396573.8
2016-Nov-28 10:31N 39°56' E 119°42'935280388.0
2016-Nov-28 10:31N 24°26' E 117°53'40231458.2
2016-Nov-28 10:30N 29°51' E 122°18'1651330.1
2016-Nov-28 10:23N 31°57' E 120°13'13308.3
2016-Nov-28 10:20N 32°01' E 119°58'342439.7
2016-Nov-28 09:34N 37°36' E 121°25'463277670.5
2016-Nov-28 09:33N 29°55' E 122°17'463833009.2
2016-Nov-28 09:33N 37°36' E 121°25'46272374.5
2016-Nov-28 09:33N 29°54' E 121°59'925930.5
2016-Nov-28 09:32N 31°24' E 121°36'462332858.1
2016-Nov-28 09:32N 24°26' E 117°53'21337.3
2016-Nov-28 09:32N 24°26' E 117°51'467105068.9
2016-Nov-28 09:32N 31°58' E 120°02'47861464.0
2016-Nov-28 09:31N 39°56' E 119°42'4781720972.5
2016-Nov-28 09:31N 31°59' E 120°20'14210685.5
2016-Nov-28 09:30N 29°58' E 121°48'7345979384.3
2016-Nov-28 09:30N 05°17' W 004°01'73237781.5
2016-Nov-28 08:33N 31°24' E 121°36'3721337838.5
2016-Nov-28 08:33N 37°36' E 121°25'086.3
2016-Nov-28 08:33N 37°36' E 121°25'380170834.4
2016-Nov-28 08:33N 31°16' E 121°45'459236003.8
2016-Nov-28 08:33N 24°26' E 117°53'395203041.0
2016-Nov-28 08:33N 29°54' E 121°59'63865.5
2016-Nov-28 08:33N 29°59' E 121°54'1831903.4
2016-Nov-28 08:33N 29°58' E 122°15'16072066.5
2016-Nov-28 08:33N 31°56' E 120°09'467167993.6
2016-Nov-28 08:33N 24°26' E 117°51'25220600.6
2016-Nov-28 08:32N 23°01' E 113°32'106398113.7
2016-Nov-28 08:31N 39°56' E 119°42'716012888548.7
2016-Nov-28 08:31N 05°17' W 004°01'729655296.4
2016-Nov-28 08:23N 31°42' E 121°09'469565.4
2016-Nov-28 07:33N 24°26' E 117°53'  

Dump ship's entire track history